<?xml version="1.0" encoding="UTF-8" standalone="no" ?>
<gpx xmlns="http://www.topografix.com/GPX/1/1" xmlns:xsi="http://www.w3.org/2001/XMLSchema-instance" xsi:schemaLocation="http://www.topografix.com/GPX/1/1 http://www.topografix.com/GPX/1/1/gpx.xsd" version="1.1" creator="VisuGPX - https://www.visugpx.com">
  <metadata>
    <name>rando bikepacking Diois jour2</name>
    <desc><![CDATA[ second jour de la rando bikepacking proposée par SOBUL en septembre 2017. Technique, ludique et paysages exceptionnels.]]></desc>
  </metadata>
  <trk>
    <name><![CDATA[SoBul_J2_Long]]></name>
    <trkseg>
      <trkpt lat="44.63743" lon="5.28548">
        <ele>461.1</ele>
        <time>2017-04-21T13:35:58Z</time>
      </trkpt>
      <trkpt lat="44.63734" lon="5.28551">
        <ele>459.2</ele>
        <time>2017-04-21T13:36:02Z</time>
      </trkpt>
      <trkpt lat="44.63725" lon="5.2856">
        <ele>456.9</ele>
        <time>2017-04-21T13:36:06Z</time>
      </trkpt>
      <trkpt lat="44.6372" lon="5.28571">
        <ele>455</ele>
        <time>2017-04-21T13:36:09Z</time>
      </trkpt>
      <trkpt lat="44.63711" lon="5.28585">
        <ele>453</ele>
        <time>2017-04-21T13:36:12Z</time>
      </trkpt>
      <trkpt lat="44.63705" lon="5.28594">
        <ele>452.1</ele>
        <time>2017-04-21T13:36:14Z</time>
      </trkpt>
      <trkpt lat="44.63699" lon="5.28608">
        <ele>451.3</ele>
        <time>2017-04-21T13:36:16Z</time>
      </trkpt>
      <trkpt lat="44.63694" lon="5.2862">
        <ele>450.5</ele>
        <time>2017-04-21T13:36:18Z</time>
      </trkpt>
      <trkpt lat="44.6369" lon="5.28633">
        <ele>449.1</ele>
        <time>2017-04-21T13:36:20Z</time>
      </trkpt>
      <trkpt lat="44.63685" lon="5.28647">
        <ele>448</ele>
        <time>2017-04-21T13:36:23Z</time>
      </trkpt>
      <trkpt lat="44.63679" lon="5.28659">
        <ele>448.6</ele>
        <time>2017-04-21T13:36:29Z</time>
      </trkpt>
      <trkpt lat="44.63676" lon="5.28671">
        <ele>448</ele>
        <time>2017-04-21T13:36:36Z</time>
      </trkpt>
      <trkpt lat="44.63668" lon="5.28678">
        <ele>447.7</ele>
        <time>2017-04-21T13:36:44Z</time>
      </trkpt>
      <trkpt lat="44.6366" lon="5.28687">
        <ele>448</ele>
        <time>2017-04-21T13:36:54Z</time>
      </trkpt>
      <trkpt lat="44.6365" lon="5.2869">
        <ele>451.4</ele>
        <time>2017-04-21T13:37:06Z</time>
      </trkpt>
      <trkpt lat="44.63642" lon="5.28695">
        <ele>454</ele>
        <time>2017-04-21T13:37:19Z</time>
      </trkpt>
      <trkpt lat="44.63634" lon="5.28703">
        <ele>456.3</ele>
        <time>2017-04-21T13:37:30Z</time>
      </trkpt>
      <trkpt lat="44.63624" lon="5.28704">
        <ele>455.8</ele>
        <time>2017-04-21T13:37:40Z</time>
      </trkpt>
      <trkpt lat="44.6362" lon="5.28703">
        <ele>460</ele>
        <time>2017-04-21T13:37:49Z</time>
      </trkpt>
      <trkpt lat="44.63611" lon="5.28703">
        <ele>461.4</ele>
        <time>2017-04-21T13:37:59Z</time>
      </trkpt>
      <trkpt lat="44.63602" lon="5.28706">
        <ele>462.9</ele>
        <time>2017-04-21T13:38:08Z</time>
      </trkpt>
      <trkpt lat="44.63605" lon="5.2871">
        <ele>464.7</ele>
        <time>2017-04-21T13:38:18Z</time>
      </trkpt>
      <trkpt lat="44.63611" lon="5.2872">
        <ele>464.6</ele>
        <time>2017-04-21T13:38:31Z</time>
      </trkpt>
      <trkpt lat="44.63612" lon="5.28721">
        <ele>464.7</ele>
        <time>2017-04-21T13:38:34Z</time>
      </trkpt>
      <trkpt lat="44.63621" lon="5.28727">
        <ele>466.9</ele>
        <time>2017-04-21T13:39:25Z</time>
      </trkpt>
      <trkpt lat="44.63629" lon="5.28734">
        <ele>468.1</ele>
        <time>2017-04-21T13:39:32Z</time>
      </trkpt>
      <trkpt lat="44.6362" lon="5.2873">
        <ele>469.4</ele>
        <time>2017-04-21T13:39:44Z</time>
      </trkpt>
      <trkpt lat="44.63622" lon="5.28743">
        <ele>474.1</ele>
        <time>2017-04-21T13:40:00Z</time>
      </trkpt>
      <trkpt lat="44.63631" lon="5.28749">
        <ele>476.7</ele>
        <time>2017-04-21T13:40:11Z</time>
      </trkpt>
      <trkpt lat="44.6364" lon="5.28755">
        <ele>476.2</ele>
        <time>2017-04-21T13:40:19Z</time>
      </trkpt>
      <trkpt lat="44.63648" lon="5.28762">
        <ele>479</ele>
        <time>2017-04-21T13:40:28Z</time>
      </trkpt>
      <trkpt lat="44.63657" lon="5.2876">
        <ele>481.9</ele>
        <time>2017-04-21T13:40:41Z</time>
      </trkpt>
      <trkpt lat="44.63657" lon="5.2876">
        <ele>481.4</ele>
        <time>2017-04-21T13:40:43Z</time>
      </trkpt>
      <trkpt lat="44.63664" lon="5.28759">
        <ele>481.6</ele>
        <time>2017-04-21T13:41:12Z</time>
      </trkpt>
      <trkpt lat="44.63671" lon="5.28767">
        <ele>480.9</ele>
        <time>2017-04-21T13:42:01Z</time>
      </trkpt>
      <trkpt lat="44.63675" lon="5.28779">
        <ele>480.4</ele>
        <time>2017-04-21T13:42:05Z</time>
      </trkpt>
      <trkpt lat="44.63669" lon="5.28789">
        <ele>481.3</ele>
        <time>2017-04-21T13:42:11Z</time>
      </trkpt>
      <trkpt lat="44.6366" lon="5.28797">
        <ele>481</ele>
        <time>2017-04-21T13:42:17Z</time>
      </trkpt>
      <trkpt lat="44.6365" lon="5.28804">
        <ele>480.9</ele>
        <time>2017-04-21T13:42:21Z</time>
      </trkpt>
      <trkpt lat="44.63649" lon="5.28818">
        <ele>481.8</ele>
        <time>2017-04-21T13:42:27Z</time>
      </trkpt>
      <trkpt lat="44.63648" lon="5.28832">
        <ele>482.1</ele>
        <time>2017-04-21T13:42:32Z</time>
      </trkpt>
      <trkpt lat="44.63644" lon="5.28844">
        <ele>482.6</ele>
        <time>2017-04-21T13:42:37Z</time>
      </trkpt>
      <trkpt lat="44.6364" lon="5.28857">
        <ele>484.1</ele>
        <time>2017-04-21T13:42:42Z</time>
      </trkpt>
      <trkpt lat="44.63638" lon="5.28872">
        <ele>485.3</ele>
        <time>2017-04-21T13:42:50Z</time>
      </trkpt>
      <trkpt lat="44.63638" lon="5.28885">
        <ele>486.4</ele>
        <time>2017-04-21T13:42:58Z</time>
      </trkpt>
      <trkpt lat="44.63641" lon="5.28899">
        <ele>487.6</ele>
        <time>2017-04-21T13:43:05Z</time>
      </trkpt>
      <trkpt lat="44.63639" lon="5.28912">
        <ele>488.5</ele>
        <time>2017-04-21T13:43:11Z</time>
      </trkpt>
      <trkpt lat="44.63641" lon="5.28925">
        <ele>489</ele>
        <time>2017-04-21T13:43:15Z</time>
      </trkpt>
      <trkpt lat="44.6364" lon="5.2894">
        <ele>489.8</ele>
        <time>2017-04-21T13:43:21Z</time>
      </trkpt>
      <trkpt lat="44.63637" lon="5.28954">
        <ele>490.6</ele>
        <time>2017-04-21T13:43:26Z</time>
      </trkpt>
      <trkpt lat="44.63633" lon="5.28966">
        <ele>491.9</ele>
        <time>2017-04-21T13:43:33Z</time>
      </trkpt>
      <trkpt lat="44.63634" lon="5.2898">
        <ele>493.3</ele>
        <time>2017-04-21T13:43:39Z</time>
      </trkpt>
      <trkpt lat="44.63637" lon="5.28992">
        <ele>494.6</ele>
        <time>2017-04-21T13:43:44Z</time>
      </trkpt>
      <trkpt lat="44.63644" lon="5.29001">
        <ele>495.1</ele>
        <time>2017-04-21T13:43:49Z</time>
      </trkpt>
      <trkpt lat="44.63651" lon="5.2901">
        <ele>495.3</ele>
        <time>2017-04-21T13:43:53Z</time>
      </trkpt>
      <trkpt lat="44.63656" lon="5.29022">
        <ele>495.6</ele>
        <time>2017-04-21T13:43:58Z</time>
      </trkpt>
      <trkpt lat="44.63662" lon="5.29035">
        <ele>496.5</ele>
        <time>2017-04-21T13:44:03Z</time>
      </trkpt>
      <trkpt lat="44.63668" lon="5.29046">
        <ele>497.7</ele>
        <time>2017-04-21T13:44:07Z</time>
      </trkpt>
      <trkpt lat="44.63667" lon="5.2906">
        <ele>498.3</ele>
        <time>2017-04-21T13:44:13Z</time>
      </trkpt>
      <trkpt lat="44.63662" lon="5.29074">
        <ele>498.6</ele>
        <time>2017-04-21T13:44:18Z</time>
      </trkpt>
      <trkpt lat="44.63659" lon="5.2909">
        <ele>498.3</ele>
        <time>2017-04-21T13:44:22Z</time>
      </trkpt>
      <trkpt lat="44.63656" lon="5.29106">
        <ele>497.6</ele>
        <time>2017-04-21T13:44:26Z</time>
      </trkpt>
      <trkpt lat="44.63653" lon="5.29118">
        <ele>497.3</ele>
        <time>2017-04-21T13:44:29Z</time>
      </trkpt>
      <trkpt lat="44.63648" lon="5.29132">
        <ele>496.9</ele>
        <time>2017-04-21T13:44:34Z</time>
      </trkpt>
      <trkpt lat="44.63643" lon="5.29143">
        <ele>497.5</ele>
        <time>2017-04-21T13:44:41Z</time>
      </trkpt>
      <trkpt lat="44.63636" lon="5.2915">
        <ele>497.8</ele>
        <time>2017-04-21T13:44:47Z</time>
      </trkpt>
      <trkpt lat="44.63627" lon="5.29156">
        <ele>497.7</ele>
        <time>2017-04-21T13:44:52Z</time>
      </trkpt>
      <trkpt lat="44.63617" lon="5.29162">
        <ele>497.9</ele>
        <time>2017-04-21T13:44:55Z</time>
      </trkpt>
      <trkpt lat="44.63605" lon="5.29167">
        <ele>498</ele>
        <time>2017-04-21T13:44:58Z</time>
      </trkpt>
      <trkpt lat="44.63594" lon="5.29171">
        <ele>497.8</ele>
        <time>2017-04-21T13:45:01Z</time>
      </trkpt>
      <trkpt lat="44.63584" lon="5.29169">
        <ele>498.1</ele>
        <time>2017-04-21T13:45:05Z</time>
      </trkpt>
      <trkpt lat="44.63577" lon="5.29161">
        <ele>498.2</ele>
        <time>2017-04-21T13:45:09Z</time>
      </trkpt>
      <trkpt lat="44.63569" lon="5.29154">
        <ele>498.3</ele>
        <time>2017-04-21T13:45:13Z</time>
      </trkpt>
      <trkpt lat="44.63559" lon="5.29149">
        <ele>498</ele>
        <time>2017-04-21T13:45:18Z</time>
      </trkpt>
      <trkpt lat="44.63551" lon="5.29145">
        <ele>497.8</ele>
        <time>2017-04-21T13:45:24Z</time>
      </trkpt>
      <trkpt lat="44.63538" lon="5.2915">
        <ele>497.7</ele>
        <time>2017-04-21T13:45:29Z</time>
      </trkpt>
      <trkpt lat="44.63527" lon="5.29157">
        <ele>497.7</ele>
        <time>2017-04-21T13:45:33Z</time>
      </trkpt>
      <trkpt lat="44.63517" lon="5.29164">
        <ele>497.4</ele>
        <time>2017-04-21T13:45:38Z</time>
      </trkpt>
      <trkpt lat="44.63508" lon="5.29174">
        <ele>497.5</ele>
        <time>2017-04-21T13:45:41Z</time>
      </trkpt>
      <trkpt lat="44.63498" lon="5.29184">
        <ele>497.3</ele>
        <time>2017-04-21T13:45:45Z</time>
      </trkpt>
      <trkpt lat="44.6349" lon="5.29188">
        <ele>497.6</ele>
        <time>2017-04-21T13:45:47Z</time>
      </trkpt>
      <trkpt lat="44.63479" lon="5.29189">
        <ele>497.6</ele>
        <time>2017-04-21T13:45:50Z</time>
      </trkpt>
      <trkpt lat="44.63468" lon="5.29187">
        <ele>497.8</ele>
        <time>2017-04-21T13:45:53Z</time>
      </trkpt>
      <trkpt lat="44.63458" lon="5.29186">
        <ele>497.6</ele>
        <time>2017-04-21T13:45:57Z</time>
      </trkpt>
      <trkpt lat="44.6345" lon="5.29177">
        <ele>498</ele>
        <time>2017-04-21T13:46:02Z</time>
      </trkpt>
      <trkpt lat="44.6344" lon="5.29181">
        <ele>498.3</ele>
        <time>2017-04-21T13:46:06Z</time>
      </trkpt>
      <trkpt lat="44.63431" lon="5.29184">
        <ele>498.3</ele>
        <time>2017-04-21T13:46:10Z</time>
      </trkpt>
      <trkpt lat="44.63423" lon="5.29191">
        <ele>498.3</ele>
        <time>2017-04-21T13:46:15Z</time>
      </trkpt>
      <trkpt lat="44.63423" lon="5.29205">
        <ele>499.3</ele>
        <time>2017-04-21T13:46:23Z</time>
      </trkpt>
      <trkpt lat="44.63431" lon="5.29213">
        <ele>499.3</ele>
        <time>2017-04-21T13:46:28Z</time>
      </trkpt>
      <trkpt lat="44.63438" lon="5.29219">
        <ele>500</ele>
        <time>2017-04-21T13:46:37Z</time>
      </trkpt>
      <trkpt lat="44.63448" lon="5.29216">
        <ele>499.9</ele>
        <time>2017-04-21T13:46:41Z</time>
      </trkpt>
      <trkpt lat="44.63457" lon="5.29228">
        <ele>499.5</ele>
        <time>2017-04-21T13:46:44Z</time>
      </trkpt>
      <trkpt lat="44.63463" lon="5.29238">
        <ele>499.5</ele>
        <time>2017-04-21T13:46:46Z</time>
      </trkpt>
      <trkpt lat="44.63467" lon="5.29252">
        <ele>499.2</ele>
        <time>2017-04-21T13:46:49Z</time>
      </trkpt>
      <trkpt lat="44.63472" lon="5.29266">
        <ele>498.5</ele>
        <time>2017-04-21T13:46:52Z</time>
      </trkpt>
      <trkpt lat="44.63473" lon="5.29281">
        <ele>497.9</ele>
        <time>2017-04-21T13:46:55Z</time>
      </trkpt>
      <trkpt lat="44.63473" lon="5.29297">
        <ele>497.5</ele>
        <time>2017-04-21T13:46:59Z</time>
      </trkpt>
      <trkpt lat="44.63466" lon="5.29307">
        <ele>497.7</ele>
        <time>2017-04-21T13:47:02Z</time>
      </trkpt>
      <trkpt lat="44.63458" lon="5.29313">
        <ele>497.7</ele>
        <time>2017-04-21T13:47:05Z</time>
      </trkpt>
      <trkpt lat="44.63457" lon="5.29328">
        <ele>498</ele>
        <time>2017-04-21T13:47:09Z</time>
      </trkpt>
      <trkpt lat="44.63454" lon="5.29345">
        <ele>498.3</ele>
        <time>2017-04-21T13:47:13Z</time>
      </trkpt>
      <trkpt lat="44.63454" lon="5.29359">
        <ele>498</ele>
        <time>2017-04-21T13:47:16Z</time>
      </trkpt>
      <trkpt lat="44.63455" lon="5.29372">
        <ele>498</ele>
        <time>2017-04-21T13:47:19Z</time>
      </trkpt>
      <trkpt lat="44.63456" lon="5.2939">
        <ele>498.3</ele>
        <time>2017-04-21T13:47:23Z</time>
      </trkpt>
      <trkpt lat="44.63457" lon="5.29405">
        <ele>497.9</ele>
        <time>2017-04-21T13:47:26Z</time>
      </trkpt>
      <trkpt lat="44.63459" lon="5.29418">
        <ele>498.2</ele>
        <time>2017-04-21T13:47:29Z</time>
      </trkpt>
      <trkpt lat="44.63459" lon="5.29433">
        <ele>498.2</ele>
        <time>2017-04-21T13:47:33Z</time>
      </trkpt>
      <trkpt lat="44.63457" lon="5.29445">
        <ele>498.3</ele>
        <time>2017-04-21T13:47:37Z</time>
      </trkpt>
      <trkpt lat="44.63453" lon="5.29461">
        <ele>498.7</ele>
        <time>2017-04-21T13:47:41Z</time>
      </trkpt>
      <trkpt lat="44.63445" lon="5.29471">
        <ele>498.8</ele>
        <time>2017-04-21T13:47:45Z</time>
      </trkpt>
      <trkpt lat="44.63434" lon="5.2947">
        <ele>499.1</ele>
        <time>2017-04-21T13:47:49Z</time>
      </trkpt>
      <trkpt lat="44.63423" lon="5.29467">
        <ele>498.9</ele>
        <time>2017-04-21T13:47:53Z</time>
      </trkpt>
      <trkpt lat="44.63411" lon="5.29467">
        <ele>499.7</ele>
        <time>2017-04-21T13:47:59Z</time>
      </trkpt>
      <trkpt lat="44.63399" lon="5.29467">
        <ele>499.6</ele>
        <time>2017-04-21T13:48:04Z</time>
      </trkpt>
      <trkpt lat="44.63388" lon="5.29463">
        <ele>500</ele>
        <time>2017-04-21T13:48:09Z</time>
      </trkpt>
      <trkpt lat="44.63378" lon="5.29463">
        <ele>500</ele>
        <time>2017-04-21T13:48:13Z</time>
      </trkpt>
      <trkpt lat="44.63365" lon="5.29461">
        <ele>499.7</ele>
        <time>2017-04-21T13:48:17Z</time>
      </trkpt>
      <trkpt lat="44.63355" lon="5.29456">
        <ele>499.5</ele>
        <time>2017-04-21T13:48:20Z</time>
      </trkpt>
      <trkpt lat="44.63344" lon="5.29453">
        <ele>499.9</ele>
        <time>2017-04-21T13:48:23Z</time>
      </trkpt>
      <trkpt lat="44.63334" lon="5.29452">
        <ele>499.8</ele>
        <time>2017-04-21T13:48:26Z</time>
      </trkpt>
      <trkpt lat="44.63323" lon="5.29448">
        <ele>500</ele>
        <time>2017-04-21T13:48:29Z</time>
      </trkpt>
      <trkpt lat="44.63312" lon="5.29444">
        <ele>499.9</ele>
        <time>2017-04-21T13:48:33Z</time>
      </trkpt>
      <trkpt lat="44.63301" lon="5.2945">
        <ele>499.8</ele>
        <time>2017-04-21T13:48:37Z</time>
      </trkpt>
      <trkpt lat="44.63289" lon="5.29453">
        <ele>500</ele>
        <time>2017-04-21T13:48:40Z</time>
      </trkpt>
      <trkpt lat="44.63279" lon="5.29458">
        <ele>500</ele>
        <time>2017-04-21T13:48:42Z</time>
      </trkpt>
      <trkpt lat="44.63267" lon="5.29458">
        <ele>499.6</ele>
        <time>2017-04-21T13:48:45Z</time>
      </trkpt>
      <trkpt lat="44.63254" lon="5.29458">
        <ele>500.7</ele>
        <time>2017-04-21T13:48:48Z</time>
      </trkpt>
      <trkpt lat="44.63244" lon="5.29456">
        <ele>501</ele>
        <time>2017-04-21T13:48:50Z</time>
      </trkpt>
      <trkpt lat="44.63231" lon="5.29459">
        <ele>500.8</ele>
        <time>2017-04-21T13:48:53Z</time>
      </trkpt>
      <trkpt lat="44.63218" lon="5.2946">
        <ele>501.3</ele>
        <time>2017-04-21T13:48:56Z</time>
      </trkpt>
      <trkpt lat="44.63207" lon="5.29453">
        <ele>502</ele>
        <time>2017-04-21T13:49:00Z</time>
      </trkpt>
      <trkpt lat="44.63198" lon="5.29441">
        <ele>501.9</ele>
        <time>2017-04-21T13:49:03Z</time>
      </trkpt>
      <trkpt lat="44.6319" lon="5.29431">
        <ele>502</ele>
        <time>2017-04-21T13:49:05Z</time>
      </trkpt>
      <trkpt lat="44.63182" lon="5.2942">
        <ele>502.1</ele>
        <time>2017-04-21T13:49:08Z</time>
      </trkpt>
      <trkpt lat="44.63173" lon="5.29412">
        <ele>501.7</ele>
        <time>2017-04-21T13:49:11Z</time>
      </trkpt>
      <trkpt lat="44.63165" lon="5.29404">
        <ele>502.2</ele>
        <time>2017-04-21T13:49:14Z</time>
      </trkpt>
      <trkpt lat="44.63155" lon="5.29396">
        <ele>502.3</ele>
        <time>2017-04-21T13:49:17Z</time>
      </trkpt>
      <trkpt lat="44.63143" lon="5.29393">
        <ele>501.3</ele>
        <time>2017-04-21T13:49:21Z</time>
      </trkpt>
      <trkpt lat="44.63132" lon="5.29394">
        <ele>502</ele>
        <time>2017-04-21T13:49:26Z</time>
      </trkpt>
      <trkpt lat="44.63123" lon="5.29396">
        <ele>501.4</ele>
        <time>2017-04-21T13:49:31Z</time>
      </trkpt>
      <trkpt lat="44.63126" lon="5.29409">
        <ele>502.8</ele>
        <time>2017-04-21T13:49:39Z</time>
      </trkpt>
      <trkpt lat="44.63126" lon="5.29423">
        <ele>503.8</ele>
        <time>2017-04-21T13:49:44Z</time>
      </trkpt>
      <trkpt lat="44.63121" lon="5.29436">
        <ele>504.2</ele>
        <time>2017-04-21T13:49:48Z</time>
      </trkpt>
      <trkpt lat="44.63117" lon="5.29448">
        <ele>505.3</ele>
        <time>2017-04-21T13:49:52Z</time>
      </trkpt>
      <trkpt lat="44.63111" lon="5.29461">
        <ele>506.7</ele>
        <time>2017-04-21T13:50:00Z</time>
      </trkpt>
      <trkpt lat="44.6311" lon="5.29475">
        <ele>507.4</ele>
        <time>2017-04-21T13:50:05Z</time>
      </trkpt>
      <trkpt lat="44.63103" lon="5.29488">
        <ele>508.8</ele>
        <time>2017-04-21T13:50:10Z</time>
      </trkpt>
      <trkpt lat="44.63097" lon="5.29501">
        <ele>509.6</ele>
        <time>2017-04-21T13:50:15Z</time>
      </trkpt>
      <trkpt lat="44.63092" lon="5.29512">
        <ele>510.4</ele>
        <time>2017-04-21T13:50:20Z</time>
      </trkpt>
      <trkpt lat="44.63085" lon="5.29524">
        <ele>510.9</ele>
        <time>2017-04-21T13:50:25Z</time>
      </trkpt>
      <trkpt lat="44.63078" lon="5.2953">
        <ele>511.2</ele>
        <time>2017-04-21T13:50:29Z</time>
      </trkpt>
      <trkpt lat="44.63071" lon="5.29539">
        <ele>511.7</ele>
        <time>2017-04-21T13:50:33Z</time>
      </trkpt>
      <trkpt lat="44.63061" lon="5.29547">
        <ele>511.6</ele>
        <time>2017-04-21T13:50:36Z</time>
      </trkpt>
      <trkpt lat="44.6305" lon="5.29549">
        <ele>512.1</ele>
        <time>2017-04-21T13:50:39Z</time>
      </trkpt>
      <trkpt lat="44.63043" lon="5.29556">
        <ele>512.5</ele>
        <time>2017-04-21T13:50:43Z</time>
      </trkpt>
      <trkpt lat="44.63041" lon="5.2957">
        <ele>513</ele>
        <time>2017-04-21T13:50:48Z</time>
      </trkpt>
      <trkpt lat="44.63035" lon="5.2958">
        <ele>513.4</ele>
        <time>2017-04-21T13:50:52Z</time>
      </trkpt>
      <trkpt lat="44.63028" lon="5.29593">
        <ele>514.4</ele>
        <time>2017-04-21T13:50:57Z</time>
      </trkpt>
      <trkpt lat="44.6303" lon="5.29608">
        <ele>514.5</ele>
        <time>2017-04-21T13:51:01Z</time>
      </trkpt>
      <trkpt lat="44.63033" lon="5.29624">
        <ele>515.3</ele>
        <time>2017-04-21T13:51:05Z</time>
      </trkpt>
      <trkpt lat="44.63028" lon="5.2964">
        <ele>515.6</ele>
        <time>2017-04-21T13:51:09Z</time>
      </trkpt>
      <trkpt lat="44.63027" lon="5.29656">
        <ele>516.3</ele>
        <time>2017-04-21T13:51:13Z</time>
      </trkpt>
      <trkpt lat="44.63025" lon="5.29669">
        <ele>517.5</ele>
        <time>2017-04-21T13:51:17Z</time>
      </trkpt>
      <trkpt lat="44.6302" lon="5.29683">
        <ele>518.7</ele>
        <time>2017-04-21T13:51:22Z</time>
      </trkpt>
      <trkpt lat="44.63015" lon="5.29697">
        <ele>519.6</ele>
        <time>2017-04-21T13:51:27Z</time>
      </trkpt>
      <trkpt lat="44.63013" lon="5.29712">
        <ele>520</ele>
        <time>2017-04-21T13:51:32Z</time>
      </trkpt>
      <trkpt lat="44.63009" lon="5.29723">
        <ele>521</ele>
        <time>2017-04-21T13:51:37Z</time>
      </trkpt>
      <trkpt lat="44.63004" lon="5.29737">
        <ele>522.4</ele>
        <time>2017-04-21T13:51:44Z</time>
      </trkpt>
      <trkpt lat="44.63008" lon="5.29749">
        <ele>523.1</ele>
        <time>2017-04-21T13:51:48Z</time>
      </trkpt>
      <trkpt lat="44.63011" lon="5.29761">
        <ele>523.8</ele>
        <time>2017-04-21T13:51:52Z</time>
      </trkpt>
      <trkpt lat="44.63016" lon="5.29775">
        <ele>524.7</ele>
        <time>2017-04-21T13:51:56Z</time>
      </trkpt>
      <trkpt lat="44.63023" lon="5.29786">
        <ele>525.9</ele>
        <time>2017-04-21T13:52:01Z</time>
      </trkpt>
      <trkpt lat="44.63027" lon="5.29797">
        <ele>526.6</ele>
        <time>2017-04-21T13:52:05Z</time>
      </trkpt>
      <trkpt lat="44.63024" lon="5.29811">
        <ele>528.1</ele>
        <time>2017-04-21T13:52:11Z</time>
      </trkpt>
      <trkpt lat="44.6302" lon="5.29823">
        <ele>529.1</ele>
        <time>2017-04-21T13:52:20Z</time>
      </trkpt>
      <trkpt lat="44.63023" lon="5.29838">
        <ele>529.2</ele>
        <time>2017-04-21T13:52:26Z</time>
      </trkpt>
      <trkpt lat="44.63027" lon="5.29852">
        <ele>530.1</ele>
        <time>2017-04-21T13:52:32Z</time>
      </trkpt>
      <trkpt lat="44.6303" lon="5.29867">
        <ele>531</ele>
        <time>2017-04-21T13:52:37Z</time>
      </trkpt>
      <trkpt lat="44.63033" lon="5.2988">
        <ele>531.6</ele>
        <time>2017-04-21T13:52:41Z</time>
      </trkpt>
      <trkpt lat="44.63031" lon="5.29892">
        <ele>532.4</ele>
        <time>2017-04-21T13:52:45Z</time>
      </trkpt>
      <trkpt lat="44.63028" lon="5.29906">
        <ele>533</ele>
        <time>2017-04-21T13:52:50Z</time>
      </trkpt>
      <trkpt lat="44.63027" lon="5.29921">
        <ele>533.8</ele>
        <time>2017-04-21T13:52:55Z</time>
      </trkpt>
      <trkpt lat="44.63022" lon="5.29934">
        <ele>534.4</ele>
        <time>2017-04-21T13:53:00Z</time>
      </trkpt>
      <trkpt lat="44.63019" lon="5.29948">
        <ele>535.5</ele>
        <time>2017-04-21T13:53:05Z</time>
      </trkpt>
      <trkpt lat="44.63018" lon="5.29962">
        <ele>536.9</ele>
        <time>2017-04-21T13:53:10Z</time>
      </trkpt>
      <trkpt lat="44.63016" lon="5.29976">
        <ele>538.2</ele>
        <time>2017-04-21T13:53:15Z</time>
      </trkpt>
      <trkpt lat="44.6301" lon="5.29988">
        <ele>538.8</ele>
        <time>2017-04-21T13:53:20Z</time>
      </trkpt>
      <trkpt lat="44.63006" lon="5.3">
        <ele>539.1</ele>
        <time>2017-04-21T13:53:25Z</time>
      </trkpt>
      <trkpt lat="44.63" lon="5.30011">
        <ele>540</ele>
        <time>2017-04-21T13:53:30Z</time>
      </trkpt>
      <trkpt lat="44.62997" lon="5.30024">
        <ele>540.2</ele>
        <time>2017-04-21T13:53:35Z</time>
      </trkpt>
      <trkpt lat="44.62991" lon="5.30035">
        <ele>540.3</ele>
        <time>2017-04-21T13:53:39Z</time>
      </trkpt>
      <trkpt lat="44.62983" lon="5.30043">
        <ele>541.2</ele>
        <time>2017-04-21T13:53:44Z</time>
      </trkpt>
      <trkpt lat="44.62974" lon="5.30043">
        <ele>541.5</ele>
        <time>2017-04-21T13:53:51Z</time>
      </trkpt>
      <trkpt lat="44.62967" lon="5.30033">
        <ele>541.7</ele>
        <time>2017-04-21T13:53:56Z</time>
      </trkpt>
      <trkpt lat="44.62963" lon="5.30018">
        <ele>541.5</ele>
        <time>2017-04-21T13:53:59Z</time>
      </trkpt>
      <trkpt lat="44.62957" lon="5.3">
        <ele>541.1</ele>
        <time>2017-04-21T13:54:02Z</time>
      </trkpt>
      <trkpt lat="44.62952" lon="5.29987">
        <ele>540.7</ele>
        <time>2017-04-21T13:54:04Z</time>
      </trkpt>
      <trkpt lat="44.62946" lon="5.29976">
        <ele>539.8</ele>
        <time>2017-04-21T13:54:06Z</time>
      </trkpt>
      <trkpt lat="44.62939" lon="5.29965">
        <ele>539.1</ele>
        <time>2017-04-21T13:54:08Z</time>
      </trkpt>
      <trkpt lat="44.62932" lon="5.29952">
        <ele>538</ele>
        <time>2017-04-21T13:54:10Z</time>
      </trkpt>
      <trkpt lat="44.62928" lon="5.2994">
        <ele>537</ele>
        <time>2017-04-21T13:54:12Z</time>
      </trkpt>
      <trkpt lat="44.62924" lon="5.29925">
        <ele>535.8</ele>
        <time>2017-04-21T13:54:14Z</time>
      </trkpt>
      <trkpt lat="44.62922" lon="5.29912">
        <ele>534.1</ele>
        <time>2017-04-21T13:54:16Z</time>
      </trkpt>
      <trkpt lat="44.62918" lon="5.29899">
        <ele>532.4</ele>
        <time>2017-04-21T13:54:20Z</time>
      </trkpt>
      <trkpt lat="44.6291" lon="5.29889">
        <ele>531.9</ele>
        <time>2017-04-21T13:54:25Z</time>
      </trkpt>
      <trkpt lat="44.62907" lon="5.29886">
        <ele>530.8</ele>
        <time>2017-04-21T13:54:32Z</time>
      </trkpt>
      <trkpt lat="44.62909" lon="5.29893">
        <ele>527.2</ele>
        <time>2017-04-21T13:55:48Z</time>
      </trkpt>
      <trkpt lat="44.62905" lon="5.29885">
        <ele>528.8</ele>
        <time>2017-04-21T13:56:02Z</time>
      </trkpt>
      <trkpt lat="44.62906" lon="5.29898">
        <ele>529.8</ele>
        <time>2017-04-21T13:58:41Z</time>
      </trkpt>
      <trkpt lat="44.62913" lon="5.29914">
        <ele>528.2</ele>
        <time>2017-04-21T13:58:45Z</time>
      </trkpt>
      <trkpt lat="44.6292" lon="5.29922">
        <ele>527.6</ele>
        <time>2017-04-21T13:58:48Z</time>
      </trkpt>
      <trkpt lat="44.62926" lon="5.29937">
        <ele>526.3</ele>
        <time>2017-04-21T13:58:51Z</time>
      </trkpt>
      <trkpt lat="44.62933" lon="5.29952">
        <ele>526.3</ele>
        <time>2017-04-21T13:58:54Z</time>
      </trkpt>
      <trkpt lat="44.62936" lon="5.29969">
        <ele>525.4</ele>
        <time>2017-04-21T13:58:57Z</time>
      </trkpt>
      <trkpt lat="44.62939" lon="5.29984">
        <ele>523.5</ele>
        <time>2017-04-21T13:59:00Z</time>
      </trkpt>
      <trkpt lat="44.62943" lon="5.30002">
        <ele>522.8</ele>
        <time>2017-04-21T13:59:03Z</time>
      </trkpt>
      <trkpt lat="44.62943" lon="5.30018">
        <ele>521.9</ele>
        <time>2017-04-21T13:59:05Z</time>
      </trkpt>
      <trkpt lat="44.62941" lon="5.30036">
        <ele>521</ele>
        <time>2017-04-21T13:59:07Z</time>
      </trkpt>
      <trkpt lat="44.62936" lon="5.30052">
        <ele>520.2</ele>
        <time>2017-04-21T13:59:09Z</time>
      </trkpt>
      <trkpt lat="44.62933" lon="5.30065">
        <ele>520</ele>
        <time>2017-04-21T13:59:11Z</time>
      </trkpt>
      <trkpt lat="44.62931" lon="5.30078">
        <ele>518</ele>
        <time>2017-04-21T13:59:14Z</time>
      </trkpt>
      <trkpt lat="44.62926" lon="5.30068">
        <ele>516.5</ele>
        <time>2017-04-21T13:59:23Z</time>
      </trkpt>
      <trkpt lat="44.62929" lon="5.30053">
        <ele>514.8</ele>
        <time>2017-04-21T13:59:27Z</time>
      </trkpt>
      <trkpt lat="44.62927" lon="5.30039">
        <ele>513.4</ele>
        <time>2017-04-21T13:59:30Z</time>
      </trkpt>
      <trkpt lat="44.6292" lon="5.30023">
        <ele>511.5</ele>
        <time>2017-04-21T13:59:33Z</time>
      </trkpt>
      <trkpt lat="44.62915" lon="5.30007">
        <ele>509.8</ele>
        <time>2017-04-21T13:59:36Z</time>
      </trkpt>
      <trkpt lat="44.62906" lon="5.29995">
        <ele>508.5</ele>
        <time>2017-04-21T13:59:39Z</time>
      </trkpt>
      <trkpt lat="44.62901" lon="5.29983">
        <ele>507.7</ele>
        <time>2017-04-21T13:59:41Z</time>
      </trkpt>
      <trkpt lat="44.62893" lon="5.29971">
        <ele>506</ele>
        <time>2017-04-21T13:59:43Z</time>
      </trkpt>
      <trkpt lat="44.62885" lon="5.29961">
        <ele>505.2</ele>
        <time>2017-04-21T13:59:45Z</time>
      </trkpt>
      <trkpt lat="44.62881" lon="5.29948">
        <ele>503.6</ele>
        <time>2017-04-21T13:59:47Z</time>
      </trkpt>
      <trkpt lat="44.62876" lon="5.29944">
        <ele>496.9</ele>
        <time>2017-04-21T13:59:58Z</time>
      </trkpt>
      <trkpt lat="44.62875" lon="5.29949">
        <ele>498.1</ele>
        <time>2017-04-21T14:00:06Z</time>
      </trkpt>
      <trkpt lat="44.62881" lon="5.2996">
        <ele>494.1</ele>
        <time>2017-04-21T14:00:20Z</time>
      </trkpt>
      <trkpt lat="44.62884" lon="5.29972">
        <ele>497.5</ele>
        <time>2017-04-21T14:00:26Z</time>
      </trkpt>
      <trkpt lat="44.62886" lon="5.29987">
        <ele>498</ele>
        <time>2017-04-21T14:00:32Z</time>
      </trkpt>
      <trkpt lat="44.62884" lon="5.30002">
        <ele>497.4</ele>
        <time>2017-04-21T14:00:42Z</time>
      </trkpt>
      <trkpt lat="44.62881" lon="5.30015">
        <ele>499.3</ele>
        <time>2017-04-21T14:00:51Z</time>
      </trkpt>
      <trkpt lat="44.62875" lon="5.30028">
        <ele>500</ele>
        <time>2017-04-21T14:00:58Z</time>
      </trkpt>
      <trkpt lat="44.62866" lon="5.30039">
        <ele>499.8</ele>
        <time>2017-04-21T14:01:01Z</time>
      </trkpt>
      <trkpt lat="44.62859" lon="5.3005">
        <ele>500.7</ele>
        <time>2017-04-21T14:01:04Z</time>
      </trkpt>
      <trkpt lat="44.62854" lon="5.30067">
        <ele>499.9</ele>
        <time>2017-04-21T14:01:07Z</time>
      </trkpt>
      <trkpt lat="44.62848" lon="5.30079">
        <ele>499</ele>
        <time>2017-04-21T14:01:10Z</time>
      </trkpt>
      <trkpt lat="44.62846" lon="5.30096">
        <ele>498.8</ele>
        <time>2017-04-21T14:01:14Z</time>
      </trkpt>
      <trkpt lat="44.62843" lon="5.30107">
        <ele>497.7</ele>
        <time>2017-04-21T14:01:17Z</time>
      </trkpt>
      <trkpt lat="44.6284" lon="5.3012">
        <ele>491.9</ele>
        <time>2017-04-21T14:01:21Z</time>
      </trkpt>
      <trkpt lat="44.62842" lon="5.30135">
        <ele>493.7</ele>
        <time>2017-04-21T14:01:26Z</time>
      </trkpt>
      <trkpt lat="44.62843" lon="5.3015">
        <ele>494.1</ele>
        <time>2017-04-21T14:01:29Z</time>
      </trkpt>
      <trkpt lat="44.62842" lon="5.30147">
        <ele>494.4</ele>
        <time>2017-04-21T14:01:51Z</time>
      </trkpt>
      <trkpt lat="44.62847" lon="5.30146">
        <ele>493.1</ele>
        <time>2017-04-21T14:02:10Z</time>
      </trkpt>
      <trkpt lat="44.62845" lon="5.3016">
        <ele>492</ele>
        <time>2017-04-21T14:02:51Z</time>
      </trkpt>
      <trkpt lat="44.62839" lon="5.30171">
        <ele>490.9</ele>
        <time>2017-04-21T14:03:00Z</time>
      </trkpt>
      <trkpt lat="44.62836" lon="5.30186">
        <ele>489.7</ele>
        <time>2017-04-21T14:03:08Z</time>
      </trkpt>
      <trkpt lat="44.62831" lon="5.30198">
        <ele>490</ele>
        <time>2017-04-21T14:03:12Z</time>
      </trkpt>
      <trkpt lat="44.62834" lon="5.30212">
        <ele>485.6</ele>
        <time>2017-04-21T14:03:18Z</time>
      </trkpt>
      <trkpt lat="44.62843" lon="5.3021">
        <ele>479.6</ele>
        <time>2017-04-21T14:03:27Z</time>
      </trkpt>
      <trkpt lat="44.62845" lon="5.30209">
        <ele>476.2</ele>
        <time>2017-04-21T14:03:34Z</time>
      </trkpt>
      <trkpt lat="44.62849" lon="5.30212">
        <ele>471.8</ele>
        <time>2017-04-21T14:03:46Z</time>
      </trkpt>
      <trkpt lat="44.62851" lon="5.30212">
        <ele>468.8</ele>
        <time>2017-04-21T14:03:55Z</time>
      </trkpt>
      <trkpt lat="44.62855" lon="5.302">
        <ele>466</ele>
        <time>2017-04-21T14:04:06Z</time>
      </trkpt>
      <trkpt lat="44.62856" lon="5.302">
        <ele>464.8</ele>
        <time>2017-04-21T14:04:09Z</time>
      </trkpt>
      <trkpt lat="44.62863" lon="5.30209">
        <ele>460.9</ele>
        <time>2017-04-21T14:04:28Z</time>
      </trkpt>
      <trkpt lat="44.62861" lon="5.30223">
        <ele>456.9</ele>
        <time>2017-04-21T14:04:37Z</time>
      </trkpt>
      <trkpt lat="44.62868" lon="5.30226">
        <ele>459.7</ele>
        <time>2017-04-21T14:04:44Z</time>
      </trkpt>
      <trkpt lat="44.62876" lon="5.30222">
        <ele>459.4</ele>
        <time>2017-04-21T14:06:02Z</time>
      </trkpt>
      <trkpt lat="44.62876" lon="5.30222">
        <ele>446.1</ele>
        <time>2017-04-21T16:16:57Z</time>
      </trkpt>
      <trkpt lat="44.62893" lon="5.30234">
        <ele>445</ele>
        <time>2017-04-21T16:16:57Z</time>
      </trkpt>
      <trkpt lat="44.62912" lon="5.30255">
        <ele>445.4</ele>
        <time>2017-04-21T20:36:32Z</time>
      </trkpt>
      <trkpt lat="44.62935" lon="5.30238">
        <ele>446.1</ele>
        <time>2017-04-22T01:24:05Z</time>
      </trkpt>
      <trkpt lat="44.62968" lon="5.30221">
        <ele>446.5</ele>
        <time>2017-04-22T07:49:20Z</time>
      </trkpt>
      <trkpt lat="44.63009" lon="5.30217">
        <ele>448.3</ele>
        <time>2017-04-22T15:19:21Z</time>
      </trkpt>
      <trkpt lat="44.63054" lon="5.30212">
        <ele>458.9</ele>
        <time>2017-04-22T23:42:36Z</time>
      </trkpt>
      <trkpt lat="44.63048" lon="5.3024">
        <ele>458.8</ele>
        <time>2017-04-23T03:25:31Z</time>
      </trkpt>
      <trkpt lat="44.63033" lon="5.30259">
        <ele>457.4</ele>
        <time>2017-04-23T07:12:49Z</time>
      </trkpt>
      <trkpt lat="44.63014" lon="5.3027">
        <ele>454.8</ele>
        <time>2017-04-23T10:56:11Z</time>
      </trkpt>
      <trkpt lat="44.62983" lon="5.30268">
        <ele>450.8</ele>
        <time>2017-04-23T16:33:53Z</time>
      </trkpt>
      <trkpt lat="44.62956" lon="5.30266">
        <ele>449.3</ele>
        <time>2017-04-23T21:34:40Z</time>
      </trkpt>
      <trkpt lat="44.62947" lon="5.30277">
        <ele>450.9</ele>
        <time>2017-04-23T23:43:56Z</time>
      </trkpt>
      <trkpt lat="44.62955" lon="5.30297">
        <ele>454.2</ele>
        <time>2017-04-24T02:45:01Z</time>
      </trkpt>
      <trkpt lat="44.62975" lon="5.30312">
        <ele>456.8</ele>
        <time>2017-04-24T06:52:56Z</time>
      </trkpt>
      <trkpt lat="44.62998" lon="5.30325">
        <ele>458.8</ele>
        <time>2017-04-24T11:27:31Z</time>
      </trkpt>
      <trkpt lat="44.63013" lon="5.30353">
        <ele>467.6</ele>
        <time>2017-04-24T16:14:17Z</time>
      </trkpt>
      <trkpt lat="44.63031" lon="5.30378">
        <ele>476.9</ele>
        <time>2017-04-24T21:10:25Z</time>
      </trkpt>
      <trkpt lat="44.63059" lon="5.304">
        <ele>486.8</ele>
        <time>2017-04-25T03:10:15Z</time>
      </trkpt>
      <trkpt lat="44.63088" lon="5.30428">
        <ele>499.5</ele>
        <time>2017-04-25T09:55:30Z</time>
      </trkpt>
      <trkpt lat="44.63113" lon="5.30424">
        <ele>508.6</ele>
        <time>2017-04-25T14:44:44Z</time>
      </trkpt>
      <trkpt lat="44.63138" lon="5.30412">
        <ele>516</ele>
        <time>2017-04-25T19:39:01Z</time>
      </trkpt>
      <trkpt lat="44.63164" lon="5.30416">
        <ele>527.5</ele>
        <time>2017-04-26T00:47:42Z</time>
      </trkpt>
      <trkpt lat="44.63186" lon="5.30424">
        <ele>540.5</ele>
        <time>2017-04-26T05:35:01Z</time>
      </trkpt>
      <trkpt lat="44.63201" lon="5.30411">
        <ele>545.4</ele>
        <time>2017-04-26T08:47:06Z</time>
      </trkpt>
      <trkpt lat="44.63198" lon="5.30387">
        <ele>539.6</ele>
        <time>2017-04-26T12:06:38Z</time>
      </trkpt>
      <trkpt lat="44.63195" lon="5.30358">
        <ele>532.8</ele>
        <time>2017-04-26T16:03:19Z</time>
      </trkpt>
      <trkpt lat="44.63202" lon="5.30334">
        <ele>531.1</ele>
        <time>2017-04-26T19:22:09Z</time>
      </trkpt>
      <trkpt lat="44.63216" lon="5.30311">
        <ele>535.5</ele>
        <time>2017-04-26T23:24:29Z</time>
      </trkpt>
      <trkpt lat="44.63233" lon="5.30295">
        <ele>543.3</ele>
        <time>2017-04-27T03:27:10Z</time>
      </trkpt>
      <trkpt lat="44.63248" lon="5.30292">
        <ele>550.9</ele>
        <time>2017-04-27T06:26:52Z</time>
      </trkpt>
      <trkpt lat="44.63248" lon="5.30307">
        <ele>552.3</ele>
        <time>2017-04-27T08:26:05Z</time>
      </trkpt>
      <trkpt lat="44.63236" lon="5.30319">
        <ele>546.7</ele>
        <time>2017-04-27T11:19:48Z</time>
      </trkpt>
      <trkpt lat="44.63217" lon="5.30339">
        <ele>540</ele>
        <time>2017-04-27T15:41:05Z</time>
      </trkpt>
      <trkpt lat="44.63218" lon="5.30361">
        <ele>544.6</ele>
        <time>2017-04-27T18:41:34Z</time>
      </trkpt>
      <trkpt lat="44.63226" lon="5.3039">
        <ele>554</ele>
        <time>2017-04-27T22:59:22Z</time>
      </trkpt>
      <trkpt lat="44.63223" lon="5.30423">
        <ele>559.2</ele>
        <time>2017-04-28T03:22:50Z</time>
      </trkpt>
      <trkpt lat="44.63227" lon="5.30471">
        <ele>570.4</ele>
        <time>2017-04-28T09:52:14Z</time>
      </trkpt>
      <trkpt lat="44.63201" lon="5.3049">
        <ele>560.7</ele>
        <time>2017-04-28T15:22:43Z</time>
      </trkpt>
      <trkpt lat="44.63172" lon="5.30502">
        <ele>547.4</ele>
        <time>2017-04-28T21:18:47Z</time>
      </trkpt>
      <trkpt lat="44.63153" lon="5.30515">
        <ele>545.3</ele>
        <time>2017-04-29T01:17:10Z</time>
      </trkpt>
      <trkpt lat="44.63131" lon="5.30546">
        <ele>551</ele>
        <time>2017-04-29T07:02:26Z</time>
      </trkpt>
      <trkpt lat="44.63108" lon="5.3057">
        <ele>554.7</ele>
        <time>2017-04-29T12:11:52Z</time>
      </trkpt>
      <trkpt lat="44.63083" lon="5.30582">
        <ele>554.5</ele>
        <time>2017-04-29T17:03:40Z</time>
      </trkpt>
      <trkpt lat="44.63054" lon="5.30587">
        <ele>549.2</ele>
        <time>2017-04-29T22:33:01Z</time>
      </trkpt>
      <trkpt lat="44.63055" lon="5.30604">
        <ele>555.3</ele>
        <time>2017-04-30T00:59:15Z</time>
      </trkpt>
      <trkpt lat="44.63086" lon="5.30606">
        <ele>564.7</ele>
        <time>2017-04-30T07:00:37Z</time>
      </trkpt>
      <trkpt lat="44.6313" lon="5.30621">
        <ele>579.7</ele>
        <time>2017-04-30T15:34:11Z</time>
      </trkpt>
      <trkpt lat="44.63163" lon="5.30604">
        <ele>579</ele>
        <time>2017-04-30T21:59:29Z</time>
      </trkpt>
      <trkpt lat="44.63212" lon="5.30568">
        <ele>586.3</ele>
        <time>2017-05-01T08:07:18Z</time>
      </trkpt>
      <trkpt lat="44.6327" lon="5.30567">
        <ele>613.8</ele>
        <time>2017-05-01T19:39:06Z</time>
      </trkpt>
      <trkpt lat="44.63292" lon="5.30544">
        <ele>621.5</ele>
        <time>2017-05-02T00:46:06Z</time>
      </trkpt>
      <trkpt lat="44.63296" lon="5.30507">
        <ele>616.9</ele>
        <time>2017-05-02T05:38:08Z</time>
      </trkpt>
      <trkpt lat="44.6331" lon="5.30467">
        <ele>616.4</ele>
        <time>2017-05-02T11:24:52Z</time>
      </trkpt>
      <trkpt lat="44.63332" lon="5.30432">
        <ele>622.2</ele>
        <time>2017-05-02T17:31:01Z</time>
      </trkpt>
      <trkpt lat="44.63358" lon="5.30401">
        <ele>631</ele>
        <time>2017-05-03T00:00:51Z</time>
      </trkpt>
      <trkpt lat="44.63378" lon="5.30358">
        <ele>635.3</ele>
        <time>2017-05-03T06:39:56Z</time>
      </trkpt>
      <trkpt lat="44.634" lon="5.30323">
        <ele>643.3</ele>
        <time>2017-05-03T12:55:14Z</time>
      </trkpt>
      <trkpt lat="44.63406" lon="5.30289">
        <ele>646.9</ele>
        <time>2017-05-03T17:29:26Z</time>
      </trkpt>
      <trkpt lat="44.63404" lon="5.30241">
        <ele>645.1</ele>
        <time>2017-05-03T23:48:07Z</time>
      </trkpt>
      <trkpt lat="44.63406" lon="5.30192">
        <ele>647</ele>
        <time>2017-05-04T06:11:34Z</time>
      </trkpt>
      <trkpt lat="44.63407" lon="5.30139">
        <ele>649.5</ele>
        <time>2017-05-04T13:03:03Z</time>
      </trkpt>
      <trkpt lat="44.63409" lon="5.30098">
        <ele>652.2</ele>
        <time>2017-05-04T18:24:43Z</time>
      </trkpt>
      <trkpt lat="44.63414" lon="5.30053">
        <ele>651.3</ele>
        <time>2017-05-05T00:22:20Z</time>
      </trkpt>
      <trkpt lat="44.63416" lon="5.30005">
        <ele>646.1</ele>
        <time>2017-05-05T06:41:45Z</time>
      </trkpt>
      <trkpt lat="44.63426" lon="5.29977">
        <ele>636.4</ele>
        <time>2017-05-05T11:05:54Z</time>
      </trkpt>
      <trkpt lat="44.63437" lon="5.29962">
        <ele>630.9</ele>
        <time>2017-05-05T14:02:18Z</time>
      </trkpt>
      <trkpt lat="44.63445" lon="5.29977">
        <ele>635.9</ele>
        <time>2017-05-05T16:30:17Z</time>
      </trkpt>
      <trkpt lat="44.63434" lon="5.30047">
        <ele>649.1</ele>
        <time>2017-05-06T02:03:55Z</time>
      </trkpt>
      <trkpt lat="44.63436" lon="5.30078">
        <ele>652.2</ele>
        <time>2017-05-06T06:11:54Z</time>
      </trkpt>
      <trkpt lat="44.63448" lon="5.30125">
        <ele>651.8</ele>
        <time>2017-05-06T12:42:31Z</time>
      </trkpt>
      <trkpt lat="44.6346" lon="5.30163">
        <ele>652.8</ele>
        <time>2017-05-06T18:06:45Z</time>
      </trkpt>
      <trkpt lat="44.63472" lon="5.30208">
        <ele>657.2</ele>
        <time>2017-05-07T00:20:37Z</time>
      </trkpt>
      <trkpt lat="44.63484" lon="5.3025">
        <ele>663.6</ele>
        <time>2017-05-07T06:24:37Z</time>
      </trkpt>
      <trkpt lat="44.635" lon="5.30301">
        <ele>672</ele>
        <time>2017-05-07T13:45:34Z</time>
      </trkpt>
      <trkpt lat="44.63504" lon="5.30338">
        <ele>675.1</ele>
        <time>2017-05-07T18:38:06Z</time>
      </trkpt>
      <trkpt lat="44.635" lon="5.30372">
        <ele>680</ele>
        <time>2017-05-07T23:09:19Z</time>
      </trkpt>
      <trkpt lat="44.6349" lon="5.30406">
        <ele>681.5</ele>
        <time>2017-05-08T03:58:23Z</time>
      </trkpt>
      <trkpt lat="44.63478" lon="5.30449">
        <ele>683.2</ele>
        <time>2017-05-08T10:02:24Z</time>
      </trkpt>
      <trkpt lat="44.63466" lon="5.30491">
        <ele>685.8</ele>
        <time>2017-05-08T15:49:10Z</time>
      </trkpt>
      <trkpt lat="44.63459" lon="5.30546">
        <ele>689.9</ele>
        <time>2017-05-08T23:08:22Z</time>
      </trkpt>
      <trkpt lat="44.63455" lon="5.30601">
        <ele>693.1</ele>
        <time>2017-05-09T06:21:44Z</time>
      </trkpt>
      <trkpt lat="44.63456" lon="5.30654">
        <ele>694.3</ele>
        <time>2017-05-09T13:20:07Z</time>
      </trkpt>
      <trkpt lat="44.63466" lon="5.30696">
        <ele>693.8</ele>
        <time>2017-05-09T19:04:14Z</time>
      </trkpt>
      <trkpt lat="44.63474" lon="5.30739">
        <ele>692.6</ele>
        <time>2017-05-10T00:52:39Z</time>
      </trkpt>
      <trkpt lat="44.63479" lon="5.30777">
        <ele>693.1</ele>
        <time>2017-05-10T05:53:22Z</time>
      </trkpt>
      <trkpt lat="44.63479" lon="5.30809">
        <ele>694.5</ele>
        <time>2017-05-10T10:04:25Z</time>
      </trkpt>
      <trkpt lat="44.63478" lon="5.30853">
        <ele>697.3</ele>
        <time>2017-05-10T15:46:48Z</time>
      </trkpt>
      <trkpt lat="44.63485" lon="5.30889">
        <ele>700.5</ele>
        <time>2017-05-10T20:39:13Z</time>
      </trkpt>
      <trkpt lat="44.63497" lon="5.30931">
        <ele>703.8</ele>
        <time>2017-05-11T02:32:59Z</time>
      </trkpt>
      <trkpt lat="44.63515" lon="5.30968">
        <ele>710.2</ele>
        <time>2017-05-11T08:32:46Z</time>
      </trkpt>
      <trkpt lat="44.63532" lon="5.31001">
        <ele>718.3</ele>
        <time>2017-05-11T13:56:19Z</time>
      </trkpt>
      <trkpt lat="44.63556" lon="5.31027">
        <ele>725.2</ele>
        <time>2017-05-11T19:34:20Z</time>
      </trkpt>
      <trkpt lat="44.63585" lon="5.31042">
        <ele>735</ele>
        <time>2017-05-12T01:25:40Z</time>
      </trkpt>
      <trkpt lat="44.63612" lon="5.31046">
        <ele>743.1</ele>
        <time>2017-05-12T06:37:19Z</time>
      </trkpt>
      <trkpt lat="44.6363" lon="5.31032">
        <ele>747.6</ele>
        <time>2017-05-12T10:20:51Z</time>
      </trkpt>
      <trkpt lat="44.63642" lon="5.30997">
        <ele>747.6</ele>
        <time>2017-05-12T15:23:36Z</time>
      </trkpt>
      <trkpt lat="44.63655" lon="5.30963">
        <ele>740.9</ele>
        <time>2017-05-12T20:33:03Z</time>
      </trkpt>
      <trkpt lat="44.63668" lon="5.30943">
        <ele>737.6</ele>
        <time>2017-05-13T00:08:05Z</time>
      </trkpt>
      <trkpt lat="44.63681" lon="5.30958">
        <ele>743.1</ele>
        <time>2017-05-13T03:25:23Z</time>
      </trkpt>
      <trkpt lat="44.63682" lon="5.30982">
        <ele>748.8</ele>
        <time>2017-05-13T06:35:01Z</time>
      </trkpt>
      <trkpt lat="44.63671" lon="5.3101">
        <ele>755.1</ele>
        <time>2017-05-13T10:48:56Z</time>
      </trkpt>
      <trkpt lat="44.63664" lon="5.31046">
        <ele>758.8</ele>
        <time>2017-05-13T15:43:29Z</time>
      </trkpt>
      <trkpt lat="44.63669" lon="5.31092">
        <ele>762</ele>
        <time>2017-05-13T21:45:29Z</time>
      </trkpt>
      <trkpt lat="44.63686" lon="5.31123">
        <ele>755.8</ele>
        <time>2017-05-14T02:58:32Z</time>
      </trkpt>
      <trkpt lat="44.63711" lon="5.31152">
        <ele>753.8</ele>
        <time>2017-05-14T08:52:07Z</time>
      </trkpt>
      <trkpt lat="44.63735" lon="5.31162">
        <ele>757.2</ele>
        <time>2017-05-14T13:28:34Z</time>
      </trkpt>
      <trkpt lat="44.63764" lon="5.31163">
        <ele>765</ele>
        <time>2017-05-14T18:59:05Z</time>
      </trkpt>
      <trkpt lat="44.63802" lon="5.31161">
        <ele>777.3</ele>
        <time>2017-05-15T02:16:31Z</time>
      </trkpt>
      <trkpt lat="44.63835" lon="5.31169">
        <ele>787.3</ele>
        <time>2017-05-15T08:29:14Z</time>
      </trkpt>
      <trkpt lat="44.63869" lon="5.31189">
        <ele>802</ele>
        <time>2017-05-15T15:42:39Z</time>
      </trkpt>
      <trkpt lat="44.63899" lon="5.31217">
        <ele>813.3</ele>
        <time>2017-05-15T22:33:01Z</time>
      </trkpt>
      <trkpt lat="44.63928" lon="5.31247">
        <ele>825.3</ele>
        <time>2017-05-16T05:23:19Z</time>
      </trkpt>
      <trkpt lat="44.63945" lon="5.31276">
        <ele>830.2</ele>
        <time>2017-05-16T10:19:17Z</time>
      </trkpt>
      <trkpt lat="44.63946" lon="5.31301">
        <ele>827</ele>
        <time>2017-05-16T13:38:45Z</time>
      </trkpt>
      <trkpt lat="44.63927" lon="5.31315">
        <ele>813.1</ele>
        <time>2017-05-16T18:15:38Z</time>
      </trkpt>
      <trkpt lat="44.63891" lon="5.31322">
        <ele>799.7</ele>
        <time>2017-05-17T01:14:32Z</time>
      </trkpt>
      <trkpt lat="44.63863" lon="5.31334">
        <ele>793</ele>
        <time>2017-05-17T06:45:49Z</time>
      </trkpt>
      <trkpt lat="44.63832" lon="5.31351">
        <ele>793.2</ele>
        <time>2017-05-17T12:45:20Z</time>
      </trkpt>
      <trkpt lat="44.63816" lon="5.31385">
        <ele>801.6</ele>
        <time>2017-05-17T18:15:04Z</time>
      </trkpt>
      <trkpt lat="44.63803" lon="5.31431">
        <ele>810.3</ele>
        <time>2017-05-18T00:47:51Z</time>
      </trkpt>
      <trkpt lat="44.63798" lon="5.31474">
        <ele>813.4</ele>
        <time>2017-05-18T06:27:00Z</time>
      </trkpt>
      <trkpt lat="44.63798" lon="5.31517">
        <ele>815.8</ele>
        <time>2017-05-18T12:02:41Z</time>
      </trkpt>
      <trkpt lat="44.63811" lon="5.31558">
        <ele>816.9</ele>
        <time>2017-05-18T17:55:08Z</time>
      </trkpt>
      <trkpt lat="44.63825" lon="5.31585">
        <ele>819.4</ele>
        <time>2017-05-18T22:18:40Z</time>
      </trkpt>
      <trkpt lat="44.63852" lon="5.31608">
        <ele>829.1</ele>
        <time>2017-05-19T04:15:26Z</time>
      </trkpt>
      <trkpt lat="44.63868" lon="5.3164">
        <ele>836.1</ele>
        <time>2017-05-19T09:31:11Z</time>
      </trkpt>
      <trkpt lat="44.63878" lon="5.31676">
        <ele>841.6</ele>
        <time>2017-05-19T14:38:37Z</time>
      </trkpt>
      <trkpt lat="44.63871" lon="5.317">
        <ele>839.8</ele>
        <time>2017-05-19T17:59:50Z</time>
      </trkpt>
      <trkpt lat="44.63851" lon="5.3172">
        <ele>832.2</ele>
        <time>2017-05-19T22:43:36Z</time>
      </trkpt>
      <trkpt lat="44.63836" lon="5.31737">
        <ele>826.9</ele>
        <time>2017-05-20T02:18:08Z</time>
      </trkpt>
      <trkpt lat="44.63836" lon="5.31762">
        <ele>828.9</ele>
        <time>2017-05-20T05:34:36Z</time>
      </trkpt>
      <trkpt lat="44.63846" lon="5.31793">
        <ele>834.7</ele>
        <time>2017-05-20T10:11:32Z</time>
      </trkpt>
      <trkpt lat="44.63864" lon="5.31824">
        <ele>844.1</ele>
        <time>2017-05-20T15:31:36Z</time>
      </trkpt>
      <trkpt lat="44.6388" lon="5.31858">
        <ele>851.6</ele>
        <time>2017-05-20T20:55:15Z</time>
      </trkpt>
      <trkpt lat="44.63888" lon="5.31896">
        <ele>854.9</ele>
        <time>2017-05-21T02:05:14Z</time>
      </trkpt>
      <trkpt lat="44.63886" lon="5.31938">
        <ele>856.4</ele>
        <time>2017-05-21T07:39:44Z</time>
      </trkpt>
      <trkpt lat="44.63878" lon="5.31974">
        <ele>856.4</ele>
        <time>2017-05-21T12:30:36Z</time>
      </trkpt>
      <trkpt lat="44.6386" lon="5.32005">
        <ele>852.3</ele>
        <time>2017-05-21T17:46:58Z</time>
      </trkpt>
      <trkpt lat="44.63841" lon="5.32036">
        <ele>849.2</ele>
        <time>2017-05-21T23:06:26Z</time>
      </trkpt>
      <trkpt lat="44.63832" lon="5.32073">
        <ele>851.1</ele>
        <time>2017-05-22T04:11:18Z</time>
      </trkpt>
      <trkpt lat="44.63827" lon="5.32118">
        <ele>854.1</ele>
        <time>2017-05-22T10:10:08Z</time>
      </trkpt>
      <trkpt lat="44.63823" lon="5.32169">
        <ele>856.8</ele>
        <time>2017-05-22T16:49:26Z</time>
      </trkpt>
      <trkpt lat="44.63819" lon="5.32229">
        <ele>857.4</ele>
        <time>2017-05-23T00:36:49Z</time>
      </trkpt>
      <trkpt lat="44.63819" lon="5.32273">
        <ele>855</ele>
        <time>2017-05-23T06:19:21Z</time>
      </trkpt>
      <trkpt lat="44.63829" lon="5.32305">
        <ele>853</ele>
        <time>2017-05-23T10:57:26Z</time>
      </trkpt>
      <trkpt lat="44.63842" lon="5.3232">
        <ele>855.1</ele>
        <time>2017-05-23T13:57:25Z</time>
      </trkpt>
      <trkpt lat="44.63865" lon="5.32306">
        <ele>867.8</ele>
        <time>2017-05-23T19:02:13Z</time>
      </trkpt>
      <trkpt lat="44.63884" lon="5.32296">
        <ele>878</ele>
        <time>2017-05-23T23:11:29Z</time>
      </trkpt>
      <trkpt lat="44.63896" lon="5.3227">
        <ele>886.7</ele>
        <time>2017-05-24T03:21:01Z</time>
      </trkpt>
      <trkpt lat="44.63914" lon="5.32248">
        <ele>897.1</ele>
        <time>2017-05-24T08:06:31Z</time>
      </trkpt>
      <trkpt lat="44.63939" lon="5.32229">
        <ele>907.7</ele>
        <time>2017-05-24T13:28:08Z</time>
      </trkpt>
      <trkpt lat="44.63953" lon="5.3218">
        <ele>914.2</ele>
        <time>2017-05-24T20:23:12Z</time>
      </trkpt>
      <trkpt lat="44.63973" lon="5.32123">
        <ele>918.4</ele>
        <time>2017-05-25T04:47:08Z</time>
      </trkpt>
      <trkpt lat="44.63986" lon="5.32093">
        <ele>921.1</ele>
        <time>2017-05-25T09:16:32Z</time>
      </trkpt>
      <trkpt lat="44.64013" lon="5.32067">
        <ele>932.2</ele>
        <time>2017-05-25T15:37:04Z</time>
      </trkpt>
      <trkpt lat="44.64028" lon="5.32">
        <ele>934.6</ele>
        <time>2017-05-26T00:44:53Z</time>
      </trkpt>
      <trkpt lat="44.64053" lon="5.31986">
        <ele>948.3</ele>
        <time>2017-05-26T06:11:12Z</time>
      </trkpt>
      <trkpt lat="44.64074" lon="5.31946">
        <ele>957.6</ele>
        <time>2017-05-26T12:48:43Z</time>
      </trkpt>
      <trkpt lat="44.64093" lon="5.3191">
        <ele>966.1</ele>
        <time>2017-05-26T18:48:36Z</time>
      </trkpt>
      <trkpt lat="44.6411" lon="5.31851">
        <ele>972.3</ele>
        <time>2017-05-27T03:08:08Z</time>
      </trkpt>
      <trkpt lat="44.64123" lon="5.31789">
        <ele>976.3</ele>
        <time>2017-05-27T11:33:09Z</time>
      </trkpt>
      <trkpt lat="44.6413" lon="5.31757">
        <ele>977.8</ele>
        <time>2017-05-27T15:58:39Z</time>
      </trkpt>
      <trkpt lat="44.64139" lon="5.31712">
        <ele>977.1</ele>
        <time>2017-05-27T21:56:47Z</time>
      </trkpt>
      <trkpt lat="44.64151" lon="5.31676">
        <ele>978.6</ele>
        <time>2017-05-28T03:06:17Z</time>
      </trkpt>
      <trkpt lat="44.64168" lon="5.31652">
        <ele>985.1</ele>
        <time>2017-05-28T07:45:08Z</time>
      </trkpt>
      <trkpt lat="44.64189" lon="5.31623">
        <ele>989.7</ele>
        <time>2017-05-28T13:09:11Z</time>
      </trkpt>
      <trkpt lat="44.64204" lon="5.31603">
        <ele>992.3</ele>
        <time>2017-05-28T16:52:46Z</time>
      </trkpt>
      <trkpt lat="44.64212" lon="5.3156">
        <ele>989.3</ele>
        <time>2017-05-28T22:43:40Z</time>
      </trkpt>
      <trkpt lat="44.64222" lon="5.31521">
        <ele>987</ele>
        <time>2017-05-29T04:08:14Z</time>
      </trkpt>
      <trkpt lat="44.64238" lon="5.31486">
        <ele>982.3</ele>
        <time>2017-05-29T09:33:09Z</time>
      </trkpt>
      <trkpt lat="44.64246" lon="5.31445">
        <ele>967.2</ele>
        <time>2017-05-29T15:40:37Z</time>
      </trkpt>
      <trkpt lat="44.64249" lon="5.31392">
        <ele>951.1</ele>
        <time>2017-05-29T23:01:47Z</time>
      </trkpt>
      <trkpt lat="44.64253" lon="5.31343">
        <ele>938.6</ele>
        <time>2017-05-30T05:44:39Z</time>
      </trkpt>
      <trkpt lat="44.64256" lon="5.3129">
        <ele>930.6</ele>
        <time>2017-05-30T12:50:18Z</time>
      </trkpt>
      <trkpt lat="44.64264" lon="5.31261">
        <ele>920.4</ele>
        <time>2017-05-30T17:14:37Z</time>
      </trkpt>
      <trkpt lat="44.64275" lon="5.31244">
        <ele>908.2</ele>
        <time>2017-05-30T20:50:02Z</time>
      </trkpt>
      <trkpt lat="44.64287" lon="5.31281">
        <ele>901</ele>
        <time>2017-05-31T02:15:35Z</time>
      </trkpt>
      <trkpt lat="44.64296" lon="5.31255">
        <ele>889.5</ele>
        <time>2017-05-31T06:24:40Z</time>
      </trkpt>
      <trkpt lat="44.64308" lon="5.31285">
        <ele>881.1</ele>
        <time>2017-05-31T11:09:18Z</time>
      </trkpt>
      <trkpt lat="44.64308" lon="5.31285">
        <ele>881.1</ele>
        <time>2017-05-31T11:09:18Z</time>
      </trkpt>
      <trkpt lat="44.64312" lon="5.31258">
        <ele>873.6</ele>
        <time>2017-05-31T11:09:18Z</time>
      </trkpt>
      <trkpt lat="44.64341" lon="5.3131">
        <ele>856.6</ele>
        <time>2017-05-31T20:11:00Z</time>
      </trkpt>
      <trkpt lat="44.64345" lon="5.31245">
        <ele>843.2</ele>
        <time>2017-06-01T04:56:52Z</time>
      </trkpt>
      <trkpt lat="44.64358" lon="5.31301">
        <ele>842.8</ele>
        <time>2017-06-01T12:30:53Z</time>
      </trkpt>
      <trkpt lat="44.64364" lon="5.3123">
        <ele>829.4</ele>
        <time>2017-06-01T21:57:48Z</time>
      </trkpt>
      <trkpt lat="44.64381" lon="5.3128">
        <ele>824.1</ele>
        <time>2017-06-02T05:14:03Z</time>
      </trkpt>
      <trkpt lat="44.644" lon="5.31356">
        <ele>822</ele>
        <time>2017-06-02T15:43:03Z</time>
      </trkpt>
      <trkpt lat="44.64423" lon="5.31447">
        <ele>818</ele>
        <time>2017-06-03T04:16:52Z</time>
      </trkpt>
      <trkpt lat="44.64446" lon="5.31518">
        <ele>815</ele>
        <time>2017-06-03T14:21:56Z</time>
      </trkpt>
      <trkpt lat="44.64464" lon="5.31584">
        <ele>815.9</ele>
        <time>2017-06-03T23:37:11Z</time>
      </trkpt>
      <trkpt lat="44.64487" lon="5.31653">
        <ele>816.4</ele>
        <time>2017-06-04T09:29:08Z</time>
      </trkpt>
      <trkpt lat="44.64504" lon="5.31716">
        <ele>817.5</ele>
        <time>2017-06-04T18:13:16Z</time>
      </trkpt>
      <trkpt lat="44.64527" lon="5.31769">
        <ele>815.7</ele>
        <time>2017-06-05T02:16:48Z</time>
      </trkpt>
      <trkpt lat="44.64558" lon="5.31851">
        <ele>818.5</ele>
        <time>2017-06-05T14:25:11Z</time>
      </trkpt>
      <trkpt lat="44.64591" lon="5.31919">
        <ele>825.3</ele>
        <time>2017-06-06T01:07:12Z</time>
      </trkpt>
      <trkpt lat="44.64627" lon="5.31973">
        <ele>841.6</ele>
        <time>2017-06-06T11:10:44Z</time>
      </trkpt>
      <trkpt lat="44.64662" lon="5.32004">
        <ele>850</ele>
        <time>2017-06-06T18:48:26Z</time>
      </trkpt>
      <trkpt lat="44.6469" lon="5.32003">
        <ele>857.2</ele>
        <time>2017-06-07T00:04:11Z</time>
      </trkpt>
      <trkpt lat="44.64712" lon="5.32">
        <ele>863.1</ele>
        <time>2017-06-07T04:11:11Z</time>
      </trkpt>
      <trkpt lat="44.64705" lon="5.31969">
        <ele>850.9</ele>
        <time>2017-06-07T08:51:56Z</time>
      </trkpt>
      <trkpt lat="44.64697" lon="5.31951">
        <ele>842.9</ele>
        <time>2017-06-07T11:56:06Z</time>
      </trkpt>
      <trkpt lat="44.64678" lon="5.31949">
        <ele>837</ele>
        <time>2017-06-07T15:33:38Z</time>
      </trkpt>
      <trkpt lat="44.64674" lon="5.31938">
        <ele>832.4</ele>
        <time>2017-06-07T17:17:32Z</time>
      </trkpt>
      <trkpt lat="44.64699" lon="5.31922">
        <ele>834.7</ele>
        <time>2017-06-07T22:24:21Z</time>
      </trkpt>
      <trkpt lat="44.64706" lon="5.3191">
        <ele>831.9</ele>
        <time>2017-06-08T00:27:24Z</time>
      </trkpt>
      <trkpt lat="44.64696" lon="5.31898">
        <ele>825.4</ele>
        <time>2017-06-08T03:01:12Z</time>
      </trkpt>
      <trkpt lat="44.64667" lon="5.31892">
        <ele>815.2</ele>
        <time>2017-06-08T08:39:39Z</time>
      </trkpt>
      <trkpt lat="44.6464" lon="5.3189">
        <ele>815.3</ele>
        <time>2017-06-08T13:33:07Z</time>
      </trkpt>
      <trkpt lat="44.64631" lon="5.3185">
        <ele>803.3</ele>
        <time>2017-06-08T19:22:20Z</time>
      </trkpt>
      <trkpt lat="44.64621" lon="5.31805">
        <ele>791.6</ele>
        <time>2017-06-09T01:47:37Z</time>
      </trkpt>
      <trkpt lat="44.6461" lon="5.31749">
        <ele>779.7</ele>
        <time>2017-06-09T09:36:20Z</time>
      </trkpt>
      <trkpt lat="44.64598" lon="5.31703">
        <ele>775.3</ele>
        <time>2017-06-09T16:02:55Z</time>
      </trkpt>
      <trkpt lat="44.64578" lon="5.31661">
        <ele>775.9</ele>
        <time>2017-06-09T22:33:30Z</time>
      </trkpt>
      <trkpt lat="44.64555" lon="5.31628">
        <ele>779.9</ele>
        <time>2017-06-10T04:35:55Z</time>
      </trkpt>
      <trkpt lat="44.64539" lon="5.31605">
        <ele>782.3</ele>
        <time>2017-06-10T08:48:33Z</time>
      </trkpt>
      <trkpt lat="44.64535" lon="5.31555">
        <ele>774.8</ele>
        <time>2017-06-10T15:30:14Z</time>
      </trkpt>
      <trkpt lat="44.64533" lon="5.31513">
        <ele>767.4</ele>
        <time>2017-06-10T21:06:34Z</time>
      </trkpt>
      <trkpt lat="44.64528" lon="5.31462">
        <ele>762</ele>
        <time>2017-06-11T03:46:14Z</time>
      </trkpt>
      <trkpt lat="44.64523" lon="5.31408">
        <ele>757.1</ele>
        <time>2017-06-11T10:53:38Z</time>
      </trkpt>
      <trkpt lat="44.64517" lon="5.31349">
        <ele>753.5</ele>
        <time>2017-06-11T18:42:03Z</time>
      </trkpt>
      <trkpt lat="44.64508" lon="5.31285">
        <ele>750.3</ele>
        <time>2017-06-12T03:09:51Z</time>
      </trkpt>
      <trkpt lat="44.64497" lon="5.31226">
        <ele>748.4</ele>
        <time>2017-06-12T11:10:34Z</time>
      </trkpt>
      <trkpt lat="44.64484" lon="5.31168">
        <ele>748.7</ele>
        <time>2017-06-12T19:04:13Z</time>
      </trkpt>
      <trkpt lat="44.6447" lon="5.31097">
        <ele>746.1</ele>
        <time>2017-06-13T04:35:13Z</time>
      </trkpt>
      <trkpt lat="44.64458" lon="5.31051">
        <ele>745.9</ele>
        <time>2017-06-13T10:56:46Z</time>
      </trkpt>
      <trkpt lat="44.64454" lon="5.31008">
        <ele>741.4</ele>
        <time>2017-06-13T16:38:28Z</time>
      </trkpt>
      <trkpt lat="44.64454" lon="5.30955">
        <ele>739.2</ele>
        <time>2017-06-13T23:30:22Z</time>
      </trkpt>
      <trkpt lat="44.64455" lon="5.309">
        <ele>738.1</ele>
        <time>2017-06-14T06:42:08Z</time>
      </trkpt>
      <trkpt lat="44.64462" lon="5.30831">
        <ele>737.5</ele>
        <time>2017-06-14T15:48:10Z</time>
      </trkpt>
      <trkpt lat="44.64469" lon="5.30758">
        <ele>729.9</ele>
        <time>2017-06-15T01:26:49Z</time>
      </trkpt>
      <trkpt lat="44.64473" lon="5.30691">
        <ele>722.1</ele>
        <time>2017-06-15T10:14:58Z</time>
      </trkpt>
      <trkpt lat="44.64467" lon="5.30627">
        <ele>718.4</ele>
        <time>2017-06-15T18:37:38Z</time>
      </trkpt>
      <trkpt lat="44.64459" lon="5.30557">
        <ele>714.6</ele>
        <time>2017-06-16T03:53:18Z</time>
      </trkpt>
      <trkpt lat="44.64449" lon="5.3049">
        <ele>712.1</ele>
        <time>2017-06-16T12:50:55Z</time>
      </trkpt>
      <trkpt lat="44.6444" lon="5.30432">
        <ele>710.7</ele>
        <time>2017-06-16T20:32:15Z</time>
      </trkpt>
      <trkpt lat="44.64431" lon="5.30376">
        <ele>709.1</ele>
        <time>2017-06-17T03:58:29Z</time>
      </trkpt>
      <trkpt lat="44.64423" lon="5.30318">
        <ele>706.2</ele>
        <time>2017-06-17T11:45:28Z</time>
      </trkpt>
      <trkpt lat="44.64417" lon="5.30268">
        <ele>701.8</ele>
        <time>2017-06-17T18:18:23Z</time>
      </trkpt>
      <trkpt lat="44.64403" lon="5.30219">
        <ele>704.2</ele>
        <time>2017-06-18T01:10:39Z</time>
      </trkpt>
      <trkpt lat="44.644" lon="5.30167">
        <ele>698.2</ele>
        <time>2017-06-18T08:01:44Z</time>
      </trkpt>
      <trkpt lat="44.64395" lon="5.30113">
        <ele>692.2</ele>
        <time>2017-06-18T15:16:09Z</time>
      </trkpt>
      <trkpt lat="44.64388" lon="5.30066">
        <ele>687.4</ele>
        <time>2017-06-18T21:32:19Z</time>
      </trkpt>
      <trkpt lat="44.64376" lon="5.30041">
        <ele>689</ele>
        <time>2017-06-19T01:27:00Z</time>
      </trkpt>
      <trkpt lat="44.64352" lon="5.30021">
        <ele>698.9</ele>
        <time>2017-06-19T06:45:35Z</time>
      </trkpt>
      <trkpt lat="44.64343" lon="5.30005">
        <ele>699.6</ele>
        <time>2017-06-19T09:23:54Z</time>
      </trkpt>
      <trkpt lat="44.64339" lon="5.29979">
        <ele>692.8</ele>
        <time>2017-06-19T13:03:57Z</time>
      </trkpt>
      <trkpt lat="44.64359" lon="5.29996">
        <ele>686.7</ele>
        <time>2017-06-19T17:33:11Z</time>
      </trkpt>
      <trkpt lat="44.64378" lon="5.30022">
        <ele>682.2</ele>
        <time>2017-06-19T22:27:50Z</time>
      </trkpt>
      <trkpt lat="44.64406" lon="5.30026">
        <ele>664.9</ele>
        <time>2017-06-20T04:13:35Z</time>
      </trkpt>
      <trkpt lat="44.64417" lon="5.30041">
        <ele>660.8</ele>
        <time>2017-06-20T07:11:39Z</time>
      </trkpt>
      <trkpt lat="44.64416" lon="5.30061">
        <ele>666.1</ele>
        <time>2017-06-20T10:00:20Z</time>
      </trkpt>
      <trkpt lat="44.64436" lon="5.30096">
        <ele>659.9</ele>
        <time>2017-06-20T15:56:29Z</time>
      </trkpt>
      <trkpt lat="44.6446" lon="5.30141">
        <ele>651.1</ele>
        <time>2017-06-20T23:21:25Z</time>
      </trkpt>
      <trkpt lat="44.64478" lon="5.30171">
        <ele>643.1</ele>
        <time>2017-06-21T04:42:17Z</time>
      </trkpt>
      <trkpt lat="44.64496" lon="5.30207">
        <ele>636.8</ele>
        <time>2017-06-21T10:26:47Z</time>
      </trkpt>
      <trkpt lat="44.64511" lon="5.30233">
        <ele>632.6</ele>
        <time>2017-06-21T14:51:39Z</time>
      </trkpt>
      <trkpt lat="44.64525" lon="5.30264">
        <ele>630.5</ele>
        <time>2017-06-21T19:38:30Z</time>
      </trkpt>
      <trkpt lat="44.64523" lon="5.30196">
        <ele>620.4</ele>
        <time>2017-06-22T04:38:16Z</time>
      </trkpt>
      <trkpt lat="44.64558" lon="5.30244">
        <ele>610.8</ele>
        <time>2017-06-22T13:39:32Z</time>
      </trkpt>
      <trkpt lat="44.64556" lon="5.30224">
        <ele>608.5</ele>
        <time>2017-06-22T16:22:37Z</time>
      </trkpt>
      <trkpt lat="44.64578" lon="5.3024">
        <ele>599.9</ele>
        <time>2017-06-22T21:07:00Z</time>
      </trkpt>
      <trkpt lat="44.64592" lon="5.30265">
        <ele>597.4</ele>
        <time>2017-06-23T01:11:02Z</time>
      </trkpt>
      <trkpt lat="44.64604" lon="5.30295">
        <ele>596.1</ele>
        <time>2017-06-23T05:43:51Z</time>
      </trkpt>
      <trkpt lat="44.64619" lon="5.3032">
        <ele>593.3</ele>
        <time>2017-06-23T09:57:12Z</time>
      </trkpt>
      <trkpt lat="44.64634" lon="5.30342">
        <ele>589.4</ele>
        <time>2017-06-23T14:01:51Z</time>
      </trkpt>
      <trkpt lat="44.64658" lon="5.30357">
        <ele>580.2</ele>
        <time>2017-06-23T19:01:13Z</time>
      </trkpt>
      <trkpt lat="44.64659" lon="5.30328">
        <ele>577.5</ele>
        <time>2017-06-23T22:52:27Z</time>
      </trkpt>
      <trkpt lat="44.6466" lon="5.30278">
        <ele>571.2</ele>
        <time>2017-06-24T05:20:23Z</time>
      </trkpt>
      <trkpt lat="44.6468" lon="5.30287">
        <ele>564.6</ele>
        <time>2017-06-24T09:26:19Z</time>
      </trkpt>
      <trkpt lat="44.64703" lon="5.30311">
        <ele>559.8</ele>
        <time>2017-06-24T14:39:45Z</time>
      </trkpt>
      <trkpt lat="44.64713" lon="5.30332">
        <ele>558.8</ele>
        <time>2017-06-24T17:59:21Z</time>
      </trkpt>
      <trkpt lat="44.64735" lon="5.30357">
        <ele>554</ele>
        <time>2017-06-24T23:12:43Z</time>
      </trkpt>
      <trkpt lat="44.64746" lon="5.3039">
        <ele>555.3</ele>
        <time>2017-06-25T03:59:38Z</time>
      </trkpt>
      <trkpt lat="44.64754" lon="5.30425">
        <ele>560.6</ele>
        <time>2017-06-25T08:48:51Z</time>
      </trkpt>
      <trkpt lat="44.64762" lon="5.30442">
        <ele>565.5</ele>
        <time>2017-06-25T11:36:21Z</time>
      </trkpt>
      <trkpt lat="44.6478" lon="5.30464">
        <ele>574.7</ele>
        <time>2017-06-25T16:14:22Z</time>
      </trkpt>
      <trkpt lat="44.64792" lon="5.30486">
        <ele>581.7</ele>
        <time>2017-06-25T19:58:26Z</time>
      </trkpt>
      <trkpt lat="44.64805" lon="5.30502">
        <ele>588.7</ele>
        <time>2017-06-25T23:24:23Z</time>
      </trkpt>
      <trkpt lat="44.64818" lon="5.30507">
        <ele>594</ele>
        <time>2017-06-26T01:57:35Z</time>
      </trkpt>
      <trkpt lat="44.64823" lon="5.30479">
        <ele>592.5</ele>
        <time>2017-06-26T05:46:12Z</time>
      </trkpt>
      <trkpt lat="44.64837" lon="5.30454">
        <ele>595.1</ele>
        <time>2017-06-26T09:57:04Z</time>
      </trkpt>
      <trkpt lat="44.64835" lon="5.30434">
        <ele>591.4</ele>
        <time>2017-06-26T12:36:59Z</time>
      </trkpt>
      <trkpt lat="44.6485" lon="5.30414">
        <ele>598.1</ele>
        <time>2017-06-26T16:28:30Z</time>
      </trkpt>
      <trkpt lat="44.64849" lon="5.30388">
        <ele>594.7</ele>
        <time>2017-06-26T20:00:31Z</time>
      </trkpt>
      <trkpt lat="44.6487" lon="5.30357">
        <ele>605.6</ele>
        <time>2017-06-27T01:48:09Z</time>
      </trkpt>
      <trkpt lat="44.64878" lon="5.30336">
        <ele>608.7</ele>
        <time>2017-06-27T04:54:41Z</time>
      </trkpt>
      <trkpt lat="44.64883" lon="5.30308">
        <ele>611.6</ele>
        <time>2017-06-27T08:43:13Z</time>
      </trkpt>
      <trkpt lat="44.6489" lon="5.30282">
        <ele>616.3</ele>
        <time>2017-06-27T12:28:20Z</time>
      </trkpt>
      <trkpt lat="44.64889" lon="5.30248">
        <ele>615.9</ele>
        <time>2017-06-27T16:53:17Z</time>
      </trkpt>
      <trkpt lat="44.64897" lon="5.30218">
        <ele>619.6</ele>
        <time>2017-06-27T21:02:46Z</time>
      </trkpt>
      <trkpt lat="44.64896" lon="5.30185">
        <ele>617.7</ele>
        <time>2017-06-28T01:14:30Z</time>
      </trkpt>
      <trkpt lat="44.64914" lon="5.30143">
        <ele>628</ele>
        <time>2017-06-28T07:54:13Z</time>
      </trkpt>
      <trkpt lat="44.64914" lon="5.30106">
        <ele>625.9</ele>
        <time>2017-06-28T12:40:43Z</time>
      </trkpt>
      <trkpt lat="44.64921" lon="5.30066">
        <ele>629.8</ele>
        <time>2017-06-28T18:04:03Z</time>
      </trkpt>
      <trkpt lat="44.64913" lon="5.3002">
        <ele>623</ele>
        <time>2017-06-29T00:18:23Z</time>
      </trkpt>
      <trkpt lat="44.64905" lon="5.29972">
        <ele>612</ele>
        <time>2017-06-29T07:03:38Z</time>
      </trkpt>
      <trkpt lat="44.64899" lon="5.29934">
        <ele>601.9</ele>
        <time>2017-06-29T12:21:46Z</time>
      </trkpt>
      <trkpt lat="44.64899" lon="5.29902">
        <ele>597.2</ele>
        <time>2017-06-29T16:30:11Z</time>
      </trkpt>
      <trkpt lat="44.64914" lon="5.29869">
        <ele>602.6</ele>
        <time>2017-06-29T21:44:13Z</time>
      </trkpt>
      <trkpt lat="44.6493" lon="5.2984">
        <ele>608.2</ele>
        <time>2017-06-30T02:35:31Z</time>
      </trkpt>
      <trkpt lat="44.64932" lon="5.29782">
        <ele>604.1</ele>
        <time>2017-06-30T10:10:05Z</time>
      </trkpt>
      <trkpt lat="44.64935" lon="5.29718">
        <ele>597.3</ele>
        <time>2017-06-30T18:29:04Z</time>
      </trkpt>
      <trkpt lat="44.64937" lon="5.29664">
        <ele>589.6</ele>
        <time>2017-07-01T01:40:23Z</time>
      </trkpt>
      <trkpt lat="44.64945" lon="5.29624">
        <ele>582.7</ele>
        <time>2017-07-01T07:10:08Z</time>
      </trkpt>
      <trkpt lat="44.64958" lon="5.29591">
        <ele>579.3</ele>
        <time>2017-07-01T12:08:01Z</time>
      </trkpt>
      <trkpt lat="44.64974" lon="5.29561">
        <ele>579.5</ele>
        <time>2017-07-01T17:03:54Z</time>
      </trkpt>
      <trkpt lat="44.64986" lon="5.29539">
        <ele>580.2</ele>
        <time>2017-07-01T20:34:46Z</time>
      </trkpt>
      <trkpt lat="44.64994" lon="5.29504">
        <ele>577.2</ele>
        <time>2017-07-02T01:25:12Z</time>
      </trkpt>
      <trkpt lat="44.65002" lon="5.29478">
        <ele>575.7</ele>
        <time>2017-07-02T05:04:17Z</time>
      </trkpt>
      <trkpt lat="44.65017" lon="5.29452">
        <ele>572.7</ele>
        <time>2017-07-02T09:29:35Z</time>
      </trkpt>
      <trkpt lat="44.65039" lon="5.29421">
        <ele>569</ele>
        <time>2017-07-02T15:12:07Z</time>
      </trkpt>
      <trkpt lat="44.65053" lon="5.29407">
        <ele>566.7</ele>
        <time>2017-07-02T18:22:01Z</time>
      </trkpt>
      <trkpt lat="44.6508" lon="5.29407">
        <ele>568.2</ele>
        <time>2017-07-02T23:15:52Z</time>
      </trkpt>
      <trkpt lat="44.65115" lon="5.29405">
        <ele>567.2</ele>
        <time>2017-07-03T05:41:12Z</time>
      </trkpt>
      <trkpt lat="44.65144" lon="5.29411">
        <ele>567.7</ele>
        <time>2017-07-03T11:04:24Z</time>
      </trkpt>
      <trkpt lat="44.65179" lon="5.29431">
        <ele>569.7</ele>
        <time>2017-07-03T17:53:34Z</time>
      </trkpt>
      <trkpt lat="44.65214" lon="5.29449">
        <ele>570.4</ele>
        <time>2017-07-04T00:51:05Z</time>
      </trkpt>
      <trkpt lat="44.65243" lon="5.29465">
        <ele>571.2</ele>
        <time>2017-07-04T06:24:44Z</time>
      </trkpt>
      <trkpt lat="44.65258" lon="5.2949">
        <ele>573.3</ele>
        <time>2017-07-04T10:42:08Z</time>
      </trkpt>
      <trkpt lat="44.65267" lon="5.29522">
        <ele>577.3</ele>
        <time>2017-07-04T15:10:15Z</time>
      </trkpt>
      <trkpt lat="44.65269" lon="5.29558">
        <ele>583.7</ele>
        <time>2017-07-04T20:04:47Z</time>
      </trkpt>
      <trkpt lat="44.65271" lon="5.29588">
        <ele>589.8</ele>
        <time>2017-07-05T00:03:48Z</time>
      </trkpt>
      <trkpt lat="44.65288" lon="5.296">
        <ele>593.2</ele>
        <time>2017-07-05T03:41:50Z</time>
      </trkpt>
      <trkpt lat="44.65318" lon="5.29612">
        <ele>596.2</ele>
        <time>2017-07-05T09:27:08Z</time>
      </trkpt>
      <trkpt lat="44.65291" lon="5.29619">
        <ele>599.5</ele>
        <time>2017-07-05T14:30:25Z</time>
      </trkpt>
      <trkpt lat="44.65258" lon="5.29607">
        <ele>596.7</ele>
        <time>2017-07-05T20:50:53Z</time>
      </trkpt>
      <trkpt lat="44.65225" lon="5.2961">
        <ele>600.3</ele>
        <time>2017-07-06T02:50:41Z</time>
      </trkpt>
      <trkpt lat="44.65185" lon="5.29628">
        <ele>609.9</ele>
        <time>2017-07-06T10:48:37Z</time>
      </trkpt>
      <trkpt lat="44.65145" lon="5.29643">
        <ele>615.5</ele>
        <time>2017-07-06T18:18:16Z</time>
      </trkpt>
      <trkpt lat="44.65107" lon="5.29658">
        <ele>618.5</ele>
        <time>2017-07-07T01:38:55Z</time>
      </trkpt>
      <trkpt lat="44.65075" lon="5.29668">
        <ele>619.3</ele>
        <time>2017-07-07T07:39:51Z</time>
      </trkpt>
      <trkpt lat="44.65054" lon="5.29685">
        <ele>623.6</ele>
        <time>2017-07-07T12:10:27Z</time>
      </trkpt>
      <trkpt lat="44.65042" lon="5.2971">
        <ele>630.3</ele>
        <time>2017-07-07T16:08:01Z</time>
      </trkpt>
      <trkpt lat="44.65039" lon="5.29742">
        <ele>639.6</ele>
        <time>2017-07-07T20:36:27Z</time>
      </trkpt>
      <trkpt lat="44.65038" lon="5.29776">
        <ele>649.4</ele>
        <time>2017-07-08T01:18:19Z</time>
      </trkpt>
      <trkpt lat="44.65033" lon="5.29802">
        <ele>655.9</ele>
        <time>2017-07-08T05:02:05Z</time>
      </trkpt>
      <trkpt lat="44.65025" lon="5.29838">
        <ele>662.4</ele>
        <time>2017-07-08T09:56:23Z</time>
      </trkpt>
      <trkpt lat="44.65021" lon="5.2987">
        <ele>666</ele>
        <time>2017-07-08T14:11:55Z</time>
      </trkpt>
      <trkpt lat="44.65024" lon="5.29892">
        <ele>671</ele>
        <time>2017-07-08T17:16:08Z</time>
      </trkpt>
      <trkpt lat="44.65035" lon="5.29878">
        <ele>674</ele>
        <time>2017-07-08T20:01:37Z</time>
      </trkpt>
      <trkpt lat="44.65038" lon="5.29848">
        <ele>669.3</ele>
        <time>2017-07-09T00:03:43Z</time>
      </trkpt>
      <trkpt lat="44.65045" lon="5.29826">
        <ele>667.1</ele>
        <time>2017-07-09T03:15:14Z</time>
      </trkpt>
      <trkpt lat="44.65058" lon="5.29797">
        <ele>661.6</ele>
        <time>2017-07-09T07:51:54Z</time>
      </trkpt>
      <trkpt lat="44.65074" lon="5.29762">
        <ele>653.6</ele>
        <time>2017-07-09T13:17:19Z</time>
      </trkpt>
      <trkpt lat="44.65104" lon="5.29749">
        <ele>652</ele>
        <time>2017-07-09T19:06:44Z</time>
      </trkpt>
      <trkpt lat="44.65136" lon="5.29743">
        <ele>652.3</ele>
        <time>2017-07-10T01:00:30Z</time>
      </trkpt>
      <trkpt lat="44.65168" lon="5.2974">
        <ele>652.8</ele>
        <time>2017-07-10T06:52:18Z</time>
      </trkpt>
      <trkpt lat="44.65199" lon="5.29742">
        <ele>651.8</ele>
        <time>2017-07-10T12:34:48Z</time>
      </trkpt>
      <trkpt lat="44.65229" lon="5.29747">
        <ele>652.1</ele>
        <time>2017-07-10T18:04:22Z</time>
      </trkpt>
      <trkpt lat="44.6526" lon="5.29756">
        <ele>654.6</ele>
        <time>2017-07-10T23:45:08Z</time>
      </trkpt>
      <trkpt lat="44.65291" lon="5.29771">
        <ele>662.1</ele>
        <time>2017-07-11T05:57:11Z</time>
      </trkpt>
      <trkpt lat="44.65325" lon="5.2977">
        <ele>662.9</ele>
        <time>2017-07-11T12:08:10Z</time>
      </trkpt>
      <trkpt lat="44.65342" lon="5.29781">
        <ele>665.6</ele>
        <time>2017-07-11T15:33:22Z</time>
      </trkpt>
      <trkpt lat="44.65368" lon="5.29777">
        <ele>657.7</ele>
        <time>2017-07-11T20:33:03Z</time>
      </trkpt>
      <trkpt lat="44.65396" lon="5.29778">
        <ele>651.8</ele>
        <time>2017-07-12T01:39:06Z</time>
      </trkpt>
      <trkpt lat="44.65428" lon="5.2978">
        <ele>642.8</ele>
        <time>2017-07-12T07:46:10Z</time>
      </trkpt>
      <trkpt lat="44.65447" lon="5.29793">
        <ele>638.4</ele>
        <time>2017-07-12T11:44:55Z</time>
      </trkpt>
      <trkpt lat="44.65449" lon="5.29823">
        <ele>646</ele>
        <time>2017-07-12T15:48:02Z</time>
      </trkpt>
      <trkpt lat="44.65454" lon="5.2985">
        <ele>652.7</ele>
        <time>2017-07-12T19:34:25Z</time>
      </trkpt>
      <trkpt lat="44.65461" lon="5.29876">
        <ele>659.2</ele>
        <time>2017-07-12T23:22:03Z</time>
      </trkpt>
      <trkpt lat="44.65476" lon="5.29903">
        <ele>663.7</ele>
        <time>2017-07-13T04:02:22Z</time>
      </trkpt>
      <trkpt lat="44.65488" lon="5.29924">
        <ele>668.1</ele>
        <time>2017-07-13T07:29:44Z</time>
      </trkpt>
      <trkpt lat="44.65461" lon="5.29914">
        <ele>672.6</ele>
        <time>2017-07-13T12:33:00Z</time>
      </trkpt>
      <trkpt lat="44.6545" lon="5.29888">
        <ele>666.9</ele>
        <time>2017-07-13T16:41:09Z</time>
      </trkpt>
      <trkpt lat="44.65434" lon="5.29854">
        <ele>661.7</ele>
        <time>2017-07-13T22:00:26Z</time>
      </trkpt>
      <trkpt lat="44.65414" lon="5.29835">
        <ele>664.2</ele>
        <time>2017-07-14T02:30:51Z</time>
      </trkpt>
      <trkpt lat="44.65393" lon="5.2983">
        <ele>668.6</ele>
        <time>2017-07-14T06:27:06Z</time>
      </trkpt>
      <trkpt lat="44.65375" lon="5.29841">
        <ele>676.7</ele>
        <time>2017-07-14T10:11:04Z</time>
      </trkpt>
      <trkpt lat="44.65361" lon="5.2986">
        <ele>686.3</ele>
        <time>2017-07-14T14:07:43Z</time>
      </trkpt>
      <trkpt lat="44.65338" lon="5.29868">
        <ele>695</ele>
        <time>2017-07-14T18:35:51Z</time>
      </trkpt>
      <trkpt lat="44.65312" lon="5.29881">
        <ele>700.8</ele>
        <time>2017-07-14T23:44:44Z</time>
      </trkpt>
      <trkpt lat="44.65285" lon="5.29896">
        <ele>705.9</ele>
        <time>2017-07-15T05:14:02Z</time>
      </trkpt>
      <trkpt lat="44.65254" lon="5.29902">
        <ele>708.6</ele>
        <time>2017-07-15T10:55:03Z</time>
      </trkpt>
      <trkpt lat="44.65223" lon="5.29905">
        <ele>710.5</ele>
        <time>2017-07-15T16:40:24Z</time>
      </trkpt>
      <trkpt lat="44.65192" lon="5.29913">
        <ele>713.5</ele>
        <time>2017-07-15T22:25:34Z</time>
      </trkpt>
      <trkpt lat="44.65164" lon="5.29911">
        <ele>712.7</ele>
        <time>2017-07-16T03:33:05Z</time>
      </trkpt>
      <trkpt lat="44.65146" lon="5.29936">
        <ele>717.8</ele>
        <time>2017-07-16T08:13:50Z</time>
      </trkpt>
      <trkpt lat="44.65133" lon="5.2997">
        <ele>724.9</ele>
        <time>2017-07-16T13:24:19Z</time>
      </trkpt>
      <trkpt lat="44.65127" lon="5.30032">
        <ele>735.4</ele>
        <time>2017-07-16T21:37:59Z</time>
      </trkpt>
      <trkpt lat="44.65145" lon="5.29999">
        <ele>733.2</ele>
        <time>2017-07-17T03:03:35Z</time>
      </trkpt>
      <trkpt lat="44.65156" lon="5.29964">
        <ele>726.1</ele>
        <time>2017-07-17T08:05:34Z</time>
      </trkpt>
      <trkpt lat="44.65177" lon="5.29956">
        <ele>724.9</ele>
        <time>2017-07-17T12:02:06Z</time>
      </trkpt>
      <trkpt lat="44.65203" lon="5.29954">
        <ele>724.4</ele>
        <time>2017-07-17T16:49:21Z</time>
      </trkpt>
      <trkpt lat="44.6523" lon="5.29966">
        <ele>727.4</ele>
        <time>2017-07-17T22:07:32Z</time>
      </trkpt>
      <trkpt lat="44.6526" lon="5.29974">
        <ele>729.6</ele>
        <time>2017-07-18T03:34:22Z</time>
      </trkpt>
      <trkpt lat="44.65287" lon="5.29981">
        <ele>730.9</ele>
        <time>2017-07-18T08:37:55Z</time>
      </trkpt>
      <trkpt lat="44.65317" lon="5.30004">
        <ele>737</ele>
        <time>2017-07-18T15:03:31Z</time>
      </trkpt>
      <trkpt lat="44.65353" lon="5.30005">
        <ele>732.5</ele>
        <time>2017-07-18T21:37:15Z</time>
      </trkpt>
      <trkpt lat="44.65385" lon="5.30011">
        <ele>726.7</ele>
        <time>2017-07-19T03:32:53Z</time>
      </trkpt>
      <trkpt lat="44.65416" lon="5.30025">
        <ele>724.5</ele>
        <time>2017-07-19T09:29:21Z</time>
      </trkpt>
      <trkpt lat="44.65446" lon="5.30043">
        <ele>722.5</ele>
        <time>2017-07-19T15:27:53Z</time>
      </trkpt>
      <trkpt lat="44.65467" lon="5.30062">
        <ele>722.5</ele>
        <time>2017-07-19T20:03:11Z</time>
      </trkpt>
      <trkpt lat="44.65482" lon="5.3009">
        <ele>727</ele>
        <time>2017-07-20T00:40:00Z</time>
      </trkpt>
      <trkpt lat="44.65499" lon="5.30117">
        <ele>729.3</ele>
        <time>2017-07-20T05:21:59Z</time>
      </trkpt>
      <trkpt lat="44.65509" lon="5.30143">
        <ele>735.2</ele>
        <time>2017-07-20T09:21:12Z</time>
      </trkpt>
      <trkpt lat="44.65511" lon="5.30176">
        <ele>744.4</ele>
        <time>2017-07-20T13:55:29Z</time>
      </trkpt>
      <trkpt lat="44.65519" lon="5.30204">
        <ele>751.1</ele>
        <time>2017-07-20T17:58:43Z</time>
      </trkpt>
      <trkpt lat="44.65547" lon="5.30226">
        <ele>754.2</ele>
        <time>2017-07-20T23:59:07Z</time>
      </trkpt>
      <trkpt lat="44.65561" lon="5.30253">
        <ele>758.4</ele>
        <time>2017-07-21T04:16:15Z</time>
      </trkpt>
      <trkpt lat="44.65592" lon="5.30287">
        <ele>766.7</ele>
        <time>2017-07-21T11:39:26Z</time>
      </trkpt>
      <trkpt lat="44.65568" lon="5.30284">
        <ele>765.4</ele>
        <time>2017-07-21T16:05:38Z</time>
      </trkpt>
      <trkpt lat="44.65541" lon="5.30259">
        <ele>762.6</ele>
        <time>2017-07-21T21:57:18Z</time>
      </trkpt>
      <trkpt lat="44.65498" lon="5.3023">
        <ele>759.7</ele>
        <time>2017-07-22T06:43:19Z</time>
      </trkpt>
      <trkpt lat="44.65464" lon="5.30208">
        <ele>763</ele>
        <time>2017-07-22T13:38:13Z</time>
      </trkpt>
      <trkpt lat="44.65431" lon="5.30208">
        <ele>771.8</ele>
        <time>2017-07-22T19:51:50Z</time>
      </trkpt>
      <trkpt lat="44.65404" lon="5.30219">
        <ele>779.2</ele>
        <time>2017-07-23T01:07:30Z</time>
      </trkpt>
      <trkpt lat="44.65383" lon="5.30237">
        <ele>786</ele>
        <time>2017-07-23T05:40:58Z</time>
      </trkpt>
      <trkpt lat="44.65355" lon="5.30254">
        <ele>793</ele>
        <time>2017-07-23T11:25:25Z</time>
      </trkpt>
      <trkpt lat="44.65339" lon="5.30281">
        <ele>803.2</ele>
        <time>2017-07-23T16:21:59Z</time>
      </trkpt>
      <trkpt lat="44.65318" lon="5.30302">
        <ele>807.9</ele>
        <time>2017-07-23T20:59:22Z</time>
      </trkpt>
      <trkpt lat="44.65292" lon="5.30322">
        <ele>810.8</ele>
        <time>2017-07-24T02:32:18Z</time>
      </trkpt>
      <trkpt lat="44.65264" lon="5.30345">
        <ele>813.8</ele>
        <time>2017-07-24T08:25:53Z</time>
      </trkpt>
      <trkpt lat="44.65233" lon="5.30367">
        <ele>812.4</ele>
        <time>2017-07-24T14:47:16Z</time>
      </trkpt>
      <trkpt lat="44.65227" lon="5.30384">
        <ele>815</ele>
        <time>2017-07-24T17:19:30Z</time>
      </trkpt>
      <trkpt lat="44.65227" lon="5.30429">
        <ele>824.2</ele>
        <time>2017-07-24T23:19:18Z</time>
      </trkpt>
      <trkpt lat="44.65223" lon="5.30467">
        <ele>829.4</ele>
        <time>2017-07-25T04:24:24Z</time>
      </trkpt>
      <trkpt lat="44.65224" lon="5.30511">
        <ele>836.1</ele>
        <time>2017-07-25T10:12:27Z</time>
      </trkpt>
      <trkpt lat="44.65225" lon="5.30555">
        <ele>841</ele>
        <time>2017-07-25T15:57:39Z</time>
      </trkpt>
      <trkpt lat="44.65233" lon="5.30575">
        <ele>846.5</ele>
        <time>2017-07-25T19:07:24Z</time>
      </trkpt>
      <trkpt lat="44.6524" lon="5.3054">
        <ele>845.5</ele>
        <time>2017-07-25T23:53:06Z</time>
      </trkpt>
      <trkpt lat="44.65244" lon="5.30492">
        <ele>841</ele>
        <time>2017-07-26T06:12:44Z</time>
      </trkpt>
      <trkpt lat="44.65261" lon="5.30456">
        <ele>838.3</ele>
        <time>2017-07-26T11:52:15Z</time>
      </trkpt>
      <trkpt lat="44.65284" lon="5.30448">
        <ele>839.5</ele>
        <time>2017-07-26T16:13:29Z</time>
      </trkpt>
      <trkpt lat="44.65312" lon="5.30432">
        <ele>839.8</ele>
        <time>2017-07-26T21:44:36Z</time>
      </trkpt>
      <trkpt lat="44.65332" lon="5.30417">
        <ele>839.9</ele>
        <time>2017-07-27T01:54:57Z</time>
      </trkpt>
      <trkpt lat="44.65359" lon="5.30426">
        <ele>840.6</ele>
        <time>2017-07-27T06:55:06Z</time>
      </trkpt>
      <trkpt lat="44.65391" lon="5.30411">
        <ele>836</ele>
        <time>2017-07-27T13:04:59Z</time>
      </trkpt>
      <trkpt lat="44.65422" lon="5.304">
        <ele>830.8</ele>
        <time>2017-07-27T18:58:04Z</time>
      </trkpt>
      <trkpt lat="44.65442" lon="5.30411">
        <ele>831.3</ele>
        <time>2017-07-27T23:01:03Z</time>
      </trkpt>
      <trkpt lat="44.6546" lon="5.30433">
        <ele>834.8</ele>
        <time>2017-07-28T03:20:35Z</time>
      </trkpt>
      <trkpt lat="44.65485" lon="5.30448">
        <ele>835.3</ele>
        <time>2017-07-28T08:18:55Z</time>
      </trkpt>
      <trkpt lat="44.65507" lon="5.30474">
        <ele>837.9</ele>
        <time>2017-07-28T13:38:02Z</time>
      </trkpt>
      <trkpt lat="44.65529" lon="5.30507">
        <ele>840.1</ele>
        <time>2017-07-28T19:28:48Z</time>
      </trkpt>
      <trkpt lat="44.65555" lon="5.30524">
        <ele>838.5</ele>
        <time>2017-07-29T00:48:18Z</time>
      </trkpt>
      <trkpt lat="44.65587" lon="5.30542">
        <ele>837.9</ele>
        <time>2017-07-29T06:59:30Z</time>
      </trkpt>
      <trkpt lat="44.65603" lon="5.3057">
        <ele>845.6</ele>
        <time>2017-07-29T11:46:37Z</time>
      </trkpt>
      <trkpt lat="44.65618" lon="5.30598">
        <ele>850.5</ele>
        <time>2017-07-29T16:32:44Z</time>
      </trkpt>
      <trkpt lat="44.65645" lon="5.3063">
        <ele>852.6</ele>
        <time>2017-07-29T22:55:43Z</time>
      </trkpt>
      <trkpt lat="44.65652" lon="5.30671">
        <ele>858.5</ele>
        <time>2017-07-30T04:33:40Z</time>
      </trkpt>
      <trkpt lat="44.65652" lon="5.30715">
        <ele>867.2</ele>
        <time>2017-07-30T10:25:27Z</time>
      </trkpt>
      <trkpt lat="44.65645" lon="5.30763">
        <ele>877.5</ele>
        <time>2017-07-30T16:59:08Z</time>
      </trkpt>
      <trkpt lat="44.65664" lon="5.30782">
        <ele>882.9</ele>
        <time>2017-07-30T21:16:16Z</time>
      </trkpt>
      <trkpt lat="44.65683" lon="5.30787">
        <ele>886.2</ele>
        <time>2017-07-31T00:50:12Z</time>
      </trkpt>
      <trkpt lat="44.65712" lon="5.30776">
        <ele>886.5</ele>
        <time>2017-07-31T06:19:26Z</time>
      </trkpt>
      <trkpt lat="44.65736" lon="5.30786">
        <ele>891.7</ele>
        <time>2017-07-31T11:05:11Z</time>
      </trkpt>
      <trkpt lat="44.65765" lon="5.30805">
        <ele>898.7</ele>
        <time>2017-07-31T16:55:52Z</time>
      </trkpt>
      <trkpt lat="44.65778" lon="5.3079">
        <ele>897.2</ele>
        <time>2017-07-31T20:04:12Z</time>
      </trkpt>
      <trkpt lat="44.65792" lon="5.3076">
        <ele>893.6</ele>
        <time>2017-08-01T00:45:04Z</time>
      </trkpt>
      <trkpt lat="44.65821" lon="5.30752">
        <ele>896.4</ele>
        <time>2017-08-01T06:09:45Z</time>
      </trkpt>
      <trkpt lat="44.65849" lon="5.30742">
        <ele>899.9</ele>
        <time>2017-08-01T11:31:58Z</time>
      </trkpt>
      <trkpt lat="44.65885" lon="5.30718">
        <ele>903.9</ele>
        <time>2017-08-01T18:47:50Z</time>
      </trkpt>
      <trkpt lat="44.6591" lon="5.30698">
        <ele>906.4</ele>
        <time>2017-08-02T00:08:24Z</time>
      </trkpt>
      <trkpt lat="44.65935" lon="5.30668">
        <ele>908.4</ele>
        <time>2017-08-02T06:04:17Z</time>
      </trkpt>
      <trkpt lat="44.65963" lon="5.30652">
        <ele>913.5</ele>
        <time>2017-08-02T11:36:27Z</time>
      </trkpt>
      <trkpt lat="44.65983" lon="5.30644">
        <ele>918.4</ele>
        <time>2017-08-02T15:35:30Z</time>
      </trkpt>
      <trkpt lat="44.65997" lon="5.30623">
        <ele>920.9</ele>
        <time>2017-08-02T19:20:12Z</time>
      </trkpt>
      <trkpt lat="44.66029" lon="5.30589">
        <ele>930.4</ele>
        <time>2017-08-03T02:52:28Z</time>
      </trkpt>
      <trkpt lat="44.66033" lon="5.30558">
        <ele>930.5</ele>
        <time>2017-08-03T06:58:39Z</time>
      </trkpt>
      <trkpt lat="44.66034" lon="5.30505">
        <ele>928.2</ele>
        <time>2017-08-03T13:57:16Z</time>
      </trkpt>
      <trkpt lat="44.66037" lon="5.30456">
        <ele>932.6</ele>
        <time>2017-08-03T20:23:14Z</time>
      </trkpt>
      <trkpt lat="44.6604" lon="5.30406">
        <ele>936.5</ele>
        <time>2017-08-04T02:55:37Z</time>
      </trkpt>
      <trkpt lat="44.66046" lon="5.30362">
        <ele>937.7</ele>
        <time>2017-08-04T08:48:22Z</time>
      </trkpt>
      <trkpt lat="44.66054" lon="5.30331">
        <ele>939.3</ele>
        <time>2017-08-04T13:04:21Z</time>
      </trkpt>
      <trkpt lat="44.66069" lon="5.30302">
        <ele>937.7</ele>
        <time>2017-08-04T17:41:11Z</time>
      </trkpt>
      <trkpt lat="44.66086" lon="5.30281">
        <ele>937.6</ele>
        <time>2017-08-04T21:47:53Z</time>
      </trkpt>
      <trkpt lat="44.66107" lon="5.30258">
        <ele>937.5</ele>
        <time>2017-08-05T02:39:57Z</time>
      </trkpt>
      <trkpt lat="44.66147" lon="5.30243">
        <ele>945.4</ele>
        <time>2017-08-05T10:19:32Z</time>
      </trkpt>
      <trkpt lat="44.6618" lon="5.3022">
        <ele>950.7</ele>
        <time>2017-08-05T17:11:57Z</time>
      </trkpt>
      <trkpt lat="44.66202" lon="5.30188">
        <ele>950.2</ele>
        <time>2017-08-05T23:02:58Z</time>
      </trkpt>
      <trkpt lat="44.66235" lon="5.30134">
        <ele>947.7</ele>
        <time>2017-08-06T08:14:29Z</time>
      </trkpt>
      <trkpt lat="44.66259" lon="5.30107">
        <ele>947.7</ele>
        <time>2017-08-06T13:50:35Z</time>
      </trkpt>
      <trkpt lat="44.66285" lon="5.30091">
        <ele>949.4</ele>
        <time>2017-08-06T19:00:14Z</time>
      </trkpt>
      <trkpt lat="44.66311" lon="5.30072">
        <ele>950.6</ele>
        <time>2017-08-07T00:28:43Z</time>
      </trkpt>
      <trkpt lat="44.66341" lon="5.30045">
        <ele>951</ele>
        <time>2017-08-07T06:59:45Z</time>
      </trkpt>
      <trkpt lat="44.66369" lon="5.30024">
        <ele>954.4</ele>
        <time>2017-08-07T12:48:33Z</time>
      </trkpt>
      <trkpt lat="44.66396" lon="5.30003">
        <ele>957.4</ele>
        <time>2017-08-07T18:25:02Z</time>
      </trkpt>
      <trkpt lat="44.66413" lon="5.29992">
        <ele>960.5</ele>
        <time>2017-08-07T21:56:32Z</time>
      </trkpt>
      <trkpt lat="44.66439" lon="5.29998">
        <ele>970.7</ele>
        <time>2017-08-08T02:55:21Z</time>
      </trkpt>
      <trkpt lat="44.66467" lon="5.29978">
        <ele>977.2</ele>
        <time>2017-08-08T08:50:58Z</time>
      </trkpt>
      <trkpt lat="44.66455" lon="5.30007">
        <ele>978.9</ele>
        <time>2017-08-08T13:13:29Z</time>
      </trkpt>
      <trkpt lat="44.66432" lon="5.30036">
        <ele>977.1</ele>
        <time>2017-08-08T18:54:16Z</time>
      </trkpt>
      <trkpt lat="44.66408" lon="5.30064">
        <ele>975.7</ele>
        <time>2017-08-09T00:40:25Z</time>
      </trkpt>
      <trkpt lat="44.66383" lon="5.30093">
        <ele>976</ele>
        <time>2017-08-09T06:30:57Z</time>
      </trkpt>
      <trkpt lat="44.66373" lon="5.30127">
        <ele>984.1</ele>
        <time>2017-08-09T11:26:34Z</time>
      </trkpt>
      <trkpt lat="44.66346" lon="5.30158">
        <ele>987.2</ele>
        <time>2017-08-09T17:48:25Z</time>
      </trkpt>
      <trkpt lat="44.66318" lon="5.30186">
        <ele>987.5</ele>
        <time>2017-08-10T00:01:08Z</time>
      </trkpt>
      <trkpt lat="44.66303" lon="5.30203">
        <ele>987.6</ele>
        <time>2017-08-10T03:33:50Z</time>
      </trkpt>
      <trkpt lat="44.66291" lon="5.3023">
        <ele>991.4</ele>
        <time>2017-08-10T07:46:25Z</time>
      </trkpt>
      <trkpt lat="44.66264" lon="5.30258">
        <ele>989.9</ele>
        <time>2017-08-10T13:53:57Z</time>
      </trkpt>
      <trkpt lat="44.66248" lon="5.30302">
        <ele>992.4</ele>
        <time>2017-08-10T20:21:14Z</time>
      </trkpt>
      <trkpt lat="44.66227" lon="5.30337">
        <ele>993.5</ele>
        <time>2017-08-11T02:15:35Z</time>
      </trkpt>
      <trkpt lat="44.66211" lon="5.30374">
        <ele>992.7</ele>
        <time>2017-08-11T07:52:50Z</time>
      </trkpt>
      <trkpt lat="44.66215" lon="5.30411">
        <ele>997.4</ele>
        <time>2017-08-11T12:47:29Z</time>
      </trkpt>
      <trkpt lat="44.66226" lon="5.30433">
        <ele>1000.2</ele>
        <time>2017-08-11T16:14:17Z</time>
      </trkpt>
      <trkpt lat="44.66253" lon="5.30462">
        <ele>1008.3</ele>
        <time>2017-08-11T22:43:56Z</time>
      </trkpt>
      <trkpt lat="44.66268" lon="5.30498">
        <ele>1013.5</ele>
        <time>2017-08-12T04:07:07Z</time>
      </trkpt>
      <trkpt lat="44.6628" lon="5.30547">
        <ele>1014.5</ele>
        <time>2017-08-12T10:59:49Z</time>
      </trkpt>
      <trkpt lat="44.66294" lon="5.306">
        <ele>1014.5</ele>
        <time>2017-08-12T18:17:01Z</time>
      </trkpt>
      <trkpt lat="44.66304" lon="5.30652">
        <ele>1014.3</ele>
        <time>2017-08-13T01:17:59Z</time>
      </trkpt>
      <trkpt lat="44.66315" lon="5.30708">
        <ele>1016.2</ele>
        <time>2017-08-13T08:52:05Z</time>
      </trkpt>
      <trkpt lat="44.66323" lon="5.30761">
        <ele>1017.8</ele>
        <time>2017-08-13T15:49:36Z</time>
      </trkpt>
      <trkpt lat="44.66335" lon="5.30816">
        <ele>1018.3</ele>
        <time>2017-08-13T23:19:00Z</time>
      </trkpt>
      <trkpt lat="44.6634" lon="5.30854">
        <ele>1017.9</ele>
        <time>2017-08-14T04:26:24Z</time>
      </trkpt>
      <trkpt lat="44.66355" lon="5.30877">
        <ele>1020.4</ele>
        <time>2017-08-14T08:24:34Z</time>
      </trkpt>
      <trkpt lat="44.66375" lon="5.30887">
        <ele>1025</ele>
        <time>2017-08-14T12:21:07Z</time>
      </trkpt>
      <trkpt lat="44.66389" lon="5.30909">
        <ele>1028.2</ele>
        <time>2017-08-14T16:19:55Z</time>
      </trkpt>
      <trkpt lat="44.66395" lon="5.30933">
        <ele>1030.3</ele>
        <time>2017-08-14T19:41:30Z</time>
      </trkpt>
      <trkpt lat="44.66394" lon="5.30968">
        <ele>1031.8</ele>
        <time>2017-08-15T00:13:23Z</time>
      </trkpt>
      <trkpt lat="44.66386" lon="5.31019">
        <ele>1034.3</ele>
        <time>2017-08-15T06:57:07Z</time>
      </trkpt>
      <trkpt lat="44.66376" lon="5.31074">
        <ele>1040</ele>
        <time>2017-08-15T14:30:04Z</time>
      </trkpt>
      <trkpt lat="44.66364" lon="5.31131">
        <ele>1044.6</ele>
        <time>2017-08-15T22:13:37Z</time>
      </trkpt>
      <trkpt lat="44.66349" lon="5.31188">
        <ele>1049.1</ele>
        <time>2017-08-16T06:09:17Z</time>
      </trkpt>
      <trkpt lat="44.66332" lon="5.31245">
        <ele>1050.8</ele>
        <time>2017-08-16T14:14:44Z</time>
      </trkpt>
      <trkpt lat="44.66323" lon="5.31281">
        <ele>1051.2</ele>
        <time>2017-08-16T19:07:40Z</time>
      </trkpt>
      <trkpt lat="44.66326" lon="5.31317">
        <ele>1055.2</ele>
        <time>2017-08-16T23:53:11Z</time>
      </trkpt>
      <trkpt lat="44.66343" lon="5.31346">
        <ele>1063</ele>
        <time>2017-08-17T04:59:26Z</time>
      </trkpt>
      <trkpt lat="44.66371" lon="5.31379">
        <ele>1074.5</ele>
        <time>2017-08-17T11:52:55Z</time>
      </trkpt>
      <trkpt lat="44.66399" lon="5.3141">
        <ele>1086.3</ele>
        <time>2017-08-17T18:44:46Z</time>
      </trkpt>
      <trkpt lat="44.66428" lon="5.31437">
        <ele>1095.4</ele>
        <time>2017-08-18T01:14:49Z</time>
      </trkpt>
      <trkpt lat="44.66456" lon="5.31473">
        <ele>1101.4</ele>
        <time>2017-08-18T08:09:53Z</time>
      </trkpt>
      <trkpt lat="44.66482" lon="5.31509">
        <ele>1106.2</ele>
        <time>2017-08-18T14:57:33Z</time>
      </trkpt>
      <trkpt lat="44.66509" lon="5.31545">
        <ele>1110.4</ele>
        <time>2017-08-18T21:44:26Z</time>
      </trkpt>
      <trkpt lat="44.66533" lon="5.31586">
        <ele>1112.2</ele>
        <time>2017-08-19T04:39:24Z</time>
      </trkpt>
      <trkpt lat="44.66569" lon="5.31638">
        <ele>1116.7</ele>
        <time>2017-08-19T14:08:28Z</time>
      </trkpt>
      <trkpt lat="44.66604" lon="5.31692">
        <ele>1118.5</ele>
        <time>2017-08-19T23:35:51Z</time>
      </trkpt>
      <trkpt lat="44.66639" lon="5.31749">
        <ele>1120.4</ele>
        <time>2017-08-20T09:23:22Z</time>
      </trkpt>
      <trkpt lat="44.66677" lon="5.31799">
        <ele>1123.7</ele>
        <time>2017-08-20T18:52:34Z</time>
      </trkpt>
      <trkpt lat="44.66709" lon="5.31843">
        <ele>1124.2</ele>
        <time>2017-08-21T03:06:42Z</time>
      </trkpt>
      <trkpt lat="44.66738" lon="5.31868">
        <ele>1127.6</ele>
        <time>2017-08-21T09:20:33Z</time>
      </trkpt>
      <trkpt lat="44.66771" lon="5.31888">
        <ele>1132</ele>
        <time>2017-08-21T15:58:30Z</time>
      </trkpt>
      <trkpt lat="44.66805" lon="5.31914">
        <ele>1137.3</ele>
        <time>2017-08-21T23:09:32Z</time>
      </trkpt>
      <trkpt lat="44.66832" lon="5.31963">
        <ele>1139.9</ele>
        <time>2017-08-22T07:06:02Z</time>
      </trkpt>
      <trkpt lat="44.66859" lon="5.32012">
        <ele>1114.5</ele>
        <time>2017-08-22T16:14:43Z</time>
      </trkpt>
      <trkpt lat="44.66871" lon="5.32032">
        <ele>1113.2</ele>
        <time>2017-08-22T16:14:53Z</time>
      </trkpt>
      <trkpt lat="44.66883" lon="5.32051">
        <ele>1112.2</ele>
        <time>2017-08-22T16:15:01Z</time>
      </trkpt>
      <trkpt lat="44.66899" lon="5.32064">
        <ele>1113.6</ele>
        <time>2017-08-22T16:15:11Z</time>
      </trkpt>
      <trkpt lat="44.66915" lon="5.3208">
        <ele>1117.6</ele>
        <time>2017-08-22T16:15:20Z</time>
      </trkpt>
      <trkpt lat="44.66932" lon="5.32092">
        <ele>1117.5</ele>
        <time>2017-08-22T16:15:32Z</time>
      </trkpt>
      <trkpt lat="44.6695" lon="5.321">
        <ele>1122.5</ele>
        <time>2017-08-22T16:15:43Z</time>
      </trkpt>
      <trkpt lat="44.66967" lon="5.32109">
        <ele>1122.6</ele>
        <time>2017-08-22T16:15:51Z</time>
      </trkpt>
      <trkpt lat="44.66986" lon="5.32114">
        <ele>1123.2</ele>
        <time>2017-08-22T16:16:02Z</time>
      </trkpt>
      <trkpt lat="44.67004" lon="5.32123">
        <ele>1128.2</ele>
        <time>2017-08-22T16:16:14Z</time>
      </trkpt>
      <trkpt lat="44.67022" lon="5.32128">
        <ele>1130.8</ele>
        <time>2017-08-22T16:16:24Z</time>
      </trkpt>
      <trkpt lat="44.6704" lon="5.32134">
        <ele>1133.2</ele>
        <time>2017-08-22T16:16:33Z</time>
      </trkpt>
      <trkpt lat="44.67059" lon="5.3214">
        <ele>1134.9</ele>
        <time>2017-08-22T16:16:45Z</time>
      </trkpt>
      <trkpt lat="44.67078" lon="5.32142">
        <ele>1136.5</ele>
        <time>2017-08-22T16:16:55Z</time>
      </trkpt>
      <trkpt lat="44.67096" lon="5.32147">
        <ele>1137.3</ele>
        <time>2017-08-22T16:17:04Z</time>
      </trkpt>
      <trkpt lat="44.67114" lon="5.32149">
        <ele>1137.2</ele>
        <time>2017-08-22T16:17:13Z</time>
      </trkpt>
      <trkpt lat="44.67133" lon="5.32151">
        <ele>1138.5</ele>
        <time>2017-08-22T16:17:24Z</time>
      </trkpt>
      <trkpt lat="44.67152" lon="5.32157">
        <ele>1137.6</ele>
        <time>2017-08-22T16:17:34Z</time>
      </trkpt>
      <trkpt lat="44.67164" lon="5.32176">
        <ele>1139.2</ele>
        <time>2017-08-22T16:17:42Z</time>
      </trkpt>
      <trkpt lat="44.67167" lon="5.32203">
        <ele>1144.1</ele>
        <time>2017-08-22T16:17:50Z</time>
      </trkpt>
      <trkpt lat="44.6717" lon="5.32229">
        <ele>1145.6</ele>
        <time>2017-08-22T16:17:59Z</time>
      </trkpt>
      <trkpt lat="44.67174" lon="5.32256">
        <ele>1144.6</ele>
        <time>2017-08-22T16:18:09Z</time>
      </trkpt>
      <trkpt lat="44.67167" lon="5.32283">
        <ele>1149.4</ele>
        <time>2017-08-22T16:18:19Z</time>
      </trkpt>
      <trkpt lat="44.67159" lon="5.32306">
        <ele>1152.1</ele>
        <time>2017-08-22T16:18:27Z</time>
      </trkpt>
      <trkpt lat="44.67143" lon="5.3232">
        <ele>1154.4</ele>
        <time>2017-08-22T16:18:36Z</time>
      </trkpt>
      <trkpt lat="44.67125" lon="5.32329">
        <ele>1158.5</ele>
        <time>2017-08-22T16:18:46Z</time>
      </trkpt>
      <trkpt lat="44.67115" lon="5.32353">
        <ele>1159.2</ele>
        <time>2017-08-22T16:18:56Z</time>
      </trkpt>
      <trkpt lat="44.67127" lon="5.32374">
        <ele>1158.6</ele>
        <time>2017-08-22T16:19:07Z</time>
      </trkpt>
      <trkpt lat="44.6713" lon="5.324">
        <ele>1160.7</ele>
        <time>2017-08-22T16:19:19Z</time>
      </trkpt>
      <trkpt lat="44.67129" lon="5.32426">
        <ele>1160.5</ele>
        <time>2017-08-22T16:19:31Z</time>
      </trkpt>
      <trkpt lat="44.67117" lon="5.32446">
        <ele>1163.5</ele>
        <time>2017-08-22T16:19:42Z</time>
      </trkpt>
      <trkpt lat="44.67108" lon="5.3247">
        <ele>1166.6</ele>
        <time>2017-08-22T16:19:53Z</time>
      </trkpt>
      <trkpt lat="44.67101" lon="5.32495">
        <ele>1166.6</ele>
        <time>2017-08-22T16:20:05Z</time>
      </trkpt>
      <trkpt lat="44.67093" lon="5.3252">
        <ele>1169.6</ele>
        <time>2017-08-22T16:20:17Z</time>
      </trkpt>
      <trkpt lat="44.67085" lon="5.32543">
        <ele>1170.8</ele>
        <time>2017-08-22T16:20:28Z</time>
      </trkpt>
      <trkpt lat="44.6708" lon="5.32568">
        <ele>1173.5</ele>
        <time>2017-08-22T16:20:40Z</time>
      </trkpt>
      <trkpt lat="44.67078" lon="5.32595">
        <ele>1180.2</ele>
        <time>2017-08-22T16:20:53Z</time>
      </trkpt>
      <trkpt lat="44.67075" lon="5.32622">
        <ele>1181.5</ele>
        <time>2017-08-22T16:21:05Z</time>
      </trkpt>
      <trkpt lat="44.67072" lon="5.32647">
        <ele>1183.5</ele>
        <time>2017-08-22T16:21:16Z</time>
      </trkpt>
      <trkpt lat="44.6707" lon="5.32673">
        <ele>1184.8</ele>
        <time>2017-08-22T16:21:26Z</time>
      </trkpt>
      <trkpt lat="44.67075" lon="5.32698">
        <ele>1187.4</ele>
        <time>2017-08-22T16:21:42Z</time>
      </trkpt>
      <trkpt lat="44.67074" lon="5.32726">
        <ele>1188.5</ele>
        <time>2017-08-22T16:21:51Z</time>
      </trkpt>
      <trkpt lat="44.67067" lon="5.32752">
        <ele>1187.3</ele>
        <time>2017-08-22T16:22:00Z</time>
      </trkpt>
      <trkpt lat="44.6706" lon="5.32775">
        <ele>1187.5</ele>
        <time>2017-08-22T16:22:09Z</time>
      </trkpt>
      <trkpt lat="44.67054" lon="5.328">
        <ele>1188.8</ele>
        <time>2017-08-22T16:22:24Z</time>
      </trkpt>
      <trkpt lat="44.67051" lon="5.32827">
        <ele>1187.7</ele>
        <time>2017-08-22T16:22:33Z</time>
      </trkpt>
      <trkpt lat="44.67049" lon="5.32852">
        <ele>1191</ele>
        <time>2017-08-22T16:22:49Z</time>
      </trkpt>
      <trkpt lat="44.67049" lon="5.32878">
        <ele>1194.5</ele>
        <time>2017-08-22T16:23:11Z</time>
      </trkpt>
      <trkpt lat="44.67061" lon="5.32897">
        <ele>1201.7</ele>
        <time>2017-08-22T16:23:33Z</time>
      </trkpt>
      <trkpt lat="44.67068" lon="5.32921">
        <ele>1205.4</ele>
        <time>2017-08-22T16:23:57Z</time>
      </trkpt>
      <trkpt lat="44.67085" lon="5.32931">
        <ele>1208.5</ele>
        <time>2017-08-22T16:24:17Z</time>
      </trkpt>
      <trkpt lat="44.67095" lon="5.32952">
        <ele>1214.8</ele>
        <time>2017-08-22T16:24:37Z</time>
      </trkpt>
      <trkpt lat="44.67109" lon="5.3297">
        <ele>1216.9</ele>
        <time>2017-08-22T16:24:59Z</time>
      </trkpt>
      <trkpt lat="44.67123" lon="5.32987">
        <ele>1222.6</ele>
        <time>2017-08-22T16:25:20Z</time>
      </trkpt>
      <trkpt lat="44.67141" lon="5.32992">
        <ele>1223.5</ele>
        <time>2017-08-22T16:25:47Z</time>
      </trkpt>
      <trkpt lat="44.67154" lon="5.32973">
        <ele>1227.4</ele>
        <time>2017-08-22T16:25:56Z</time>
      </trkpt>
      <trkpt lat="44.67168" lon="5.32953">
        <ele>1230.6</ele>
        <time>2017-08-22T16:26:08Z</time>
      </trkpt>
      <trkpt lat="44.67183" lon="5.32938">
        <ele>1231.6</ele>
        <time>2017-08-22T16:26:33Z</time>
      </trkpt>
      <trkpt lat="44.67198" lon="5.32923">
        <ele>1233.8</ele>
        <time>2017-08-22T16:26:44Z</time>
      </trkpt>
      <trkpt lat="44.67216" lon="5.32912">
        <ele>1233.6</ele>
        <time>2017-08-22T16:26:53Z</time>
      </trkpt>
      <trkpt lat="44.67236" lon="5.32907">
        <ele>1233.5</ele>
        <time>2017-08-22T16:27:02Z</time>
      </trkpt>
      <trkpt lat="44.6725" lon="5.32887">
        <ele>1233.6</ele>
        <time>2017-08-22T16:27:11Z</time>
      </trkpt>
      <trkpt lat="44.6727" lon="5.32882">
        <ele>1233.6</ele>
        <time>2017-08-22T16:27:17Z</time>
      </trkpt>
      <trkpt lat="44.67289" lon="5.32877">
        <ele>1231.7</ele>
        <time>2017-08-22T16:27:22Z</time>
      </trkpt>
      <trkpt lat="44.67311" lon="5.32866">
        <ele>1226.9</ele>
        <time>2017-08-22T16:27:27Z</time>
      </trkpt>
      <trkpt lat="44.67329" lon="5.3287">
        <ele>1221.5</ele>
        <time>2017-08-22T16:27:41Z</time>
      </trkpt>
      <trkpt lat="44.67351" lon="5.3287">
        <ele>1209</ele>
        <time>2017-08-22T16:28:12Z</time>
      </trkpt>
      <trkpt lat="44.67373" lon="5.32883">
        <ele>1205.4</ele>
        <time>2017-08-22T16:28:16Z</time>
      </trkpt>
      <trkpt lat="44.67393" lon="5.32887">
        <ele>1206.3</ele>
        <time>2017-08-22T16:28:20Z</time>
      </trkpt>
      <trkpt lat="44.67411" lon="5.32884">
        <ele>1207.5</ele>
        <time>2017-08-22T16:41:47Z</time>
      </trkpt>
      <trkpt lat="44.67429" lon="5.32878">
        <ele>1208.8</ele>
        <time>2017-08-22T16:41:57Z</time>
      </trkpt>
      <trkpt lat="44.67447" lon="5.32869">
        <ele>1206.8</ele>
        <time>2017-08-22T16:42:04Z</time>
      </trkpt>
      <trkpt lat="44.67466" lon="5.32869">
        <ele>1206.4</ele>
        <time>2017-08-22T16:42:11Z</time>
      </trkpt>
      <trkpt lat="44.67485" lon="5.32876">
        <ele>1208.1</ele>
        <time>2017-08-22T16:42:15Z</time>
      </trkpt>
      <trkpt lat="44.67503" lon="5.32882">
        <ele>1212.1</ele>
        <time>2017-08-22T16:42:25Z</time>
      </trkpt>
      <trkpt lat="44.67518" lon="5.329">
        <ele>1209.9</ele>
        <time>2017-08-22T16:42:35Z</time>
      </trkpt>
      <trkpt lat="44.67535" lon="5.32917">
        <ele>1208.8</ele>
        <time>2017-08-22T16:42:42Z</time>
      </trkpt>
      <trkpt lat="44.6755" lon="5.32937">
        <ele>1206.7</ele>
        <time>2017-08-22T16:42:46Z</time>
      </trkpt>
      <trkpt lat="44.67568" lon="5.32951">
        <ele>1202.4</ele>
        <time>2017-08-22T16:42:49Z</time>
      </trkpt>
      <trkpt lat="44.67587" lon="5.32964">
        <ele>1196.4</ele>
        <time>2017-08-22T16:42:52Z</time>
      </trkpt>
      <trkpt lat="44.67606" lon="5.32978">
        <ele>1191.1</ele>
        <time>2017-08-22T16:42:55Z</time>
      </trkpt>
      <trkpt lat="44.67627" lon="5.32995">
        <ele>1185.1</ele>
        <time>2017-08-22T16:42:58Z</time>
      </trkpt>
      <trkpt lat="44.6765" lon="5.33013">
        <ele>1182.7</ele>
        <time>2017-08-22T16:43:01Z</time>
      </trkpt>
      <trkpt lat="44.6767" lon="5.33031">
        <ele>1179.1</ele>
        <time>2017-08-22T16:43:04Z</time>
      </trkpt>
      <trkpt lat="44.67693" lon="5.33053">
        <ele>1176.7</ele>
        <time>2017-08-22T16:43:07Z</time>
      </trkpt>
      <trkpt lat="44.67709" lon="5.33068">
        <ele>1174</ele>
        <time>2017-08-22T16:43:09Z</time>
      </trkpt>
      <trkpt lat="44.67726" lon="5.33086">
        <ele>1171.3</ele>
        <time>2017-08-22T16:43:11Z</time>
      </trkpt>
      <trkpt lat="44.67743" lon="5.33105">
        <ele>1167.6</ele>
        <time>2017-08-22T16:43:13Z</time>
      </trkpt>
      <trkpt lat="44.67759" lon="5.33123">
        <ele>1163.4</ele>
        <time>2017-08-22T16:43:15Z</time>
      </trkpt>
      <trkpt lat="44.67777" lon="5.3314">
        <ele>1160.1</ele>
        <time>2017-08-22T16:43:17Z</time>
      </trkpt>
      <trkpt lat="44.67798" lon="5.33155">
        <ele>1158.5</ele>
        <time>2017-08-22T16:43:19Z</time>
      </trkpt>
      <trkpt lat="44.67817" lon="5.3317">
        <ele>1156.9</ele>
        <time>2017-08-22T16:43:21Z</time>
      </trkpt>
      <trkpt lat="44.67835" lon="5.33195">
        <ele>1152</ele>
        <time>2017-08-22T16:43:24Z</time>
      </trkpt>
      <trkpt lat="44.67851" lon="5.3322">
        <ele>1156.5</ele>
        <time>2017-08-22T16:43:27Z</time>
      </trkpt>
      <trkpt lat="44.67865" lon="5.33247">
        <ele>1155.6</ele>
        <time>2017-08-22T16:43:30Z</time>
      </trkpt>
      <trkpt lat="44.67877" lon="5.33268">
        <ele>1155.6</ele>
        <time>2017-08-22T16:43:33Z</time>
      </trkpt>
      <trkpt lat="44.67889" lon="5.33288">
        <ele>1154.8</ele>
        <time>2017-08-22T16:43:36Z</time>
      </trkpt>
      <trkpt lat="44.67903" lon="5.33311">
        <ele>1152.2</ele>
        <time>2017-08-22T16:43:39Z</time>
      </trkpt>
      <trkpt lat="44.67918" lon="5.33334">
        <ele>1151.6</ele>
        <time>2017-08-22T16:43:42Z</time>
      </trkpt>
      <trkpt lat="44.6793" lon="5.33355">
        <ele>1152.2</ele>
        <time>2017-08-22T16:43:45Z</time>
      </trkpt>
      <trkpt lat="44.67942" lon="5.33381">
        <ele>1153.5</ele>
        <time>2017-08-22T16:43:50Z</time>
      </trkpt>
      <trkpt lat="44.67948" lon="5.33405">
        <ele>1154.4</ele>
        <time>2017-08-22T16:43:56Z</time>
      </trkpt>
      <trkpt lat="44.67967" lon="5.33412">
        <ele>1153.4</ele>
        <time>2017-08-22T16:44:03Z</time>
      </trkpt>
      <trkpt lat="44.67981" lon="5.3343">
        <ele>1152.2</ele>
        <time>2017-08-22T16:44:08Z</time>
      </trkpt>
      <trkpt lat="44.67993" lon="5.3345">
        <ele>1154.4</ele>
        <time>2017-08-22T16:44:13Z</time>
      </trkpt>
      <trkpt lat="44.68004" lon="5.33473">
        <ele>1154.5</ele>
        <time>2017-08-22T16:44:20Z</time>
      </trkpt>
      <trkpt lat="44.68017" lon="5.33493">
        <ele>1154.6</ele>
        <time>2017-08-22T16:44:24Z</time>
      </trkpt>
      <trkpt lat="44.6803" lon="5.33514">
        <ele>1154.3</ele>
        <time>2017-08-22T16:44:28Z</time>
      </trkpt>
      <trkpt lat="44.68046" lon="5.33536">
        <ele>1151.7</ele>
        <time>2017-08-22T16:44:32Z</time>
      </trkpt>
      <trkpt lat="44.68061" lon="5.33553">
        <ele>1151.6</ele>
        <time>2017-08-22T16:44:36Z</time>
      </trkpt>
      <trkpt lat="44.68078" lon="5.33571">
        <ele>1147.7</ele>
        <time>2017-08-22T16:44:42Z</time>
      </trkpt>
      <trkpt lat="44.6809" lon="5.33594">
        <ele>1148.4</ele>
        <time>2017-08-22T16:44:46Z</time>
      </trkpt>
      <trkpt lat="44.68104" lon="5.33618">
        <ele>1151.2</ele>
        <time>2017-08-22T16:44:54Z</time>
      </trkpt>
      <trkpt lat="44.68113" lon="5.3364">
        <ele>1157.4</ele>
        <time>2017-08-22T16:45:01Z</time>
      </trkpt>
      <trkpt lat="44.68124" lon="5.33662">
        <ele>1161.6</ele>
        <time>2017-08-22T16:45:10Z</time>
      </trkpt>
      <trkpt lat="44.68131" lon="5.33688">
        <ele>1163.3</ele>
        <time>2017-08-22T16:45:17Z</time>
      </trkpt>
      <trkpt lat="44.6814" lon="5.33714">
        <ele>1160.4</ele>
        <time>2017-08-22T16:45:26Z</time>
      </trkpt>
      <trkpt lat="44.68147" lon="5.3374">
        <ele>1153.8</ele>
        <time>2017-08-22T16:45:35Z</time>
      </trkpt>
      <trkpt lat="44.68162" lon="5.33757">
        <ele>1153.5</ele>
        <time>2017-08-22T16:45:54Z</time>
      </trkpt>
      <trkpt lat="44.68175" lon="5.33778">
        <ele>1158.6</ele>
        <time>2017-08-22T16:48:39Z</time>
      </trkpt>
      <trkpt lat="44.68188" lon="5.33796">
        <ele>1158.8</ele>
        <time>2017-08-22T16:48:46Z</time>
      </trkpt>
      <trkpt lat="44.68203" lon="5.33816">
        <ele>1155.4</ele>
        <time>2017-08-22T16:48:54Z</time>
      </trkpt>
      <trkpt lat="44.68217" lon="5.33837">
        <ele>1155.6</ele>
        <time>2017-08-22T16:49:00Z</time>
      </trkpt>
      <trkpt lat="44.68234" lon="5.33854">
        <ele>1156.5</ele>
        <time>2017-08-22T16:49:05Z</time>
      </trkpt>
      <trkpt lat="44.68249" lon="5.33871">
        <ele>1154.7</ele>
        <time>2017-08-22T16:49:11Z</time>
      </trkpt>
      <trkpt lat="44.6826" lon="5.33893">
        <ele>1155.6</ele>
        <time>2017-08-22T16:49:18Z</time>
      </trkpt>
      <trkpt lat="44.68275" lon="5.33913">
        <ele>1156.2</ele>
        <time>2017-08-22T16:49:25Z</time>
      </trkpt>
      <trkpt lat="44.68287" lon="5.33938">
        <ele>1154.3</ele>
        <time>2017-08-22T16:49:30Z</time>
      </trkpt>
      <trkpt lat="44.68301" lon="5.33956">
        <ele>1156.4</ele>
        <time>2017-08-22T16:49:37Z</time>
      </trkpt>
      <trkpt lat="44.68314" lon="5.33979">
        <ele>1155.5</ele>
        <time>2017-08-22T16:49:43Z</time>
      </trkpt>
      <trkpt lat="44.68333" lon="5.33993">
        <ele>1150.7</ele>
        <time>2017-08-22T16:49:49Z</time>
      </trkpt>
      <trkpt lat="44.68352" lon="5.34008">
        <ele>1150.6</ele>
        <time>2017-08-22T16:49:53Z</time>
      </trkpt>
      <trkpt lat="44.68368" lon="5.34021">
        <ele>1148.7</ele>
        <time>2017-08-22T16:49:56Z</time>
      </trkpt>
      <trkpt lat="44.68386" lon="5.34033">
        <ele>1146.9</ele>
        <time>2017-08-22T16:49:59Z</time>
      </trkpt>
      <trkpt lat="44.68404" lon="5.34049">
        <ele>1145.9</ele>
        <time>2017-08-22T16:50:02Z</time>
      </trkpt>
      <trkpt lat="44.68422" lon="5.34062">
        <ele>1143.6</ele>
        <time>2017-08-22T16:50:05Z</time>
      </trkpt>
      <trkpt lat="44.68437" lon="5.34076">
        <ele>1142.4</ele>
        <time>2017-08-22T16:50:08Z</time>
      </trkpt>
      <trkpt lat="44.68457" lon="5.34093">
        <ele>1140.3</ele>
        <time>2017-08-22T16:50:12Z</time>
      </trkpt>
      <trkpt lat="44.68477" lon="5.34111">
        <ele>1139.6</ele>
        <time>2017-08-22T16:50:16Z</time>
      </trkpt>
      <trkpt lat="44.68495" lon="5.34131">
        <ele>1138.6</ele>
        <time>2017-08-22T16:50:20Z</time>
      </trkpt>
      <trkpt lat="44.68513" lon="5.34151">
        <ele>1138.6</ele>
        <time>2017-08-22T16:50:24Z</time>
      </trkpt>
      <trkpt lat="44.68532" lon="5.34169">
        <ele>1138.6</ele>
        <time>2017-08-22T16:50:29Z</time>
      </trkpt>
      <trkpt lat="44.68549" lon="5.34188">
        <ele>1137.6</ele>
        <time>2017-08-22T16:50:33Z</time>
      </trkpt>
      <trkpt lat="44.68566" lon="5.34205">
        <ele>1137.6</ele>
        <time>2017-08-22T16:50:37Z</time>
      </trkpt>
      <trkpt lat="44.68589" lon="5.34214">
        <ele>1136.6</ele>
        <time>2017-08-22T16:50:41Z</time>
      </trkpt>
      <trkpt lat="44.68609" lon="5.34226">
        <ele>1136.6</ele>
        <time>2017-08-22T16:50:44Z</time>
      </trkpt>
      <trkpt lat="44.68624" lon="5.34244">
        <ele>1137.6</ele>
        <time>2017-08-22T16:50:47Z</time>
      </trkpt>
      <trkpt lat="44.6864" lon="5.34261">
        <ele>1138.5</ele>
        <time>2017-08-22T16:50:50Z</time>
      </trkpt>
      <trkpt lat="44.68652" lon="5.34282">
        <ele>1139.5</ele>
        <time>2017-08-22T16:50:53Z</time>
      </trkpt>
      <trkpt lat="44.68667" lon="5.34306">
        <ele>1139.5</ele>
        <time>2017-08-22T16:50:57Z</time>
      </trkpt>
      <trkpt lat="44.68683" lon="5.34335">
        <ele>1139.6</ele>
        <time>2017-08-22T16:51:01Z</time>
      </trkpt>
      <trkpt lat="44.68696" lon="5.34358">
        <ele>1140.8</ele>
        <time>2017-08-22T16:51:05Z</time>
      </trkpt>
      <trkpt lat="44.68709" lon="5.34382">
        <ele>1141.5</ele>
        <time>2017-08-22T16:51:09Z</time>
      </trkpt>
      <trkpt lat="44.68723" lon="5.34401">
        <ele>1139.2</ele>
        <time>2017-08-22T16:51:12Z</time>
      </trkpt>
      <trkpt lat="44.68737" lon="5.34419">
        <ele>1137.6</ele>
        <time>2017-08-22T16:51:15Z</time>
      </trkpt>
      <trkpt lat="44.68754" lon="5.3444">
        <ele>1138.9</ele>
        <time>2017-08-22T16:51:19Z</time>
      </trkpt>
      <trkpt lat="44.68769" lon="5.34464">
        <ele>1140.5</ele>
        <time>2017-08-22T16:51:23Z</time>
      </trkpt>
      <trkpt lat="44.68787" lon="5.34477">
        <ele>1142.5</ele>
        <time>2017-08-22T16:51:27Z</time>
      </trkpt>
      <trkpt lat="44.6881" lon="5.34475">
        <ele>1143.2</ele>
        <time>2017-08-22T16:51:31Z</time>
      </trkpt>
      <trkpt lat="44.68832" lon="5.34475">
        <ele>1142.9</ele>
        <time>2017-08-22T16:51:35Z</time>
      </trkpt>
      <trkpt lat="44.68855" lon="5.34472">
        <ele>1142.7</ele>
        <time>2017-08-22T16:51:39Z</time>
      </trkpt>
      <trkpt lat="44.68873" lon="5.34471">
        <ele>1144.9</ele>
        <time>2017-08-22T16:51:43Z</time>
      </trkpt>
      <trkpt lat="44.68892" lon="5.3447">
        <ele>1141</ele>
        <time>2017-08-22T16:51:47Z</time>
      </trkpt>
      <trkpt lat="44.68892" lon="5.3447">
        <ele>1152.6</ele>
      </trkpt>
      <trkpt lat="44.68924" lon="5.34463">
        <ele>1153.3</ele>
      </trkpt>
      <trkpt lat="44.68958" lon="5.34462">
        <ele>1155.3</ele>
      </trkpt>
      <trkpt lat="44.69017" lon="5.34457">
        <ele>1154.1</ele>
      </trkpt>
      <trkpt lat="44.69054" lon="5.34434">
        <ele>1144.4</ele>
      </trkpt>
      <trkpt lat="44.69094" lon="5.34402">
        <ele>1132.5</ele>
      </trkpt>
      <trkpt lat="44.69134" lon="5.34384">
        <ele>1124.3</ele>
      </trkpt>
      <trkpt lat="44.6917" lon="5.34396">
        <ele>1123.7</ele>
      </trkpt>
      <trkpt lat="44.69202" lon="5.34438">
        <ele>1124.7</ele>
      </trkpt>
      <trkpt lat="44.69232" lon="5.34493">
        <ele>1127</ele>
      </trkpt>
      <trkpt lat="44.69256" lon="5.34549">
        <ele>1134.7</ele>
      </trkpt>
      <trkpt lat="44.69274" lon="5.34575">
        <ele>1137.3</ele>
      </trkpt>
      <trkpt lat="44.69305" lon="5.34578">
        <ele>1133</ele>
      </trkpt>
      <trkpt lat="44.69336" lon="5.34602">
        <ele>1130.8</ele>
      </trkpt>
      <trkpt lat="44.69368" lon="5.34648">
        <ele>1134.7</ele>
      </trkpt>
      <trkpt lat="44.69391" lon="5.34693">
        <ele>1137.4</ele>
      </trkpt>
      <trkpt lat="44.69402" lon="5.34753">
        <ele>1140.2</ele>
      </trkpt>
      <trkpt lat="44.69434" lon="5.34779">
        <ele>1142.8</ele>
      </trkpt>
      <trkpt lat="44.69468" lon="5.34818">
        <ele>1148.2</ele>
      </trkpt>
      <trkpt lat="44.69497" lon="5.34852">
        <ele>1151.8</ele>
      </trkpt>
      <trkpt lat="44.69526" lon="5.34894">
        <ele>1154</ele>
      </trkpt>
      <trkpt lat="44.69544" lon="5.34902">
        <ele>1153.3</ele>
      </trkpt>
      <trkpt lat="44.69552" lon="5.34881">
        <ele>1151.5</ele>
      </trkpt>
      <trkpt lat="44.69559" lon="5.34843">
        <ele>1149.1</ele>
      </trkpt>
      <trkpt lat="44.69568" lon="5.34806">
        <ele>1147.2</ele>
      </trkpt>
      <trkpt lat="44.6958" lon="5.34755">
        <ele>1145.2</ele>
      </trkpt>
      <trkpt lat="44.69579" lon="5.34714">
        <ele>1142.4</ele>
      </trkpt>
      <trkpt lat="44.69568" lon="5.34675">
        <ele>1140.1</ele>
      </trkpt>
      <trkpt lat="44.69556" lon="5.3463">
        <ele>1137.2</ele>
      </trkpt>
      <trkpt lat="44.69561" lon="5.34603">
        <ele>1134.7</ele>
      </trkpt>
      <trkpt lat="44.69581" lon="5.34607">
        <ele>1133.4</ele>
      </trkpt>
      <trkpt lat="44.6961" lon="5.34637">
        <ele>1130.1</ele>
      </trkpt>
      <trkpt lat="44.69647" lon="5.34664">
        <ele>1123.5</ele>
      </trkpt>
      <trkpt lat="44.69683" lon="5.34691">
        <ele>1112.9</ele>
      </trkpt>
      <trkpt lat="44.69719" lon="5.34732">
        <ele>1100.8</ele>
      </trkpt>
      <trkpt lat="44.69735" lon="5.34796">
        <ele>1100.3</ele>
      </trkpt>
      <trkpt lat="44.6975" lon="5.34851">
        <ele>1103.7</ele>
      </trkpt>
      <trkpt lat="44.6976" lon="5.34901">
        <ele>1112.6</ele>
      </trkpt>
      <trkpt lat="44.69774" lon="5.34951">
        <ele>1122.1</ele>
      </trkpt>
      <trkpt lat="44.6979" lon="5.34984">
        <ele>1128.8</ele>
      </trkpt>
      <trkpt lat="44.69801" lon="5.34955">
        <ele>1125.8</ele>
      </trkpt>
      <trkpt lat="44.69814" lon="5.34916">
        <ele>1121.5</ele>
      </trkpt>
      <trkpt lat="44.69825" lon="5.34896">
        <ele>1119.8</ele>
      </trkpt>
      <trkpt lat="44.69833" lon="5.34857">
        <ele>1114.6</ele>
      </trkpt>
      <trkpt lat="44.69847" lon="5.34807">
        <ele>1108.4</ele>
      </trkpt>
      <trkpt lat="44.69873" lon="5.348">
        <ele>1111.2</ele>
      </trkpt>
      <trkpt lat="44.69899" lon="5.34808">
        <ele>1116.3</ele>
      </trkpt>
      <trkpt lat="44.69917" lon="5.34788">
        <ele>1115.8</ele>
      </trkpt>
      <trkpt lat="44.69929" lon="5.34742">
        <ele>1106.6</ele>
      </trkpt>
      <trkpt lat="44.69942" lon="5.34694">
        <ele>1096.7</ele>
      </trkpt>
      <trkpt lat="44.69963" lon="5.34655">
        <ele>1086.4</ele>
      </trkpt>
      <trkpt lat="44.6999" lon="5.34633">
        <ele>1077.9</ele>
      </trkpt>
      <trkpt lat="44.70023" lon="5.34627">
        <ele>1073.3</ele>
      </trkpt>
      <trkpt lat="44.70055" lon="5.34633">
        <ele>1071.1</ele>
      </trkpt>
      <trkpt lat="44.70077" lon="5.34643">
        <ele>1069.6</ele>
      </trkpt>
      <trkpt lat="44.70099" lon="5.34674">
        <ele>1074.2</ele>
      </trkpt>
      <trkpt lat="44.70125" lon="5.34698">
        <ele>1081.2</ele>
      </trkpt>
      <trkpt lat="44.70148" lon="5.34731">
        <ele>1087.2</ele>
      </trkpt>
      <trkpt lat="44.70177" lon="5.3476">
        <ele>1093.6</ele>
      </trkpt>
      <trkpt lat="44.70203" lon="5.34791">
        <ele>1100</ele>
      </trkpt>
      <trkpt lat="44.70216" lon="5.34821">
        <ele>1102.6</ele>
      </trkpt>
      <trkpt lat="44.70239" lon="5.34822">
        <ele>1108.5</ele>
      </trkpt>
      <trkpt lat="44.70247" lon="5.34806">
        <ele>1110.9</ele>
      </trkpt>
      <trkpt lat="44.70245" lon="5.34763">
        <ele>1111.3</ele>
      </trkpt>
      <trkpt lat="44.70238" lon="5.34718">
        <ele>1105.8</ele>
      </trkpt>
      <trkpt lat="44.70228" lon="5.34674">
        <ele>1098.8</ele>
      </trkpt>
      <trkpt lat="44.70229" lon="5.34633">
        <ele>1093.2</ele>
      </trkpt>
      <trkpt lat="44.70248" lon="5.34609">
        <ele>1091.9</ele>
      </trkpt>
      <trkpt lat="44.70275" lon="5.34592">
        <ele>1090.4</ele>
      </trkpt>
      <trkpt lat="44.70297" lon="5.34578">
        <ele>1090.7</ele>
      </trkpt>
      <trkpt lat="44.70325" lon="5.34559">
        <ele>1093.8</ele>
      </trkpt>
      <trkpt lat="44.70361" lon="5.34558">
        <ele>1098.1</ele>
      </trkpt>
      <trkpt lat="44.70388" lon="5.34568">
        <ele>1100.5</ele>
      </trkpt>
      <trkpt lat="44.70413" lon="5.3454">
        <ele>1107.3</ele>
      </trkpt>
      <trkpt lat="44.70399" lon="5.34517">
        <ele>1108.2</ele>
      </trkpt>
      <trkpt lat="44.70373" lon="5.34499">
        <ele>1106.3</ele>
      </trkpt>
      <trkpt lat="44.70335" lon="5.34481">
        <ele>1103.3</ele>
      </trkpt>
      <trkpt lat="44.7031" lon="5.34453">
        <ele>1104.2</ele>
      </trkpt>
      <trkpt lat="44.70287" lon="5.34444">
        <ele>1102.4</ele>
      </trkpt>
      <trkpt lat="44.70293" lon="5.34419">
        <ele>1106.9</ele>
      </trkpt>
      <trkpt lat="44.70305" lon="5.3439">
        <ele>1109.2</ele>
      </trkpt>
      <trkpt lat="44.70325" lon="5.34363">
        <ele>1112.5</ele>
      </trkpt>
      <trkpt lat="44.70361" lon="5.34356">
        <ele>1115.7</ele>
      </trkpt>
      <trkpt lat="44.70396" lon="5.34344">
        <ele>1117.9</ele>
      </trkpt>
      <trkpt lat="44.70432" lon="5.34321">
        <ele>1115.7</ele>
      </trkpt>
      <trkpt lat="44.70464" lon="5.34309">
        <ele>1113.5</ele>
      </trkpt>
      <trkpt lat="44.70503" lon="5.34299">
        <ele>1112.5</ele>
      </trkpt>
      <trkpt lat="44.70555" lon="5.343">
        <ele>1117.4</ele>
      </trkpt>
      <trkpt lat="44.70606" lon="5.34304">
        <ele>1123.4</ele>
      </trkpt>
      <trkpt lat="44.70656" lon="5.34305">
        <ele>1130</ele>
      </trkpt>
      <trkpt lat="44.70706" lon="5.34303">
        <ele>1135</ele>
      </trkpt>
      <trkpt lat="44.70761" lon="5.34291">
        <ele>1137.2</ele>
      </trkpt>
      <trkpt lat="44.70809" lon="5.34274">
        <ele>1130.1</ele>
      </trkpt>
      <trkpt lat="44.70842" lon="5.34272">
        <ele>1128.2</ele>
      </trkpt>
      <trkpt lat="44.70868" lon="5.34288">
        <ele>1134.4</ele>
      </trkpt>
      <trkpt lat="44.70889" lon="5.34322">
        <ele>1140.6</ele>
      </trkpt>
      <trkpt lat="44.7091" lon="5.34351">
        <ele>1145.4</ele>
      </trkpt>
      <trkpt lat="44.70931" lon="5.3438">
        <ele>1151.5</ele>
      </trkpt>
      <trkpt lat="44.70951" lon="5.34392">
        <ele>1156.9</ele>
      </trkpt>
      <trkpt lat="44.70978" lon="5.34399">
        <ele>1163.2</ele>
      </trkpt>
      <trkpt lat="44.70982" lon="5.34375">
        <ele>1165.3</ele>
      </trkpt>
      <trkpt lat="44.7098" lon="5.3434">
        <ele>1166</ele>
      </trkpt>
      <trkpt lat="44.70973" lon="5.34299">
        <ele>1161.2</ele>
      </trkpt>
      <trkpt lat="44.70969" lon="5.34256">
        <ele>1156.3</ele>
      </trkpt>
      <trkpt lat="44.70969" lon="5.34231">
        <ele>1155.9</ele>
      </trkpt>
      <trkpt lat="44.70977" lon="5.34192">
        <ele>1158.1</ele>
      </trkpt>
      <trkpt lat="44.70965" lon="5.34162">
        <ele>1153.8</ele>
      </trkpt>
      <trkpt lat="44.70958" lon="5.34139">
        <ele>1150.7</ele>
      </trkpt>
      <trkpt lat="44.70959" lon="5.34102">
        <ele>1150.2</ele>
      </trkpt>
      <trkpt lat="44.7096" lon="5.3405">
        <ele>1148.4</ele>
      </trkpt>
      <trkpt lat="44.70964" lon="5.34005">
        <ele>1147.4</ele>
      </trkpt>
      <trkpt lat="44.70969" lon="5.33954">
        <ele>1147</ele>
      </trkpt>
      <trkpt lat="44.70979" lon="5.33907">
        <ele>1148.6</ele>
      </trkpt>
      <trkpt lat="44.70987" lon="5.3386">
        <ele>1148.4</ele>
      </trkpt>
      <trkpt lat="44.7099" lon="5.33821">
        <ele>1146.3</ele>
      </trkpt>
      <trkpt lat="44.70997" lon="5.33769">
        <ele>1141.8</ele>
      </trkpt>
      <trkpt lat="44.7101" lon="5.33721">
        <ele>1128.1</ele>
      </trkpt>
      <trkpt lat="44.71029" lon="5.33784">
        <ele>1133.8</ele>
      </trkpt>
      <trkpt lat="44.71039" lon="5.3385">
        <ele>1144</ele>
      </trkpt>
      <trkpt lat="44.71051" lon="5.33899">
        <ele>1150.3</ele>
      </trkpt>
      <trkpt lat="44.71064" lon="5.33966">
        <ele>1160.6</ele>
      </trkpt>
      <trkpt lat="44.71074" lon="5.34028">
        <ele>1171.1</ele>
      </trkpt>
      <trkpt lat="44.71082" lon="5.34081">
        <ele>1180.3</ele>
      </trkpt>
      <trkpt lat="44.71081" lon="5.34132">
        <ele>1185.2</ele>
      </trkpt>
      <trkpt lat="44.71083" lon="5.34161">
        <ele>1188.4</ele>
      </trkpt>
      <trkpt lat="44.71112" lon="5.34184">
        <ele>1194.6</ele>
      </trkpt>
      <trkpt lat="44.71141" lon="5.3421">
        <ele>1202.9</ele>
      </trkpt>
      <trkpt lat="44.7115" lon="5.34229">
        <ele>1207.4</ele>
      </trkpt>
      <trkpt lat="44.71141" lon="5.34253">
        <ele>1207.7</ele>
      </trkpt>
      <trkpt lat="44.71125" lon="5.3429">
        <ele>1203</ele>
      </trkpt>
      <trkpt lat="44.71114" lon="5.34319">
        <ele>1200.4</ele>
      </trkpt>
      <trkpt lat="44.71115" lon="5.34349">
        <ele>1199.3</ele>
      </trkpt>
      <trkpt lat="44.71128" lon="5.34371">
        <ele>1200.5</ele>
      </trkpt>
      <trkpt lat="44.71158" lon="5.34392">
        <ele>1206.4</ele>
      </trkpt>
      <trkpt lat="44.71191" lon="5.34412">
        <ele>1213.7</ele>
      </trkpt>
      <trkpt lat="44.7122" lon="5.34435">
        <ele>1220</ele>
      </trkpt>
      <trkpt lat="44.71217" lon="5.34466">
        <ele>1217.8</ele>
      </trkpt>
      <trkpt lat="44.71205" lon="5.3451">
        <ele>1214.4</ele>
      </trkpt>
      <trkpt lat="44.71192" lon="5.34555">
        <ele>1214.2</ele>
      </trkpt>
      <trkpt lat="44.7117" lon="5.3459">
        <ele>1219.3</ele>
      </trkpt>
      <trkpt lat="44.71146" lon="5.34617">
        <ele>1220</ele>
      </trkpt>
      <trkpt lat="44.7112" lon="5.3466">
        <ele>1221.7</ele>
      </trkpt>
      <trkpt lat="44.71162" lon="5.3464">
        <ele>1226.3</ele>
      </trkpt>
      <trkpt lat="44.71204" lon="5.34612">
        <ele>1213.5</ele>
      </trkpt>
      <trkpt lat="44.71237" lon="5.34593">
        <ele>1206.4</ele>
      </trkpt>
      <trkpt lat="44.7127" lon="5.34559">
        <ele>1198.1</ele>
      </trkpt>
      <trkpt lat="44.71301" lon="5.34521">
        <ele>1191.6</ele>
      </trkpt>
      <trkpt lat="44.71323" lon="5.34511">
        <ele>1183.9</ele>
      </trkpt>
      <trkpt lat="44.71346" lon="5.3452">
        <ele>1169.7</ele>
      </trkpt>
      <trkpt lat="44.71366" lon="5.34535">
        <ele>1155</ele>
      </trkpt>
      <trkpt lat="44.71347" lon="5.34557">
        <ele>1156.3</ele>
      </trkpt>
      <trkpt lat="44.71334" lon="5.34589">
        <ele>1152.4</ele>
      </trkpt>
      <trkpt lat="44.71357" lon="5.3458">
        <ele>1143.3</ele>
      </trkpt>
      <trkpt lat="44.71344" lon="5.34642">
        <ele>1134.4</ele>
      </trkpt>
      <trkpt lat="44.71366" lon="5.34626">
        <ele>1126.2</ele>
      </trkpt>
      <trkpt lat="44.71386" lon="5.34594">
        <ele>1123.7</ele>
      </trkpt>
      <trkpt lat="44.71404" lon="5.34556">
        <ele>1127.5</ele>
      </trkpt>
      <trkpt lat="44.71423" lon="5.34531">
        <ele>1128.3</ele>
      </trkpt>
      <trkpt lat="44.71447" lon="5.34503">
        <ele>1128.9</ele>
      </trkpt>
      <trkpt lat="44.71478" lon="5.34483">
        <ele>1123.4</ele>
      </trkpt>
      <trkpt lat="44.71511" lon="5.34461">
        <ele>1114.8</ele>
      </trkpt>
      <trkpt lat="44.7154" lon="5.34427">
        <ele>1109.1</ele>
      </trkpt>
      <trkpt lat="44.71569" lon="5.34391">
        <ele>1100.6</ele>
      </trkpt>
      <trkpt lat="44.71597" lon="5.34358">
        <ele>1092.5</ele>
      </trkpt>
      <trkpt lat="44.7162" lon="5.34327">
        <ele>1089.3</ele>
      </trkpt>
      <trkpt lat="44.71644" lon="5.3429">
        <ele>1089.4</ele>
      </trkpt>
      <trkpt lat="44.71667" lon="5.34248">
        <ele>1093.5</ele>
      </trkpt>
      <trkpt lat="44.71692" lon="5.34214">
        <ele>1102.8</ele>
      </trkpt>
      <trkpt lat="44.71722" lon="5.34198">
        <ele>1110.2</ele>
      </trkpt>
      <trkpt lat="44.71749" lon="5.34193">
        <ele>1115.2</ele>
      </trkpt>
      <trkpt lat="44.71775" lon="5.34206">
        <ele>1105.8</ele>
      </trkpt>
      <trkpt lat="44.71804" lon="5.34224">
        <ele>1096.9</ele>
      </trkpt>
      <trkpt lat="44.71834" lon="5.3423">
        <ele>1091.8</ele>
      </trkpt>
      <trkpt lat="44.71855" lon="5.34255">
        <ele>1083.8</ele>
      </trkpt>
      <trkpt lat="44.71876" lon="5.34287">
        <ele>1074.8</ele>
      </trkpt>
      <trkpt lat="44.71895" lon="5.34262">
        <ele>1073.8</ele>
      </trkpt>
      <trkpt lat="44.71914" lon="5.34227">
        <ele>1073.9</ele>
      </trkpt>
      <trkpt lat="44.71929" lon="5.34208">
        <ele>1074</ele>
      </trkpt>
      <trkpt lat="44.71954" lon="5.34206">
        <ele>1069.7</ele>
      </trkpt>
      <trkpt lat="44.71983" lon="5.34197">
        <ele>1065.2</ele>
      </trkpt>
      <trkpt lat="44.72008" lon="5.3418">
        <ele>1063.3</ele>
      </trkpt>
      <trkpt lat="44.7203" lon="5.34156">
        <ele>1065.8</ele>
      </trkpt>
      <trkpt lat="44.72053" lon="5.34148">
        <ele>1066.2</ele>
      </trkpt>
      <trkpt lat="44.72083" lon="5.34151">
        <ele>1063.5</ele>
      </trkpt>
      <trkpt lat="44.72114" lon="5.34169">
        <ele>1053.9</ele>
      </trkpt>
      <trkpt lat="44.72146" lon="5.34192">
        <ele>1044.2</ele>
      </trkpt>
      <trkpt lat="44.72169" lon="5.34234">
        <ele>1036.6</ele>
      </trkpt>
      <trkpt lat="44.72188" lon="5.34282">
        <ele>1029.8</ele>
      </trkpt>
      <trkpt lat="44.72206" lon="5.34337">
        <ele>1025.9</ele>
      </trkpt>
      <trkpt lat="44.72224" lon="5.34379">
        <ele>1021.8</ele>
      </trkpt>
      <trkpt lat="44.72245" lon="5.3443">
        <ele>1019.2</ele>
      </trkpt>
      <trkpt lat="44.72271" lon="5.34463">
        <ele>1012.8</ele>
      </trkpt>
      <trkpt lat="44.723" lon="5.34491">
        <ele>1004.7</ele>
      </trkpt>
      <trkpt lat="44.72329" lon="5.34514">
        <ele>997.9</ele>
      </trkpt>
      <trkpt lat="44.72357" lon="5.34542">
        <ele>995.9</ele>
      </trkpt>
      <trkpt lat="44.72381" lon="5.34586">
        <ele>998.2</ele>
      </trkpt>
      <trkpt lat="44.72399" lon="5.34644">
        <ele>1001.5</ele>
      </trkpt>
      <trkpt lat="44.72408" lon="5.3466">
        <ele>1002.2</ele>
      </trkpt>
      <trkpt lat="44.72425" lon="5.34665">
        <ele>1000.1</ele>
      </trkpt>
      <trkpt lat="44.72449" lon="5.34691">
        <ele>995.7</ele>
      </trkpt>
      <trkpt lat="44.72475" lon="5.34713">
        <ele>990.5</ele>
      </trkpt>
      <trkpt lat="44.72494" lon="5.34743">
        <ele>986.3</ele>
      </trkpt>
      <trkpt lat="44.72511" lon="5.34779">
        <ele>985.4</ele>
      </trkpt>
      <trkpt lat="44.72524" lon="5.34809">
        <ele>985.8</ele>
      </trkpt>
      <trkpt lat="44.72545" lon="5.34835">
        <ele>985</ele>
      </trkpt>
      <trkpt lat="44.72569" lon="5.34861">
        <ele>986.7</ele>
      </trkpt>
      <trkpt lat="44.72592" lon="5.34896">
        <ele>991.8</ele>
      </trkpt>
      <trkpt lat="44.72607" lon="5.34915">
        <ele>993.8</ele>
      </trkpt>
      <trkpt lat="44.72631" lon="5.34926">
        <ele>992.2</ele>
      </trkpt>
      <trkpt lat="44.72647" lon="5.34951">
        <ele>995.8</ele>
      </trkpt>
      <trkpt lat="44.72653" lon="5.34983">
        <ele>1004.1</ele>
      </trkpt>
      <trkpt lat="44.72656" lon="5.35023">
        <ele>1013</ele>
      </trkpt>
      <trkpt lat="44.72668" lon="5.35053">
        <ele>1020.1</ele>
      </trkpt>
      <trkpt lat="44.72689" lon="5.35083">
        <ele>1024.4</ele>
      </trkpt>
      <trkpt lat="44.72705" lon="5.35115">
        <ele>1029</ele>
      </trkpt>
      <trkpt lat="44.72711" lon="5.35148">
        <ele>1036.4</ele>
      </trkpt>
      <trkpt lat="44.72716" lon="5.35186">
        <ele>1043.7</ele>
      </trkpt>
      <trkpt lat="44.72727" lon="5.35225">
        <ele>1051.6</ele>
      </trkpt>
      <trkpt lat="44.72741" lon="5.35257">
        <ele>1061.3</ele>
      </trkpt>
      <trkpt lat="44.72743" lon="5.35296">
        <ele>1061.8</ele>
      </trkpt>
      <trkpt lat="44.72743" lon="5.35333">
        <ele>1061.4</ele>
      </trkpt>
      <trkpt lat="44.72734" lon="5.35366">
        <ele>1049.2</ele>
      </trkpt>
      <trkpt lat="44.72723" lon="5.35401">
        <ele>1036.6</ele>
      </trkpt>
      <trkpt lat="44.72725" lon="5.35436">
        <ele>1028.4</ele>
      </trkpt>
      <trkpt lat="44.72737" lon="5.35467">
        <ele>1022.5</ele>
      </trkpt>
      <trkpt lat="44.72758" lon="5.35477">
        <ele>1023.7</ele>
      </trkpt>
      <trkpt lat="44.72787" lon="5.35485">
        <ele>1027.9</ele>
      </trkpt>
      <trkpt lat="44.72821" lon="5.35496">
        <ele>1032.3</ele>
      </trkpt>
      <trkpt lat="44.72854" lon="5.35509">
        <ele>1036.2</ele>
      </trkpt>
      <trkpt lat="44.72869" lon="5.35534">
        <ele>1032.3</ele>
      </trkpt>
      <trkpt lat="44.72881" lon="5.35573">
        <ele>1024</ele>
      </trkpt>
      <trkpt lat="44.72897" lon="5.356">
        <ele>1020.6</ele>
      </trkpt>
      <trkpt lat="44.7292" lon="5.35607">
        <ele>1022</ele>
      </trkpt>
      <trkpt lat="44.7292" lon="5.35638">
        <ele>1015.6</ele>
      </trkpt>
      <trkpt lat="44.72932" lon="5.35667">
        <ele>1010.2</ele>
      </trkpt>
      <trkpt lat="44.72947" lon="5.35695">
        <ele>1003.8</ele>
      </trkpt>
      <trkpt lat="44.72971" lon="5.35716">
        <ele>999.5</ele>
      </trkpt>
      <trkpt lat="44.72997" lon="5.3572">
        <ele>1000.2</ele>
      </trkpt>
      <trkpt lat="44.73025" lon="5.35717">
        <ele>1006.4</ele>
      </trkpt>
      <trkpt lat="44.73031" lon="5.35695">
        <ele>1012</ele>
      </trkpt>
      <trkpt lat="44.73038" lon="5.35674">
        <ele>1017.2</ele>
      </trkpt>
      <trkpt lat="44.73058" lon="5.35667">
        <ele>1022.1</ele>
      </trkpt>
      <trkpt lat="44.73078" lon="5.35664">
        <ele>1026.8</ele>
      </trkpt>
      <trkpt lat="44.73086" lon="5.35643">
        <ele>1035.3</ele>
      </trkpt>
      <trkpt lat="44.73104" lon="5.35635">
        <ele>1041</ele>
      </trkpt>
      <trkpt lat="44.73126" lon="5.35642">
        <ele>1042.5</ele>
      </trkpt>
      <trkpt lat="44.73141" lon="5.35668">
        <ele>1038.1</ele>
      </trkpt>
      <trkpt lat="44.73155" lon="5.35705">
        <ele>1033</ele>
      </trkpt>
      <trkpt lat="44.73167" lon="5.35744">
        <ele>1026.4</ele>
      </trkpt>
      <trkpt lat="44.73182" lon="5.3578">
        <ele>1017.9</ele>
      </trkpt>
      <trkpt lat="44.73196" lon="5.35819">
        <ele>1009.6</ele>
      </trkpt>
      <trkpt lat="44.73215" lon="5.35843">
        <ele>1004.2</ele>
      </trkpt>
      <trkpt lat="44.73245" lon="5.35851">
        <ele>1002</ele>
      </trkpt>
      <trkpt lat="44.73275" lon="5.35848">
        <ele>999.1</ele>
      </trkpt>
      <trkpt lat="44.73303" lon="5.35856">
        <ele>994.4</ele>
      </trkpt>
      <trkpt lat="44.73334" lon="5.35874">
        <ele>989.4</ele>
      </trkpt>
      <trkpt lat="44.73364" lon="5.35885">
        <ele>982.9</ele>
      </trkpt>
      <trkpt lat="44.73381" lon="5.35856">
        <ele>980.6</ele>
      </trkpt>
      <trkpt lat="44.73382" lon="5.35891">
        <ele>978.8</ele>
      </trkpt>
      <trkpt lat="44.73379" lon="5.35928">
        <ele>974.4</ele>
      </trkpt>
      <trkpt lat="44.73366" lon="5.35946">
        <ele>971.8</ele>
      </trkpt>
      <trkpt lat="44.73342" lon="5.35943">
        <ele>977.6</ele>
      </trkpt>
      <trkpt lat="44.73315" lon="5.35932">
        <ele>983.4</ele>
      </trkpt>
      <trkpt lat="44.73291" lon="5.35933">
        <ele>983.8</ele>
      </trkpt>
      <trkpt lat="44.73257" lon="5.35926">
        <ele>987.3</ele>
      </trkpt>
      <trkpt lat="44.73213" lon="5.35925">
        <ele>985</ele>
      </trkpt>
      <trkpt lat="44.73249" lon="5.35939">
        <ele>983.1</ele>
      </trkpt>
      <trkpt lat="44.73274" lon="5.35946">
        <ele>980.4</ele>
      </trkpt>
      <trkpt lat="44.73296" lon="5.35956">
        <ele>976.7</ele>
      </trkpt>
      <trkpt lat="44.73274" lon="5.35969">
        <ele>973.2</ele>
      </trkpt>
      <trkpt lat="44.73237" lon="5.35967">
        <ele>973.8</ele>
      </trkpt>
      <trkpt lat="44.73202" lon="5.35961">
        <ele>973.4</ele>
      </trkpt>
      <trkpt lat="44.73182" lon="5.35972">
        <ele>969.1</ele>
      </trkpt>
      <trkpt lat="44.73215" lon="5.3599">
        <ele>965.5</ele>
      </trkpt>
      <trkpt lat="44.73249" lon="5.36009">
        <ele>961.7</ele>
      </trkpt>
      <trkpt lat="44.73282" lon="5.36036">
        <ele>950.6</ele>
      </trkpt>
      <trkpt lat="44.73294" lon="5.36051">
        <ele>943.6</ele>
      </trkpt>
      <trkpt lat="44.73294" lon="5.36081">
        <ele>931</ele>
      </trkpt>
      <trkpt lat="44.73295" lon="5.36125">
        <ele>920.2</ele>
      </trkpt>
      <trkpt lat="44.73299" lon="5.36172">
        <ele>907.7</ele>
      </trkpt>
      <trkpt lat="44.73285" lon="5.36199">
        <ele>906.4</ele>
      </trkpt>
      <trkpt lat="44.73263" lon="5.36225">
        <ele>910.5</ele>
      </trkpt>
      <trkpt lat="44.73246" lon="5.36255">
        <ele>913.1</ele>
      </trkpt>
      <trkpt lat="44.73224" lon="5.36279">
        <ele>920.6</ele>
      </trkpt>
      <trkpt lat="44.73194" lon="5.36298">
        <ele>933.6</ele>
      </trkpt>
      <trkpt lat="44.73158" lon="5.36313">
        <ele>947.5</ele>
      </trkpt>
      <trkpt lat="44.73118" lon="5.36323">
        <ele>953.7</ele>
      </trkpt>
      <trkpt lat="44.73078" lon="5.36328">
        <ele>959.6</ele>
      </trkpt>
      <trkpt lat="44.73043" lon="5.36339">
        <ele>962.6</ele>
      </trkpt>
      <trkpt lat="44.73015" lon="5.36353">
        <ele>968.1</ele>
      </trkpt>
      <trkpt lat="44.72976" lon="5.36358">
        <ele>969.1</ele>
      </trkpt>
      <trkpt lat="44.72935" lon="5.36365">
        <ele>970.9</ele>
      </trkpt>
      <trkpt lat="44.72895" lon="5.36367">
        <ele>970.8</ele>
      </trkpt>
      <trkpt lat="44.72854" lon="5.3637">
        <ele>970.6</ele>
      </trkpt>
      <trkpt lat="44.72839" lon="5.36361">
        <ele>965.6</ele>
      </trkpt>
      <trkpt lat="44.72827" lon="5.3634">
        <ele>954.8</ele>
      </trkpt>
      <trkpt lat="44.72811" lon="5.36345">
        <ele>955.9</ele>
      </trkpt>
      <trkpt lat="44.7281" lon="5.36371">
        <ele>966.3</ele>
      </trkpt>
      <trkpt lat="44.7281" lon="5.36409">
        <ele>982.8</ele>
      </trkpt>
      <trkpt lat="44.72816" lon="5.36448">
        <ele>993.5</ele>
      </trkpt>
      <trkpt lat="44.72819" lon="5.36484">
        <ele>1001.5</ele>
      </trkpt>
      <trkpt lat="44.72813" lon="5.36533">
        <ele>1002.4</ele>
      </trkpt>
      <trkpt lat="44.72803" lon="5.36575">
        <ele>998.9</ele>
      </trkpt>
      <trkpt lat="44.72788" lon="5.36617">
        <ele>995.1</ele>
      </trkpt>
      <trkpt lat="44.72759" lon="5.36644">
        <ele>989.1</ele>
      </trkpt>
      <trkpt lat="44.7273" lon="5.36664">
        <ele>981.4</ele>
      </trkpt>
      <trkpt lat="44.72699" lon="5.36685">
        <ele>973.1</ele>
      </trkpt>
      <trkpt lat="44.72671" lon="5.36708">
        <ele>968.2</ele>
      </trkpt>
      <trkpt lat="44.72664" lon="5.36733">
        <ele>971.5</ele>
      </trkpt>
      <trkpt lat="44.72667" lon="5.3676">
        <ele>974</ele>
      </trkpt>
      <trkpt lat="44.72685" lon="5.36788">
        <ele>969.4</ele>
      </trkpt>
      <trkpt lat="44.72704" lon="5.36815">
        <ele>963.9</ele>
      </trkpt>
      <trkpt lat="44.72725" lon="5.36843">
        <ele>957.5</ele>
      </trkpt>
      <trkpt lat="44.72746" lon="5.36878">
        <ele>946.3</ele>
      </trkpt>
      <trkpt lat="44.72767" lon="5.36916">
        <ele>925.9</ele>
      </trkpt>
      <trkpt lat="44.72791" lon="5.36942">
        <ele>911.6</ele>
      </trkpt>
      <trkpt lat="44.72824" lon="5.36942">
        <ele>902.4</ele>
      </trkpt>
      <trkpt lat="44.72863" lon="5.36932">
        <ele>891.4</ele>
      </trkpt>
      <trkpt lat="44.72901" lon="5.36913">
        <ele>881.7</ele>
      </trkpt>
      <trkpt lat="44.72934" lon="5.36893">
        <ele>872.4</ele>
      </trkpt>
      <trkpt lat="44.72949" lon="5.36874">
        <ele>869.4</ele>
      </trkpt>
      <trkpt lat="44.72979" lon="5.36865">
        <ele>854.5</ele>
      </trkpt>
      <trkpt lat="44.7296" lon="5.36889">
        <ele>858.8</ele>
      </trkpt>
      <trkpt lat="44.72941" lon="5.36914">
        <ele>861.7</ele>
      </trkpt>
      <trkpt lat="44.72932" lon="5.36944">
        <ele>859.3</ele>
      </trkpt>
      <trkpt lat="44.72908" lon="5.36974">
        <ele>863.6</ele>
      </trkpt>
      <trkpt lat="44.72888" lon="5.37">
        <ele>864.1</ele>
      </trkpt>
      <trkpt lat="44.72884" lon="5.37026">
        <ele>863.3</ele>
      </trkpt>
      <trkpt lat="44.72871" lon="5.37031">
        <ele>867.1</ele>
      </trkpt>
      <trkpt lat="44.72869" lon="5.37064">
        <ele>864.3</ele>
      </trkpt>
      <trkpt lat="44.72868" lon="5.37118">
        <ele>870.6</ele>
      </trkpt>
      <trkpt lat="44.72889" lon="5.37085">
        <ele>858</ele>
      </trkpt>
      <trkpt lat="44.7291" lon="5.37054">
        <ele>853.9</ele>
      </trkpt>
      <trkpt lat="44.72933" lon="5.3703">
        <ele>846.1</ele>
      </trkpt>
      <trkpt lat="44.7296" lon="5.37007">
        <ele>833.5</ele>
      </trkpt>
      <trkpt lat="44.72977" lon="5.3699">
        <ele>826.8</ele>
      </trkpt>
      <trkpt lat="44.72994" lon="5.36964">
        <ele>822.9</ele>
      </trkpt>
      <trkpt lat="44.73019" lon="5.36951">
        <ele>813.4</ele>
      </trkpt>
      <trkpt lat="44.73014" lon="5.36985">
        <ele>810.2</ele>
      </trkpt>
      <trkpt lat="44.73013" lon="5.37026">
        <ele>811.5</ele>
      </trkpt>
      <trkpt lat="44.73001" lon="5.37055">
        <ele>819.3</ele>
      </trkpt>
      <trkpt lat="44.7301" lon="5.37066">
        <ele>817.4</ele>
      </trkpt>
      <trkpt lat="44.73021" lon="5.37041">
        <ele>810.5</ele>
      </trkpt>
      <trkpt lat="44.73029" lon="5.37009">
        <ele>802.5</ele>
      </trkpt>
      <trkpt lat="44.73043" lon="5.36972">
        <ele>799.9</ele>
      </trkpt>
      <trkpt lat="44.7306" lon="5.36936">
        <ele>797.7</ele>
      </trkpt>
      <trkpt lat="44.7307" lon="5.36915">
        <ele>796.3</ele>
      </trkpt>
      <trkpt lat="44.7309" lon="5.36901">
        <ele>790.2</ele>
      </trkpt>
      <trkpt lat="44.73077" lon="5.36932">
        <ele>790.8</ele>
      </trkpt>
      <trkpt lat="44.73067" lon="5.36964">
        <ele>790.5</ele>
      </trkpt>
      <trkpt lat="44.7306" lon="5.3702">
        <ele>791.7</ele>
      </trkpt>
      <trkpt lat="44.73074" lon="5.36996">
        <ele>782.7</ele>
      </trkpt>
      <trkpt lat="44.73093" lon="5.36973">
        <ele>778</ele>
      </trkpt>
      <trkpt lat="44.7312" lon="5.36948">
        <ele>769.7</ele>
      </trkpt>
      <trkpt lat="44.73152" lon="5.36915">
        <ele>759.6</ele>
      </trkpt>
      <trkpt lat="44.73178" lon="5.36892">
        <ele>754.1</ele>
      </trkpt>
      <trkpt lat="44.732" lon="5.36855">
        <ele>754.3</ele>
      </trkpt>
      <trkpt lat="44.73228" lon="5.36824">
        <ele>749.2</ele>
      </trkpt>
      <trkpt lat="44.73256" lon="5.368">
        <ele>743.2</ele>
      </trkpt>
      <trkpt lat="44.73283" lon="5.3679">
        <ele>735.5</ele>
      </trkpt>
      <trkpt lat="44.73303" lon="5.36762">
        <ele>738.3</ele>
      </trkpt>
      <trkpt lat="44.73302" lon="5.36737">
        <ele>749.7</ele>
      </trkpt>
      <trkpt lat="44.7331" lon="5.36719">
        <ele>756.2</ele>
      </trkpt>
      <trkpt lat="44.73323" lon="5.36697">
        <ele>763.1</ele>
      </trkpt>
      <trkpt lat="44.73348" lon="5.36686">
        <ele>760.5</ele>
      </trkpt>
      <trkpt lat="44.73371" lon="5.36671">
        <ele>759.6</ele>
      </trkpt>
      <trkpt lat="44.73389" lon="5.36649">
        <ele>760.1</ele>
      </trkpt>
      <trkpt lat="44.7341" lon="5.36626">
        <ele>757.1</ele>
      </trkpt>
      <trkpt lat="44.73433" lon="5.36607">
        <ele>748.3</ele>
      </trkpt>
      <trkpt lat="44.73454" lon="5.36579">
        <ele>739.6</ele>
      </trkpt>
      <trkpt lat="44.73467" lon="5.36556">
        <ele>737.5</ele>
      </trkpt>
      <trkpt lat="44.73473" lon="5.36522">
        <ele>742.1</ele>
      </trkpt>
      <trkpt lat="44.7348" lon="5.36481">
        <ele>749.4</ele>
      </trkpt>
      <trkpt lat="44.73492" lon="5.36444">
        <ele>754</ele>
      </trkpt>
      <trkpt lat="44.73503" lon="5.36412">
        <ele>760.2</ele>
      </trkpt>
      <trkpt lat="44.73506" lon="5.36379">
        <ele>769.9</ele>
      </trkpt>
      <trkpt lat="44.73501" lon="5.36351">
        <ele>775.9</ele>
      </trkpt>
      <trkpt lat="44.73484" lon="5.36332">
        <ele>785.5</ele>
      </trkpt>
      <trkpt lat="44.73471" lon="5.36319">
        <ele>794.1</ele>
      </trkpt>
      <trkpt lat="44.7349" lon="5.36306">
        <ele>791.9</ele>
      </trkpt>
      <trkpt lat="44.73511" lon="5.3629">
        <ele>795.3</ele>
      </trkpt>
      <trkpt lat="44.73531" lon="5.36267">
        <ele>803.4</ele>
      </trkpt>
      <trkpt lat="44.73555" lon="5.36239">
        <ele>811.8</ele>
      </trkpt>
      <trkpt lat="44.73579" lon="5.36211">
        <ele>818.8</ele>
      </trkpt>
      <trkpt lat="44.73603" lon="5.36195">
        <ele>817.8</ele>
      </trkpt>
      <trkpt lat="44.73622" lon="5.36183">
        <ele>813.5</ele>
      </trkpt>
      <trkpt lat="44.73646" lon="5.36183">
        <ele>806.5</ele>
      </trkpt>
      <trkpt lat="44.73671" lon="5.36176">
        <ele>796.7</ele>
      </trkpt>
      <trkpt lat="44.73663" lon="5.36148">
        <ele>791.8</ele>
      </trkpt>
      <trkpt lat="44.7365" lon="5.36117">
        <ele>790.3</ele>
      </trkpt>
      <trkpt lat="44.73637" lon="5.36084">
        <ele>792</ele>
      </trkpt>
      <trkpt lat="44.73632" lon="5.36051">
        <ele>798.9</ele>
      </trkpt>
      <trkpt lat="44.73629" lon="5.36012">
        <ele>803.6</ele>
      </trkpt>
      <trkpt lat="44.73634" lon="5.35973">
        <ele>812.9</ele>
      </trkpt>
      <trkpt lat="44.73642" lon="5.35929">
        <ele>827.6</ele>
      </trkpt>
      <trkpt lat="44.73659" lon="5.35911">
        <ele>828.4</ele>
      </trkpt>
      <trkpt lat="44.73682" lon="5.35907">
        <ele>818.3</ele>
      </trkpt>
      <trkpt lat="44.73701" lon="5.3588">
        <ele>822.2</ele>
      </trkpt>
      <trkpt lat="44.73722" lon="5.35847">
        <ele>826.8</ele>
      </trkpt>
      <trkpt lat="44.73746" lon="5.35811">
        <ele>828.3</ele>
      </trkpt>
      <trkpt lat="44.73766" lon="5.35766">
        <ele>842.2</ele>
      </trkpt>
      <trkpt lat="44.73788" lon="5.35722">
        <ele>861.6</ele>
      </trkpt>
      <trkpt lat="44.73813" lon="5.35685">
        <ele>879.4</ele>
      </trkpt>
      <trkpt lat="44.7383" lon="5.35668">
        <ele>888.3</ele>
      </trkpt>
      <trkpt lat="44.73855" lon="5.35658">
        <ele>894.4</ele>
      </trkpt>
      <trkpt lat="44.73884" lon="5.3566">
        <ele>893.1</ele>
      </trkpt>
      <trkpt lat="44.73914" lon="5.35665">
        <ele>891.8</ele>
      </trkpt>
      <trkpt lat="44.73946" lon="5.35681">
        <ele>876.1</ele>
      </trkpt>
      <trkpt lat="44.73977" lon="5.35685">
        <ele>866.8</ele>
      </trkpt>
      <trkpt lat="44.74003" lon="5.35683">
        <ele>860</ele>
      </trkpt>
      <trkpt lat="44.7403" lon="5.35666">
        <ele>850.6</ele>
      </trkpt>
      <trkpt lat="44.74047" lon="5.35638">
        <ele>843.1</ele>
      </trkpt>
      <trkpt lat="44.74053" lon="5.35596">
        <ele>840.4</ele>
      </trkpt>
      <trkpt lat="44.74055" lon="5.35547">
        <ele>840.6</ele>
      </trkpt>
      <trkpt lat="44.74051" lon="5.3549">
        <ele>845.3</ele>
      </trkpt>
      <trkpt lat="44.74049" lon="5.35431">
        <ele>850.8</ele>
      </trkpt>
      <trkpt lat="44.74053" lon="5.35391">
        <ele>856.5</ele>
      </trkpt>
      <trkpt lat="44.74063" lon="5.35347">
        <ele>863.4</ele>
      </trkpt>
      <trkpt lat="44.74077" lon="5.35308">
        <ele>868.4</ele>
      </trkpt>
      <trkpt lat="44.74095" lon="5.35274">
        <ele>873.4</ele>
      </trkpt>
      <trkpt lat="44.74111" lon="5.35249">
        <ele>877.2</ele>
      </trkpt>
      <trkpt lat="44.7412" lon="5.35219">
        <ele>887.8</ele>
      </trkpt>
      <trkpt lat="44.74132" lon="5.35194">
        <ele>894.8</ele>
      </trkpt>
      <trkpt lat="44.74157" lon="5.35178">
        <ele>893.5</ele>
      </trkpt>
      <trkpt lat="44.74193" lon="5.35168">
        <ele>894.1</ele>
      </trkpt>
      <trkpt lat="44.74229" lon="5.35161">
        <ele>895.9</ele>
      </trkpt>
      <trkpt lat="44.74272" lon="5.3516">
        <ele>892.7</ele>
      </trkpt>
      <trkpt lat="44.74316" lon="5.35163">
        <ele>887.7</ele>
      </trkpt>
      <trkpt lat="44.74349" lon="5.35183">
        <ele>871.7</ele>
      </trkpt>
      <trkpt lat="44.74375" lon="5.35197">
        <ele>859.1</ele>
      </trkpt>
      <trkpt lat="44.74404" lon="5.35198">
        <ele>854.5</ele>
      </trkpt>
      <trkpt lat="44.74443" lon="5.35203">
        <ele>837.8</ele>
      </trkpt>
      <trkpt lat="44.74479" lon="5.35198">
        <ele>822.7</ele>
      </trkpt>
      <trkpt lat="44.74506" lon="5.35188">
        <ele>812.5</ele>
      </trkpt>
      <trkpt lat="44.74525" lon="5.35162">
        <ele>810.3</ele>
      </trkpt>
      <trkpt lat="44.74548" lon="5.35123">
        <ele>809.8</ele>
      </trkpt>
      <trkpt lat="44.74563" lon="5.35092">
        <ele>810.6</ele>
      </trkpt>
      <trkpt lat="44.74579" lon="5.3506">
        <ele>809.9</ele>
      </trkpt>
      <trkpt lat="44.746" lon="5.35028">
        <ele>806.6</ele>
      </trkpt>
      <trkpt lat="44.74617" lon="5.34994">
        <ele>809.1</ele>
      </trkpt>
      <trkpt lat="44.74643" lon="5.34961">
        <ele>812.7</ele>
      </trkpt>
      <trkpt lat="44.74672" lon="5.34932">
        <ele>816.7</ele>
      </trkpt>
      <trkpt lat="44.74704" lon="5.34917">
        <ele>818.1</ele>
      </trkpt>
      <trkpt lat="44.74738" lon="5.34909">
        <ele>814.1</ele>
      </trkpt>
      <trkpt lat="44.7478" lon="5.34904">
        <ele>805</ele>
      </trkpt>
      <trkpt lat="44.74809" lon="5.34915">
        <ele>792.1</ele>
      </trkpt>
      <trkpt lat="44.74845" lon="5.34925">
        <ele>776.2</ele>
      </trkpt>
      <trkpt lat="44.7488" lon="5.34928">
        <ele>762.4</ele>
      </trkpt>
      <trkpt lat="44.74915" lon="5.34914">
        <ele>754.5</ele>
      </trkpt>
      <trkpt lat="44.74938" lon="5.34895">
        <ele>751.9</ele>
      </trkpt>
      <trkpt lat="44.74954" lon="5.34866">
        <ele>755.1</ele>
      </trkpt>
      <trkpt lat="44.74975" lon="5.34826">
        <ele>759</ele>
      </trkpt>
      <trkpt lat="44.74993" lon="5.34801">
        <ele>756.8</ele>
      </trkpt>
      <trkpt lat="44.7502" lon="5.34776">
        <ele>749.8</ele>
      </trkpt>
      <trkpt lat="44.75043" lon="5.34761">
        <ele>742.1</ele>
      </trkpt>
      <trkpt lat="44.7506" lon="5.3474">
        <ele>736.1</ele>
      </trkpt>
      <trkpt lat="44.75074" lon="5.34709">
        <ele>729.9</ele>
      </trkpt>
      <trkpt lat="44.75079" lon="5.3467">
        <ele>728.4</ele>
      </trkpt>
      <trkpt lat="44.75095" lon="5.34682">
        <ele>719.8</ele>
      </trkpt>
      <trkpt lat="44.75105" lon="5.3472">
        <ele>712.9</ele>
      </trkpt>
      <trkpt lat="44.75095" lon="5.34763">
        <ele>717.5</ele>
      </trkpt>
      <trkpt lat="44.7507" lon="5.34794">
        <ele>726.9</ele>
      </trkpt>
      <trkpt lat="44.75064" lon="5.34825">
        <ele>725.8</ele>
      </trkpt>
      <trkpt lat="44.75053" lon="5.34852">
        <ele>723.8</ele>
      </trkpt>
      <trkpt lat="44.75025" lon="5.34871">
        <ele>728.9</ele>
      </trkpt>
      <trkpt lat="44.75002" lon="5.34889">
        <ele>732.6</ele>
      </trkpt>
      <trkpt lat="44.74997" lon="5.34915">
        <ele>726.9</ele>
      </trkpt>
      <trkpt lat="44.74997" lon="5.34941">
        <ele>716</ele>
      </trkpt>
      <trkpt lat="44.74976" lon="5.34973">
        <ele>710.5</ele>
      </trkpt>
      <trkpt lat="44.7495" lon="5.35025">
        <ele>698.4</ele>
      </trkpt>
      <trkpt lat="44.74989" lon="5.35005">
        <ele>693.7</ele>
      </trkpt>
      <trkpt lat="44.75031" lon="5.34981">
        <ele>688.1</ele>
      </trkpt>
      <trkpt lat="44.75071" lon="5.34981">
        <ele>674</ele>
      </trkpt>
      <trkpt lat="44.7511" lon="5.34963">
        <ele>666.8</ele>
      </trkpt>
      <trkpt lat="44.75124" lon="5.34915">
        <ele>676.7</ele>
      </trkpt>
      <trkpt lat="44.75157" lon="5.3489">
        <ele>664.7</ele>
      </trkpt>
      <trkpt lat="44.7519" lon="5.34868">
        <ele>647.1</ele>
      </trkpt>
      <trkpt lat="44.7521" lon="5.34853">
        <ele>635.6</ele>
      </trkpt>
      <trkpt lat="44.7522" lon="5.34831">
        <ele>630.7</ele>
      </trkpt>
      <trkpt lat="44.75227" lon="5.34807">
        <ele>629.9</ele>
      </trkpt>
      <trkpt lat="44.75232" lon="5.34773">
        <ele>633.8</ele>
      </trkpt>
      <trkpt lat="44.75228" lon="5.34745">
        <ele>640.3</ele>
      </trkpt>
      <trkpt lat="44.75231" lon="5.3472">
        <ele>642.7</ele>
      </trkpt>
      <trkpt lat="44.75238" lon="5.34687">
        <ele>643.7</ele>
      </trkpt>
      <trkpt lat="44.75239" lon="5.34654">
        <ele>646.4</ele>
      </trkpt>
      <trkpt lat="44.75243" lon="5.34634">
        <ele>645.5</ele>
      </trkpt>
      <trkpt lat="44.75256" lon="5.34622">
        <ele>640.4</ele>
      </trkpt>
      <trkpt lat="44.75262" lon="5.34587">
        <ele>639.7</ele>
      </trkpt>
      <trkpt lat="44.75271" lon="5.34554">
        <ele>632.7</ele>
      </trkpt>
      <trkpt lat="44.75281" lon="5.34524">
        <ele>624.9</ele>
      </trkpt>
      <trkpt lat="44.75293" lon="5.34501">
        <ele>616.6</ele>
      </trkpt>
      <trkpt lat="44.75293" lon="5.34472">
        <ele>615.7</ele>
      </trkpt>
      <trkpt lat="44.75287" lon="5.34457">
        <ele>618.3</ele>
      </trkpt>
      <trkpt lat="44.75296" lon="5.34439">
        <ele>612.6</ele>
      </trkpt>
      <trkpt lat="44.75296" lon="5.34409">
        <ele>611.9</ele>
      </trkpt>
      <trkpt lat="44.75294" lon="5.34378">
        <ele>612.2</ele>
      </trkpt>
      <trkpt lat="44.75294" lon="5.34356">
        <ele>612.3</ele>
      </trkpt>
      <trkpt lat="44.75319" lon="5.34338">
        <ele>598.7</ele>
      </trkpt>
      <trkpt lat="44.75317" lon="5.34369">
        <ele>599.6</ele>
      </trkpt>
      <trkpt lat="44.7533" lon="5.34399">
        <ele>591.9</ele>
      </trkpt>
      <trkpt lat="44.75343" lon="5.34424">
        <ele>586.8</ele>
      </trkpt>
      <trkpt lat="44.7534" lon="5.34463">
        <ele>592.1</ele>
      </trkpt>
      <trkpt lat="44.75355" lon="5.34482">
        <ele>588.8</ele>
      </trkpt>
      <trkpt lat="44.75356" lon="5.34526">
        <ele>594</ele>
      </trkpt>
      <trkpt lat="44.75376" lon="5.34561">
        <ele>591.8</ele>
      </trkpt>
      <trkpt lat="44.75397" lon="5.34589">
        <ele>586.3</ele>
      </trkpt>
      <trkpt lat="44.75407" lon="5.34612">
        <ele>580.2</ele>
      </trkpt>
      <trkpt lat="44.75387" lon="5.3465">
        <ele>583</ele>
      </trkpt>
      <trkpt lat="44.75375" lon="5.34682">
        <ele>582.1</ele>
      </trkpt>
      <trkpt lat="44.75374" lon="5.34713">
        <ele>577.3</ele>
      </trkpt>
      <trkpt lat="44.75355" lon="5.34735">
        <ele>580.5</ele>
      </trkpt>
      <trkpt lat="44.75367" lon="5.34759">
        <ele>572.6</ele>
      </trkpt>
      <trkpt lat="44.75374" lon="5.34783">
        <ele>568.4</ele>
      </trkpt>
      <trkpt lat="44.75395" lon="5.34768">
        <ele>561.9</ele>
      </trkpt>
      <trkpt lat="44.75418" lon="5.34761">
        <ele>553.5</ele>
      </trkpt>
      <trkpt lat="44.75445" lon="5.34763">
        <ele>546.5</ele>
      </trkpt>
      <trkpt lat="44.75475" lon="5.34762">
        <ele>538.9</ele>
      </trkpt>
      <trkpt lat="44.75499" lon="5.3477">
        <ele>532.5</ele>
      </trkpt>
      <trkpt lat="44.75527" lon="5.3478">
        <ele>522.7</ele>
      </trkpt>
      <trkpt lat="44.75554" lon="5.34794">
        <ele>513.1</ele>
      </trkpt>
      <trkpt lat="44.75566" lon="5.34822">
        <ele>508.2</ele>
      </trkpt>
      <trkpt lat="44.75583" lon="5.34839">
        <ele>502</ele>
      </trkpt>
      <trkpt lat="44.75585" lon="5.34864">
        <ele>500</ele>
      </trkpt>
      <trkpt lat="44.75588" lon="5.34892">
        <ele>498</ele>
      </trkpt>
      <trkpt lat="44.75586" lon="5.3492">
        <ele>497.7</ele>
      </trkpt>
      <trkpt lat="44.75583" lon="5.3494">
        <ele>495.9</ele>
      </trkpt>
      <trkpt lat="44.75607" lon="5.34923">
        <ele>489.1</ele>
      </trkpt>
      <trkpt lat="44.75622" lon="5.34905">
        <ele>484.5</ele>
      </trkpt>
      <trkpt lat="44.7563" lon="5.34882">
        <ele>482.2</ele>
      </trkpt>
      <trkpt lat="44.75633" lon="5.34856">
        <ele>481.8</ele>
      </trkpt>
      <trkpt lat="44.75632" lon="5.34823">
        <ele>483</ele>
      </trkpt>
      <trkpt lat="44.75636" lon="5.34795">
        <ele>482.2</ele>
      </trkpt>
      <trkpt lat="44.75646" lon="5.3477">
        <ele>479.2</ele>
      </trkpt>
      <trkpt lat="44.75674" lon="5.34758">
        <ele>468.8</ele>
      </trkpt>
      <trkpt lat="44.75681" lon="5.34778">
        <ele>465.3</ele>
      </trkpt>
      <trkpt lat="44.75696" lon="5.34803">
        <ele>458.4</ele>
      </trkpt>
      <trkpt lat="44.75715" lon="5.34833">
        <ele>450.4</ele>
      </trkpt>
      <trkpt lat="44.75722" lon="5.34875">
        <ele>448.1</ele>
      </trkpt>
      <trkpt lat="44.75721" lon="5.34939">
        <ele>447.6</ele>
      </trkpt>
      <trkpt lat="44.7574" lon="5.34911">
        <ele>442.1</ele>
      </trkpt>
      <trkpt lat="44.75759" lon="5.34869">
        <ele>435.3</ele>
      </trkpt>
      <trkpt lat="44.75779" lon="5.34823">
        <ele>429.7</ele>
      </trkpt>
      <trkpt lat="44.75786" lon="5.34792">
        <ele>428.5</ele>
      </trkpt>
      <trkpt lat="44.75788" lon="5.34752">
        <ele>429.2</ele>
      </trkpt>
      <trkpt lat="44.75796" lon="5.34716">
        <ele>428.9</ele>
      </trkpt>
      <trkpt lat="44.75806" lon="5.34701">
        <ele>427.1</ele>
      </trkpt>
      <trkpt lat="44.75829" lon="5.34732">
        <ele>420.6</ele>
      </trkpt>
      <trkpt lat="44.75844" lon="5.3477">
        <ele>415.7</ele>
      </trkpt>
      <trkpt lat="44.75856" lon="5.34805">
        <ele>411.1</ele>
      </trkpt>
      <trkpt lat="44.75875" lon="5.34838">
        <ele>404.3</ele>
      </trkpt>
      <trkpt lat="44.7589" lon="5.34865">
        <ele>398.6</ele>
      </trkpt>
      <trkpt lat="44.7591" lon="5.34894">
        <ele>391</ele>
      </trkpt>
      <trkpt lat="44.75925" lon="5.34926">
        <ele>385.7</ele>
      </trkpt>
      <trkpt lat="44.75927" lon="5.34969">
        <ele>383.3</ele>
      </trkpt>
      <trkpt lat="44.75929" lon="5.35024">
        <ele>381.6</ele>
      </trkpt>
      <trkpt lat="44.75945" lon="5.34992">
        <ele>381.6</ele>
      </trkpt>
      <trkpt lat="44.75964" lon="5.34959">
        <ele>381.6</ele>
      </trkpt>
      <trkpt lat="44.75985" lon="5.34911">
        <ele>380.7</ele>
      </trkpt>
      <trkpt lat="44.76005" lon="5.34873">
        <ele>380.2</ele>
      </trkpt>
      <trkpt lat="44.76031" lon="5.34834">
        <ele>381</ele>
      </trkpt>
      <trkpt lat="44.76058" lon="5.34797">
        <ele>381.1</ele>
      </trkpt>
      <trkpt lat="44.76083" lon="5.34754">
        <ele>380</ele>
      </trkpt>
      <trkpt lat="44.761" lon="5.34721">
        <ele>380.5</ele>
      </trkpt>
      <trkpt lat="44.76116" lon="5.34676">
        <ele>381.3</ele>
      </trkpt>
      <trkpt lat="44.76129" lon="5.34632">
        <ele>380.7</ele>
      </trkpt>
      <trkpt lat="44.76138" lon="5.34587">
        <ele>379.4</ele>
      </trkpt>
      <trkpt lat="44.76147" lon="5.34539">
        <ele>379.4</ele>
      </trkpt>
      <trkpt lat="44.76155" lon="5.34494">
        <ele>379.4</ele>
      </trkpt>
      <trkpt lat="44.7617" lon="5.34438">
        <ele>379.7</ele>
      </trkpt>
      <trkpt lat="44.76175" lon="5.34399">
        <ele>379.6</ele>
      </trkpt>
      <trkpt lat="44.76191" lon="5.34356">
        <ele>378.9</ele>
      </trkpt>
      <trkpt lat="44.76203" lon="5.34312">
        <ele>378.7</ele>
      </trkpt>
      <trkpt lat="44.76223" lon="5.34275">
        <ele>378.3</ele>
      </trkpt>
      <trkpt lat="44.76237" lon="5.34247">
        <ele>377.6</ele>
      </trkpt>
      <trkpt lat="44.76248" lon="5.34213">
        <ele>377.2</ele>
      </trkpt>
      <trkpt lat="44.76269" lon="5.34175">
        <ele>377</ele>
      </trkpt>
      <trkpt lat="44.76291" lon="5.34139">
        <ele>377.2</ele>
      </trkpt>
      <trkpt lat="44.76312" lon="5.3411">
        <ele>376.8</ele>
      </trkpt>
      <trkpt lat="44.76332" lon="5.34081">
        <ele>376.1</ele>
      </trkpt>
      <trkpt lat="44.76348" lon="5.34051">
        <ele>376.2</ele>
      </trkpt>
      <trkpt lat="44.76361" lon="5.34028">
        <ele>376.2</ele>
      </trkpt>
      <trkpt lat="44.76369" lon="5.33998">
        <ele>376</ele>
      </trkpt>
      <trkpt lat="44.7638" lon="5.33967">
        <ele>376.4</ele>
      </trkpt>
      <trkpt lat="44.76397" lon="5.33931">
        <ele>376.4</ele>
      </trkpt>
      <trkpt lat="44.7641" lon="5.33881">
        <ele>375.9</ele>
      </trkpt>
      <trkpt lat="44.76426" lon="5.33829">
        <ele>375.1</ele>
      </trkpt>
      <trkpt lat="44.76446" lon="5.33774">
        <ele>375.5</ele>
      </trkpt>
      <trkpt lat="44.76466" lon="5.33715">
        <ele>375</ele>
      </trkpt>
      <trkpt lat="44.76484" lon="5.33658">
        <ele>374</ele>
      </trkpt>
      <trkpt lat="44.76501" lon="5.33605">
        <ele>372.5</ele>
      </trkpt>
      <trkpt lat="44.76512" lon="5.33571">
        <ele>372.5</ele>
      </trkpt>
      <trkpt lat="44.76529" lon="5.33533">
        <ele>373.1</ele>
      </trkpt>
      <trkpt lat="44.76495" lon="5.33516">
        <ele>373.8</ele>
      </trkpt>
      <trkpt lat="44.76482" lon="5.33566">
        <ele>373</ele>
      </trkpt>
      <trkpt lat="44.76447" lon="5.33541">
        <ele>374.6</ele>
      </trkpt>
      <trkpt lat="44.76412" lon="5.33539">
        <ele>376</ele>
      </trkpt>
      <trkpt lat="44.76422" lon="5.33505">
        <ele>375.8</ele>
      </trkpt>
      <trkpt lat="44.76439" lon="5.33461">
        <ele>376</ele>
      </trkpt>
      <trkpt lat="44.76459" lon="5.33433">
        <ele>375.4</ele>
      </trkpt>
      <trkpt lat="44.7648" lon="5.33405">
        <ele>374.4</ele>
      </trkpt>
      <trkpt lat="44.76499" lon="5.33352">
        <ele>373.2</ele>
      </trkpt>
      <trkpt lat="44.76526" lon="5.333">
        <ele>373.1</ele>
      </trkpt>
      <trkpt lat="44.76553" lon="5.33256">
        <ele>371.9</ele>
      </trkpt>
      <trkpt lat="44.76575" lon="5.33215">
        <ele>371.8</ele>
      </trkpt>
      <trkpt lat="44.76598" lon="5.33177">
        <ele>372</ele>
      </trkpt>
      <trkpt lat="44.76611" lon="5.33133">
        <ele>371.4</ele>
      </trkpt>
      <trkpt lat="44.76617" lon="5.33083">
        <ele>370.6</ele>
      </trkpt>
      <trkpt lat="44.76617" lon="5.33036">
        <ele>371.6</ele>
      </trkpt>
      <trkpt lat="44.7661" lon="5.32993">
        <ele>372.7</ele>
      </trkpt>
      <trkpt lat="44.76591" lon="5.32973">
        <ele>373.6</ele>
      </trkpt>
      <trkpt lat="44.76569" lon="5.32962">
        <ele>374.9</ele>
      </trkpt>
      <trkpt lat="44.76543" lon="5.32976">
        <ele>376.7</ele>
      </trkpt>
      <trkpt lat="44.76523" lon="5.32987">
        <ele>378.2</ele>
      </trkpt>
      <trkpt lat="44.76492" lon="5.32968">
        <ele>380.3</ele>
      </trkpt>
      <trkpt lat="44.76466" lon="5.32966">
        <ele>382.8</ele>
      </trkpt>
      <trkpt lat="44.76436" lon="5.32977">
        <ele>385.1</ele>
      </trkpt>
      <trkpt lat="44.76403" lon="5.32987">
        <ele>386.5</ele>
      </trkpt>
      <trkpt lat="44.76375" lon="5.32991">
        <ele>387.3</ele>
      </trkpt>
      <trkpt lat="44.76348" lon="5.33001">
        <ele>387.5</ele>
      </trkpt>
      <trkpt lat="44.7632" lon="5.33014">
        <ele>389.3</ele>
      </trkpt>
      <trkpt lat="44.76295" lon="5.33023">
        <ele>390.6</ele>
      </trkpt>
      <trkpt lat="44.76269" lon="5.33015">
        <ele>390.7</ele>
      </trkpt>
      <trkpt lat="44.76245" lon="5.33014">
        <ele>391.4</ele>
      </trkpt>
      <trkpt lat="44.76223" lon="5.33025">
        <ele>393.8</ele>
      </trkpt>
      <trkpt lat="44.76199" lon="5.33045">
        <ele>396.7</ele>
      </trkpt>
      <trkpt lat="44.76176" lon="5.33064">
        <ele>399.4</ele>
      </trkpt>
      <trkpt lat="44.76154" lon="5.3309">
        <ele>403.1</ele>
      </trkpt>
      <trkpt lat="44.76129" lon="5.33113">
        <ele>409.8</ele>
      </trkpt>
      <trkpt lat="44.76103" lon="5.33114">
        <ele>409.1</ele>
      </trkpt>
      <trkpt lat="44.76076" lon="5.33104">
        <ele>405.6</ele>
      </trkpt>
      <trkpt lat="44.76043" lon="5.33081">
        <ele>400.7</ele>
      </trkpt>
      <trkpt lat="44.76014" lon="5.33061">
        <ele>404.4</ele>
      </trkpt>
      <trkpt lat="44.75972" lon="5.33054">
        <ele>407.6</ele>
      </trkpt>
      <trkpt lat="44.75935" lon="5.33049">
        <ele>410.4</ele>
      </trkpt>
      <trkpt lat="44.75901" lon="5.33046">
        <ele>412.4</ele>
      </trkpt>
      <trkpt lat="44.75863" lon="5.33044">
        <ele>414</ele>
      </trkpt>
      <trkpt lat="44.75829" lon="5.33051">
        <ele>413.2</ele>
      </trkpt>
      <trkpt lat="44.75794" lon="5.33068">
        <ele>410.8</ele>
      </trkpt>
      <trkpt lat="44.75757" lon="5.3309">
        <ele>409.8</ele>
      </trkpt>
      <trkpt lat="44.75724" lon="5.33108">
        <ele>414.7</ele>
      </trkpt>
      <trkpt lat="44.75693" lon="5.33121">
        <ele>418</ele>
      </trkpt>
      <trkpt lat="44.75661" lon="5.33132">
        <ele>420</ele>
      </trkpt>
      <trkpt lat="44.75629" lon="5.33145">
        <ele>420.6</ele>
      </trkpt>
      <trkpt lat="44.7559" lon="5.33162">
        <ele>420.9</ele>
      </trkpt>
      <trkpt lat="44.75553" lon="5.33178">
        <ele>421.2</ele>
      </trkpt>
      <trkpt lat="44.75517" lon="5.33189">
        <ele>420.7</ele>
      </trkpt>
      <trkpt lat="44.7548" lon="5.33211">
        <ele>422.3</ele>
      </trkpt>
      <trkpt lat="44.75441" lon="5.33235">
        <ele>423.4</ele>
      </trkpt>
      <trkpt lat="44.7541" lon="5.33254">
        <ele>423.2</ele>
      </trkpt>
      <trkpt lat="44.7538" lon="5.33303">
        <ele>427.3</ele>
      </trkpt>
      <trkpt lat="44.75351" lon="5.3336">
        <ele>430.1</ele>
      </trkpt>
      <trkpt lat="44.75324" lon="5.33405">
        <ele>432.5</ele>
      </trkpt>
      <trkpt lat="44.753" lon="5.33452">
        <ele>436.2</ele>
      </trkpt>
      <trkpt lat="44.75275" lon="5.33494">
        <ele>439.3</ele>
      </trkpt>
      <trkpt lat="44.75245" lon="5.33526">
        <ele>442.7</ele>
      </trkpt>
      <trkpt lat="44.75211" lon="5.33548">
        <ele>443</ele>
      </trkpt>
      <trkpt lat="44.75174" lon="5.33557">
        <ele>441.1</ele>
      </trkpt>
      <trkpt lat="44.75139" lon="5.33555">
        <ele>440.1</ele>
      </trkpt>
      <trkpt lat="44.75101" lon="5.33549">
        <ele>439.7</ele>
      </trkpt>
    </trkseg>
  </trk>
</gpx>